<?xml version="1.0" encoding="UTF-8" standalone="no" ?>
<gpx xmlns="http://www.topografix.com/GPX/1/1" xmlns:xsi="http://www.w3.org/2001/XMLSchema-instance" xsi:schemaLocation="http://www.topografix.com/GPX/1/1 http://www.topografix.com/GPX/1/1/gpx.xsd" version="1.1" creator="VisuGPX - https://www.visugpx.com">
  <metadata>
    <name>ravins de Gornies</name>
    <desc><![CDATA[Encore une Randonnée cévenole

]]></desc>
  </metadata>
  <trk>
    <name><![CDATA[22-NOV-15 15:15:41]]></name>
    <trkseg>
      <trkpt lat="43.89018" lon="3.62519">
        <ele>199.13</ele>
        <time>2015-11-22T09:52:32Z</time>
      </trkpt>
      <trkpt lat="43.89019" lon="3.6252">
        <ele>199.61</ele>
        <time>2015-11-22T09:53:02Z</time>
      </trkpt>
      <trkpt lat="43.89019" lon="3.6252">
        <ele>199.61</ele>
        <time>2015-11-22T09:53:26Z</time>
      </trkpt>
      <trkpt lat="43.8902" lon="3.62518">
        <ele>199.61</ele>
        <time>2015-11-22T09:53:47Z</time>
      </trkpt>
      <trkpt lat="43.89019" lon="3.62521">
        <ele>199.61</ele>
        <time>2015-11-22T09:53:59Z</time>
      </trkpt>
      <trkpt lat="43.89018" lon="3.6252">
        <ele>199.61</ele>
        <time>2015-11-22T09:54:24Z</time>
      </trkpt>
      <trkpt lat="43.89016" lon="3.62518">
        <ele>199.61</ele>
        <time>2015-11-22T09:54:30Z</time>
      </trkpt>
      <trkpt lat="43.89001" lon="3.62509">
        <ele>200.09</ele>
        <time>2015-11-22T09:54:43Z</time>
      </trkpt>
      <trkpt lat="43.88993" lon="3.62506">
        <ele>200.09</ele>
        <time>2015-11-22T09:54:49Z</time>
      </trkpt>
      <trkpt lat="43.88989" lon="3.62503">
        <ele>200.09</ele>
        <time>2015-11-22T09:54:53Z</time>
      </trkpt>
      <trkpt lat="43.88987" lon="3.62502">
        <ele>200.09</ele>
        <time>2015-11-22T09:54:55Z</time>
      </trkpt>
      <trkpt lat="43.88966" lon="3.62493">
        <ele>200.57</ele>
        <time>2015-11-22T09:55:09Z</time>
      </trkpt>
      <trkpt lat="43.8895" lon="3.62483">
        <ele>200.57</ele>
        <time>2015-11-22T09:55:22Z</time>
      </trkpt>
      <trkpt lat="43.88938" lon="3.62478">
        <ele>201.05</ele>
        <time>2015-11-22T09:55:31Z</time>
      </trkpt>
      <trkpt lat="43.88932" lon="3.62474">
        <ele>201.05</ele>
        <time>2015-11-22T09:55:36Z</time>
      </trkpt>
      <trkpt lat="43.88932" lon="3.62463">
        <ele>202.01</ele>
        <time>2015-11-22T09:55:42Z</time>
      </trkpt>
      <trkpt lat="43.88929" lon="3.62449">
        <ele>204.9</ele>
        <time>2015-11-22T09:55:55Z</time>
      </trkpt>
      <trkpt lat="43.88921" lon="3.62444">
        <ele>208.26</ele>
        <time>2015-11-22T09:56:07Z</time>
      </trkpt>
      <trkpt lat="43.88913" lon="3.62442">
        <ele>210.19</ele>
        <time>2015-11-22T09:56:15Z</time>
      </trkpt>
      <trkpt lat="43.88907" lon="3.62439">
        <ele>211.63</ele>
        <time>2015-11-22T09:56:22Z</time>
      </trkpt>
      <trkpt lat="43.88906" lon="3.62437">
        <ele>212.11</ele>
        <time>2015-11-22T09:56:24Z</time>
      </trkpt>
      <trkpt lat="43.88902" lon="3.62434">
        <ele>213.07</ele>
        <time>2015-11-22T09:56:30Z</time>
      </trkpt>
      <trkpt lat="43.88901" lon="3.6243">
        <ele>213.55</ele>
        <time>2015-11-22T09:56:33Z</time>
      </trkpt>
      <trkpt lat="43.88903" lon="3.62418">
        <ele>217.4</ele>
        <time>2015-11-22T09:56:48Z</time>
      </trkpt>
      <trkpt lat="43.88895" lon="3.624">
        <ele>217.88</ele>
        <time>2015-11-22T09:57:01Z</time>
      </trkpt>
      <trkpt lat="43.88887" lon="3.62391">
        <ele>219.32</ele>
        <time>2015-11-22T09:57:13Z</time>
      </trkpt>
      <trkpt lat="43.88894" lon="3.62386">
        <ele>221.24</ele>
        <time>2015-11-22T09:57:25Z</time>
      </trkpt>
      <trkpt lat="43.88895" lon="3.62385">
        <ele>221.72</ele>
        <time>2015-11-22T09:57:27Z</time>
      </trkpt>
      <trkpt lat="43.88915" lon="3.62382">
        <ele>224.61</ele>
        <time>2015-11-22T09:57:47Z</time>
      </trkpt>
      <trkpt lat="43.88937" lon="3.6238">
        <ele>226.53</ele>
        <time>2015-11-22T09:58:03Z</time>
      </trkpt>
      <trkpt lat="43.88955" lon="3.62371">
        <ele>228.93</ele>
        <time>2015-11-22T09:58:20Z</time>
      </trkpt>
      <trkpt lat="43.88964" lon="3.62372">
        <ele>229.41</ele>
        <time>2015-11-22T09:58:27Z</time>
      </trkpt>
      <trkpt lat="43.88981" lon="3.62373">
        <ele>231.33</ele>
        <time>2015-11-22T09:58:41Z</time>
      </trkpt>
      <trkpt lat="43.88982" lon="3.62372">
        <ele>231.81</ele>
        <time>2015-11-22T09:58:42Z</time>
      </trkpt>
      <trkpt lat="43.88985" lon="3.62371">
        <ele>231.81</ele>
        <time>2015-11-22T09:58:44Z</time>
      </trkpt>
      <trkpt lat="43.89006" lon="3.62367">
        <ele>233.74</ele>
        <time>2015-11-22T09:59:01Z</time>
      </trkpt>
      <trkpt lat="43.89008" lon="3.62368">
        <ele>233.74</ele>
        <time>2015-11-22T09:59:03Z</time>
      </trkpt>
      <trkpt lat="43.89012" lon="3.62368">
        <ele>233.74</ele>
        <time>2015-11-22T09:59:06Z</time>
      </trkpt>
      <trkpt lat="43.89018" lon="3.62368">
        <ele>234.22</ele>
        <time>2015-11-22T09:59:11Z</time>
      </trkpt>
      <trkpt lat="43.89034" lon="3.6237">
        <ele>235.18</ele>
        <time>2015-11-22T09:59:24Z</time>
      </trkpt>
      <trkpt lat="43.89047" lon="3.6237">
        <ele>236.14</ele>
        <time>2015-11-22T09:59:40Z</time>
      </trkpt>
      <trkpt lat="43.89046" lon="3.62366">
        <ele>238.54</ele>
        <time>2015-11-22T09:59:51Z</time>
      </trkpt>
      <trkpt lat="43.89049" lon="3.62362">
        <ele>239.51</ele>
        <time>2015-11-22T09:59:58Z</time>
      </trkpt>
      <trkpt lat="43.89053" lon="3.62357">
        <ele>240.47</ele>
        <time>2015-11-22T10:00:04Z</time>
      </trkpt>
      <trkpt lat="43.89057" lon="3.62356">
        <ele>241.91</ele>
        <time>2015-11-22T10:00:09Z</time>
      </trkpt>
      <trkpt lat="43.89067" lon="3.62351">
        <ele>244.79</ele>
        <time>2015-11-22T10:00:23Z</time>
      </trkpt>
      <trkpt lat="43.89073" lon="3.6235">
        <ele>247.68</ele>
        <time>2015-11-22T10:00:34Z</time>
      </trkpt>
      <trkpt lat="43.89084" lon="3.62346">
        <ele>250.56</ele>
        <time>2015-11-22T10:00:49Z</time>
      </trkpt>
      <trkpt lat="43.89087" lon="3.62347">
        <ele>251.04</ele>
        <time>2015-11-22T10:00:55Z</time>
      </trkpt>
      <trkpt lat="43.891" lon="3.62352">
        <ele>253.93</ele>
        <time>2015-11-22T10:01:10Z</time>
      </trkpt>
      <trkpt lat="43.89111" lon="3.62352">
        <ele>255.85</ele>
        <time>2015-11-22T10:01:24Z</time>
      </trkpt>
      <trkpt lat="43.89115" lon="3.6235">
        <ele>257.29</ele>
        <time>2015-11-22T10:01:31Z</time>
      </trkpt>
      <trkpt lat="43.89128" lon="3.62352">
        <ele>258.73</ele>
        <time>2015-11-22T10:01:45Z</time>
      </trkpt>
      <trkpt lat="43.89133" lon="3.62353">
        <ele>260.17</ele>
        <time>2015-11-22T10:01:53Z</time>
      </trkpt>
      <trkpt lat="43.89144" lon="3.62355">
        <ele>262.1</ele>
        <time>2015-11-22T10:02:06Z</time>
      </trkpt>
      <trkpt lat="43.89147" lon="3.62356">
        <ele>264.02</ele>
        <time>2015-11-22T10:02:19Z</time>
      </trkpt>
      <trkpt lat="43.89147" lon="3.62359">
        <ele>264.02</ele>
        <time>2015-11-22T10:02:34Z</time>
      </trkpt>
      <trkpt lat="43.89148" lon="3.6236">
        <ele>264.5</ele>
        <time>2015-11-22T10:02:56Z</time>
      </trkpt>
      <trkpt lat="43.89148" lon="3.6236">
        <ele>264.5</ele>
        <time>2015-11-22T10:03:15Z</time>
      </trkpt>
      <trkpt lat="43.89156" lon="3.62359">
        <ele>266.42</ele>
        <time>2015-11-22T10:03:24Z</time>
      </trkpt>
      <trkpt lat="43.89168" lon="3.62357">
        <ele>269.31</ele>
        <time>2015-11-22T10:03:38Z</time>
      </trkpt>
      <trkpt lat="43.89174" lon="3.62357">
        <ele>271.23</ele>
        <time>2015-11-22T10:03:47Z</time>
      </trkpt>
      <trkpt lat="43.89186" lon="3.62357">
        <ele>273.15</ele>
        <time>2015-11-22T10:04:01Z</time>
      </trkpt>
      <trkpt lat="43.89188" lon="3.62357">
        <ele>273.15</ele>
        <time>2015-11-22T10:04:02Z</time>
      </trkpt>
      <trkpt lat="43.89198" lon="3.62358">
        <ele>275.56</ele>
        <time>2015-11-22T10:04:16Z</time>
      </trkpt>
      <trkpt lat="43.8921" lon="3.62359">
        <ele>277.96</ele>
        <time>2015-11-22T10:04:30Z</time>
      </trkpt>
      <trkpt lat="43.89217" lon="3.62355">
        <ele>279.4</ele>
        <time>2015-11-22T10:04:41Z</time>
      </trkpt>
      <trkpt lat="43.89225" lon="3.62348">
        <ele>281.32</ele>
        <time>2015-11-22T10:04:53Z</time>
      </trkpt>
      <trkpt lat="43.89228" lon="3.62347">
        <ele>281.32</ele>
        <time>2015-11-22T10:04:56Z</time>
      </trkpt>
      <trkpt lat="43.89235" lon="3.62333">
        <ele>283.25</ele>
        <time>2015-11-22T10:05:11Z</time>
      </trkpt>
      <trkpt lat="43.89241" lon="3.62313">
        <ele>284.21</ele>
        <time>2015-11-22T10:05:26Z</time>
      </trkpt>
      <trkpt lat="43.89247" lon="3.62291">
        <ele>285.17</ele>
        <time>2015-11-22T10:05:41Z</time>
      </trkpt>
      <trkpt lat="43.89246" lon="3.62273">
        <ele>287.57</ele>
        <time>2015-11-22T10:05:56Z</time>
      </trkpt>
      <trkpt lat="43.89245" lon="3.62265">
        <ele>288.53</ele>
        <time>2015-11-22T10:06:05Z</time>
      </trkpt>
      <trkpt lat="43.89251" lon="3.62247">
        <ele>290.46</ele>
        <time>2015-11-22T10:06:19Z</time>
      </trkpt>
      <trkpt lat="43.89253" lon="3.62243">
        <ele>290.94</ele>
        <time>2015-11-22T10:06:22Z</time>
      </trkpt>
      <trkpt lat="43.89256" lon="3.62223">
        <ele>291.42</ele>
        <time>2015-11-22T10:06:36Z</time>
      </trkpt>
      <trkpt lat="43.89256" lon="3.62222">
        <ele>291.42</ele>
        <time>2015-11-22T10:06:37Z</time>
      </trkpt>
      <trkpt lat="43.89268" lon="3.62197">
        <ele>291.42</ele>
        <time>2015-11-22T10:06:50Z</time>
      </trkpt>
      <trkpt lat="43.8927" lon="3.6218">
        <ele>292.38</ele>
        <time>2015-11-22T10:07:01Z</time>
      </trkpt>
      <trkpt lat="43.89267" lon="3.6216">
        <ele>293.34</ele>
        <time>2015-11-22T10:07:16Z</time>
      </trkpt>
      <trkpt lat="43.89267" lon="3.62147">
        <ele>295.74</ele>
        <time>2015-11-22T10:07:25Z</time>
      </trkpt>
      <trkpt lat="43.89268" lon="3.62142">
        <ele>295.74</ele>
        <time>2015-11-22T10:07:28Z</time>
      </trkpt>
      <trkpt lat="43.89271" lon="3.62123">
        <ele>297.18</ele>
        <time>2015-11-22T10:07:41Z</time>
      </trkpt>
      <trkpt lat="43.89271" lon="3.6212">
        <ele>297.67</ele>
        <time>2015-11-22T10:07:44Z</time>
      </trkpt>
      <trkpt lat="43.8927" lon="3.6211">
        <ele>297.67</ele>
        <time>2015-11-22T10:07:49Z</time>
      </trkpt>
      <trkpt lat="43.89263" lon="3.62104">
        <ele>298.15</ele>
        <time>2015-11-22T10:07:53Z</time>
      </trkpt>
      <trkpt lat="43.89261" lon="3.62101">
        <ele>298.15</ele>
        <time>2015-11-22T10:07:55Z</time>
      </trkpt>
      <trkpt lat="43.89252" lon="3.62079">
        <ele>299.11</ele>
        <time>2015-11-22T10:08:09Z</time>
      </trkpt>
      <trkpt lat="43.89249" lon="3.62073">
        <ele>300.07</ele>
        <time>2015-11-22T10:08:15Z</time>
      </trkpt>
      <trkpt lat="43.89247" lon="3.62067">
        <ele>300.55</ele>
        <time>2015-11-22T10:08:19Z</time>
      </trkpt>
      <trkpt lat="43.89247" lon="3.62045">
        <ele>300.07</ele>
        <time>2015-11-22T10:08:32Z</time>
      </trkpt>
      <trkpt lat="43.89247" lon="3.62039">
        <ele>300.07</ele>
        <time>2015-11-22T10:08:47Z</time>
      </trkpt>
      <trkpt lat="43.89247" lon="3.6203">
        <ele>301.03</ele>
        <time>2015-11-22T10:09:11Z</time>
      </trkpt>
      <trkpt lat="43.89245" lon="3.6201">
        <ele>302.95</ele>
        <time>2015-11-22T10:09:26Z</time>
      </trkpt>
      <trkpt lat="43.89241" lon="3.61991">
        <ele>304.39</ele>
        <time>2015-11-22T10:09:39Z</time>
      </trkpt>
      <trkpt lat="43.89235" lon="3.61975">
        <ele>306.32</ele>
        <time>2015-11-22T10:09:53Z</time>
      </trkpt>
      <trkpt lat="43.89234" lon="3.61973">
        <ele>306.8</ele>
        <time>2015-11-22T10:09:56Z</time>
      </trkpt>
      <trkpt lat="43.89231" lon="3.61965">
        <ele>309.68</ele>
        <time>2015-11-22T10:10:09Z</time>
      </trkpt>
      <trkpt lat="43.89227" lon="3.61955">
        <ele>312.09</ele>
        <time>2015-11-22T10:10:22Z</time>
      </trkpt>
      <trkpt lat="43.8923" lon="3.61947">
        <ele>313.53</ele>
        <time>2015-11-22T10:10:37Z</time>
      </trkpt>
      <trkpt lat="43.89234" lon="3.61942">
        <ele>314.49</ele>
        <time>2015-11-22T10:10:43Z</time>
      </trkpt>
      <trkpt lat="43.89238" lon="3.61937">
        <ele>314.97</ele>
        <time>2015-11-22T10:10:54Z</time>
      </trkpt>
      <trkpt lat="43.8924" lon="3.61924">
        <ele>316.89</ele>
        <time>2015-11-22T10:11:08Z</time>
      </trkpt>
      <trkpt lat="43.89236" lon="3.61926">
        <ele>319.3</ele>
        <time>2015-11-22T10:11:20Z</time>
      </trkpt>
      <trkpt lat="43.89235" lon="3.61915">
        <ele>321.7</ele>
        <time>2015-11-22T10:11:33Z</time>
      </trkpt>
      <trkpt lat="43.89233" lon="3.61906">
        <ele>323.62</ele>
        <time>2015-11-22T10:11:47Z</time>
      </trkpt>
      <trkpt lat="43.8923" lon="3.61904">
        <ele>325.06</ele>
        <time>2015-11-22T10:11:56Z</time>
      </trkpt>
      <trkpt lat="43.89229" lon="3.61895">
        <ele>327.47</ele>
        <time>2015-11-22T10:12:08Z</time>
      </trkpt>
      <trkpt lat="43.89221" lon="3.61901">
        <ele>330.35</ele>
        <time>2015-11-22T10:12:22Z</time>
      </trkpt>
      <trkpt lat="43.89219" lon="3.6189">
        <ele>332.27</ele>
        <time>2015-11-22T10:12:35Z</time>
      </trkpt>
      <trkpt lat="43.8922" lon="3.61879">
        <ele>333.23</ele>
        <time>2015-11-22T10:12:46Z</time>
      </trkpt>
      <trkpt lat="43.89217" lon="3.61882">
        <ele>335.16</ele>
        <time>2015-11-22T10:12:57Z</time>
      </trkpt>
      <trkpt lat="43.89215" lon="3.61872">
        <ele>337.08</ele>
        <time>2015-11-22T10:13:09Z</time>
      </trkpt>
      <trkpt lat="43.89213" lon="3.61863">
        <ele>339</ele>
        <time>2015-11-22T10:13:23Z</time>
      </trkpt>
      <trkpt lat="43.89209" lon="3.61864">
        <ele>339.48</ele>
        <time>2015-11-22T10:13:39Z</time>
      </trkpt>
      <trkpt lat="43.89208" lon="3.61864">
        <ele>339.96</ele>
        <time>2015-11-22T10:14:00Z</time>
      </trkpt>
      <trkpt lat="43.89207" lon="3.61865">
        <ele>340.44</ele>
        <time>2015-11-22T10:14:36Z</time>
      </trkpt>
      <trkpt lat="43.89208" lon="3.61866">
        <ele>339.48</ele>
        <time>2015-11-22T10:14:53Z</time>
      </trkpt>
      <trkpt lat="43.89209" lon="3.61872">
        <ele>341.89</ele>
        <time>2015-11-22T10:15:03Z</time>
      </trkpt>
      <trkpt lat="43.89204" lon="3.6188">
        <ele>344.29</ele>
        <time>2015-11-22T10:15:17Z</time>
      </trkpt>
      <trkpt lat="43.89201" lon="3.61891">
        <ele>346.69</ele>
        <time>2015-11-22T10:15:30Z</time>
      </trkpt>
      <trkpt lat="43.89195" lon="3.61905">
        <ele>348.62</ele>
        <time>2015-11-22T10:15:44Z</time>
      </trkpt>
      <trkpt lat="43.89186" lon="3.61902">
        <ele>350.54</ele>
        <time>2015-11-22T10:15:56Z</time>
      </trkpt>
      <trkpt lat="43.89183" lon="3.6189">
        <ele>353.42</ele>
        <time>2015-11-22T10:16:10Z</time>
      </trkpt>
      <trkpt lat="43.89181" lon="3.61882">
        <ele>355.34</ele>
        <time>2015-11-22T10:16:23Z</time>
      </trkpt>
      <trkpt lat="43.89183" lon="3.61873">
        <ele>357.75</ele>
        <time>2015-11-22T10:16:35Z</time>
      </trkpt>
      <trkpt lat="43.89183" lon="3.61862">
        <ele>359.67</ele>
        <time>2015-11-22T10:16:46Z</time>
      </trkpt>
      <trkpt lat="43.89181" lon="3.61852">
        <ele>361.59</ele>
        <time>2015-11-22T10:16:58Z</time>
      </trkpt>
      <trkpt lat="43.89178" lon="3.61836">
        <ele>364.48</ele>
        <time>2015-11-22T10:17:13Z</time>
      </trkpt>
      <trkpt lat="43.89181" lon="3.61822">
        <ele>367.36</ele>
        <time>2015-11-22T10:17:26Z</time>
      </trkpt>
      <trkpt lat="43.89181" lon="3.61809">
        <ele>369.76</ele>
        <time>2015-11-22T10:17:40Z</time>
      </trkpt>
      <trkpt lat="43.89176" lon="3.618">
        <ele>372.17</ele>
        <time>2015-11-22T10:17:51Z</time>
      </trkpt>
      <trkpt lat="43.89175" lon="3.61786">
        <ele>374.09</ele>
        <time>2015-11-22T10:18:04Z</time>
      </trkpt>
      <trkpt lat="43.89182" lon="3.61772">
        <ele>375.53</ele>
        <time>2015-11-22T10:18:19Z</time>
      </trkpt>
      <trkpt lat="43.89184" lon="3.61771">
        <ele>375.53</ele>
        <time>2015-11-22T10:18:34Z</time>
      </trkpt>
      <trkpt lat="43.89184" lon="3.61771">
        <ele>375.53</ele>
        <time>2015-11-22T10:18:47Z</time>
      </trkpt>
      <trkpt lat="43.89182" lon="3.61771">
        <ele>375.05</ele>
        <time>2015-11-22T10:19:00Z</time>
      </trkpt>
      <trkpt lat="43.89181" lon="3.61771">
        <ele>375.05</ele>
        <time>2015-11-22T10:19:19Z</time>
      </trkpt>
      <trkpt lat="43.89178" lon="3.61769">
        <ele>376.49</ele>
        <time>2015-11-22T10:19:31Z</time>
      </trkpt>
      <trkpt lat="43.89175" lon="3.61768">
        <ele>376.97</ele>
        <time>2015-11-22T10:19:34Z</time>
      </trkpt>
      <trkpt lat="43.89167" lon="3.61768">
        <ele>378.42</ele>
        <time>2015-11-22T10:19:46Z</time>
      </trkpt>
      <trkpt lat="43.8916" lon="3.61764">
        <ele>381.3</ele>
        <time>2015-11-22T10:19:58Z</time>
      </trkpt>
      <trkpt lat="43.8916" lon="3.6177">
        <ele>381.78</ele>
        <time>2015-11-22T10:20:10Z</time>
      </trkpt>
      <trkpt lat="43.89161" lon="3.61775">
        <ele>381.3</ele>
        <time>2015-11-22T10:20:14Z</time>
      </trkpt>
      <trkpt lat="43.89162" lon="3.61782">
        <ele>380.82</ele>
        <time>2015-11-22T10:20:19Z</time>
      </trkpt>
      <trkpt lat="43.89163" lon="3.61786">
        <ele>380.82</ele>
        <time>2015-11-22T10:20:22Z</time>
      </trkpt>
      <trkpt lat="43.89163" lon="3.61791">
        <ele>380.34</ele>
        <time>2015-11-22T10:20:25Z</time>
      </trkpt>
      <trkpt lat="43.89164" lon="3.61804">
        <ele>379.86</ele>
        <time>2015-11-22T10:20:32Z</time>
      </trkpt>
      <trkpt lat="43.89163" lon="3.61819">
        <ele>378.9</ele>
        <time>2015-11-22T10:20:42Z</time>
      </trkpt>
      <trkpt lat="43.89159" lon="3.61852">
        <ele>377.45</ele>
        <time>2015-11-22T10:20:59Z</time>
      </trkpt>
      <trkpt lat="43.89158" lon="3.61862">
        <ele>376.97</ele>
        <time>2015-11-22T10:21:05Z</time>
      </trkpt>
      <trkpt lat="43.89157" lon="3.61884">
        <ele>376.01</ele>
        <time>2015-11-22T10:21:17Z</time>
      </trkpt>
      <trkpt lat="43.89157" lon="3.61895">
        <ele>375.05</ele>
        <time>2015-11-22T10:21:22Z</time>
      </trkpt>
      <trkpt lat="43.89154" lon="3.61929">
        <ele>373.61</ele>
        <time>2015-11-22T10:21:39Z</time>
      </trkpt>
      <trkpt lat="43.89154" lon="3.61932">
        <ele>373.13</ele>
        <time>2015-11-22T10:21:41Z</time>
      </trkpt>
      <trkpt lat="43.89155" lon="3.61941">
        <ele>372.65</ele>
        <time>2015-11-22T10:21:46Z</time>
      </trkpt>
      <trkpt lat="43.89152" lon="3.61968">
        <ele>371.69</ele>
        <time>2015-11-22T10:22:01Z</time>
      </trkpt>
      <trkpt lat="43.89152" lon="3.6197">
        <ele>371.69</ele>
        <time>2015-11-22T10:22:02Z</time>
      </trkpt>
      <trkpt lat="43.89155" lon="3.61998">
        <ele>369.76</ele>
        <time>2015-11-22T10:22:17Z</time>
      </trkpt>
      <trkpt lat="43.89157" lon="3.62023">
        <ele>368.8</ele>
        <time>2015-11-22T10:22:29Z</time>
      </trkpt>
      <trkpt lat="43.89157" lon="3.6203">
        <ele>368.8</ele>
        <time>2015-11-22T10:22:33Z</time>
      </trkpt>
      <trkpt lat="43.89162" lon="3.62057">
        <ele>366.88</ele>
        <time>2015-11-22T10:22:48Z</time>
      </trkpt>
      <trkpt lat="43.89171" lon="3.62083">
        <ele>364.96</ele>
        <time>2015-11-22T10:23:03Z</time>
      </trkpt>
      <trkpt lat="43.89172" lon="3.62087">
        <ele>364.48</ele>
        <time>2015-11-22T10:23:05Z</time>
      </trkpt>
      <trkpt lat="43.89177" lon="3.621">
        <ele>364</ele>
        <time>2015-11-22T10:23:12Z</time>
      </trkpt>
      <trkpt lat="43.8918" lon="3.62111">
        <ele>363.52</ele>
        <time>2015-11-22T10:23:18Z</time>
      </trkpt>
      <trkpt lat="43.89188" lon="3.62139">
        <ele>362.07</ele>
        <time>2015-11-22T10:23:34Z</time>
      </trkpt>
      <trkpt lat="43.89192" lon="3.62148">
        <ele>361.59</ele>
        <time>2015-11-22T10:23:40Z</time>
      </trkpt>
      <trkpt lat="43.89195" lon="3.62157">
        <ele>361.11</ele>
        <time>2015-11-22T10:23:45Z</time>
      </trkpt>
      <trkpt lat="43.89196" lon="3.62162">
        <ele>361.11</ele>
        <time>2015-11-22T10:23:48Z</time>
      </trkpt>
      <trkpt lat="43.89196" lon="3.62176">
        <ele>360.63</ele>
        <time>2015-11-22T10:23:55Z</time>
      </trkpt>
      <trkpt lat="43.89191" lon="3.62204">
        <ele>359.19</ele>
        <time>2015-11-22T10:24:11Z</time>
      </trkpt>
      <trkpt lat="43.89187" lon="3.62209">
        <ele>358.71</ele>
        <time>2015-11-22T10:24:15Z</time>
      </trkpt>
      <trkpt lat="43.89185" lon="3.62209">
        <ele>359.19</ele>
        <time>2015-11-22T10:24:17Z</time>
      </trkpt>
      <trkpt lat="43.89167" lon="3.622">
        <ele>360.63</ele>
        <time>2015-11-22T10:24:32Z</time>
      </trkpt>
      <trkpt lat="43.8915" lon="3.62193">
        <ele>359.67</ele>
        <time>2015-11-22T10:24:46Z</time>
      </trkpt>
      <trkpt lat="43.89129" lon="3.62182">
        <ele>359.19</ele>
        <time>2015-11-22T10:25:04Z</time>
      </trkpt>
      <trkpt lat="43.89125" lon="3.62178">
        <ele>359.19</ele>
        <time>2015-11-22T10:25:08Z</time>
      </trkpt>
      <trkpt lat="43.89116" lon="3.62172">
        <ele>359.19</ele>
        <time>2015-11-22T10:25:16Z</time>
      </trkpt>
      <trkpt lat="43.89106" lon="3.62163">
        <ele>359.67</ele>
        <time>2015-11-22T10:25:26Z</time>
      </trkpt>
      <trkpt lat="43.89094" lon="3.62156">
        <ele>358.71</ele>
        <time>2015-11-22T10:25:39Z</time>
      </trkpt>
      <trkpt lat="43.89086" lon="3.6215">
        <ele>358.71</ele>
        <time>2015-11-22T10:25:48Z</time>
      </trkpt>
      <trkpt lat="43.89082" lon="3.62141">
        <ele>358.71</ele>
        <time>2015-11-22T10:25:55Z</time>
      </trkpt>
      <trkpt lat="43.89076" lon="3.62135">
        <ele>358.71</ele>
        <time>2015-11-22T10:26:01Z</time>
      </trkpt>
      <trkpt lat="43.89074" lon="3.62129">
        <ele>358.71</ele>
        <time>2015-11-22T10:26:05Z</time>
      </trkpt>
      <trkpt lat="43.89071" lon="3.62126">
        <ele>358.71</ele>
        <time>2015-11-22T10:26:09Z</time>
      </trkpt>
      <trkpt lat="43.89061" lon="3.62104">
        <ele>359.19</ele>
        <time>2015-11-22T10:26:24Z</time>
      </trkpt>
      <trkpt lat="43.89057" lon="3.62087">
        <ele>359.67</ele>
        <time>2015-11-22T10:26:35Z</time>
      </trkpt>
      <trkpt lat="43.89053" lon="3.62075">
        <ele>360.15</ele>
        <time>2015-11-22T10:26:42Z</time>
      </trkpt>
      <trkpt lat="43.89049" lon="3.62054">
        <ele>360.63</ele>
        <time>2015-11-22T10:26:55Z</time>
      </trkpt>
      <trkpt lat="43.89046" lon="3.6205">
        <ele>360.63</ele>
        <time>2015-11-22T10:26:59Z</time>
      </trkpt>
      <trkpt lat="43.89045" lon="3.62038">
        <ele>361.11</ele>
        <time>2015-11-22T10:27:06Z</time>
      </trkpt>
      <trkpt lat="43.8904" lon="3.62025">
        <ele>361.11</ele>
        <time>2015-11-22T10:27:15Z</time>
      </trkpt>
      <trkpt lat="43.89039" lon="3.62016">
        <ele>361.59</ele>
        <time>2015-11-22T10:27:22Z</time>
      </trkpt>
      <trkpt lat="43.89037" lon="3.62008">
        <ele>361.59</ele>
        <time>2015-11-22T10:27:27Z</time>
      </trkpt>
      <trkpt lat="43.89034" lon="3.62003">
        <ele>361.59</ele>
        <time>2015-11-22T10:27:31Z</time>
      </trkpt>
      <trkpt lat="43.89033" lon="3.61988">
        <ele>362.55</ele>
        <time>2015-11-22T10:27:41Z</time>
      </trkpt>
      <trkpt lat="43.8903" lon="3.61978">
        <ele>363.04</ele>
        <time>2015-11-22T10:27:50Z</time>
      </trkpt>
      <trkpt lat="43.89027" lon="3.61972">
        <ele>362.07</ele>
        <time>2015-11-22T10:27:55Z</time>
      </trkpt>
      <trkpt lat="43.89025" lon="3.61968">
        <ele>362.07</ele>
        <time>2015-11-22T10:27:58Z</time>
      </trkpt>
      <trkpt lat="43.89021" lon="3.61963">
        <ele>362.07</ele>
        <time>2015-11-22T10:28:02Z</time>
      </trkpt>
      <trkpt lat="43.89019" lon="3.61958">
        <ele>361.59</ele>
        <time>2015-11-22T10:28:06Z</time>
      </trkpt>
      <trkpt lat="43.89015" lon="3.61942">
        <ele>361.59</ele>
        <time>2015-11-22T10:28:18Z</time>
      </trkpt>
      <trkpt lat="43.89008" lon="3.6193">
        <ele>361.59</ele>
        <time>2015-11-22T10:28:31Z</time>
      </trkpt>
      <trkpt lat="43.89003" lon="3.61926">
        <ele>361.59</ele>
        <time>2015-11-22T10:28:36Z</time>
      </trkpt>
      <trkpt lat="43.89002" lon="3.61919">
        <ele>361.59</ele>
        <time>2015-11-22T10:28:39Z</time>
      </trkpt>
      <trkpt lat="43.88997" lon="3.61901">
        <ele>361.11</ele>
        <time>2015-11-22T10:28:49Z</time>
      </trkpt>
      <trkpt lat="43.88995" lon="3.6189">
        <ele>360.63</ele>
        <time>2015-11-22T10:28:56Z</time>
      </trkpt>
      <trkpt lat="43.88989" lon="3.61878">
        <ele>359.19</ele>
        <time>2015-11-22T10:29:08Z</time>
      </trkpt>
      <trkpt lat="43.88991" lon="3.6187">
        <ele>359.67</ele>
        <time>2015-11-22T10:29:15Z</time>
      </trkpt>
      <trkpt lat="43.88992" lon="3.61856">
        <ele>359.19</ele>
        <time>2015-11-22T10:29:23Z</time>
      </trkpt>
      <trkpt lat="43.8899" lon="3.61849">
        <ele>359.67</ele>
        <time>2015-11-22T10:29:28Z</time>
      </trkpt>
      <trkpt lat="43.8899" lon="3.61845">
        <ele>359.67</ele>
        <time>2015-11-22T10:29:30Z</time>
      </trkpt>
      <trkpt lat="43.88985" lon="3.61825">
        <ele>359.67</ele>
        <time>2015-11-22T10:29:42Z</time>
      </trkpt>
      <trkpt lat="43.88983" lon="3.61821">
        <ele>359.19</ele>
        <time>2015-11-22T10:29:45Z</time>
      </trkpt>
      <trkpt lat="43.88978" lon="3.61817">
        <ele>359.19</ele>
        <time>2015-11-22T10:29:50Z</time>
      </trkpt>
      <trkpt lat="43.88973" lon="3.61812">
        <ele>360.15</ele>
        <time>2015-11-22T10:29:56Z</time>
      </trkpt>
      <trkpt lat="43.88962" lon="3.61809">
        <ele>359.19</ele>
        <time>2015-11-22T10:30:05Z</time>
      </trkpt>
      <trkpt lat="43.88953" lon="3.61801">
        <ele>359.19</ele>
        <time>2015-11-22T10:30:13Z</time>
      </trkpt>
      <trkpt lat="43.88943" lon="3.61781">
        <ele>360.15</ele>
        <time>2015-11-22T10:30:27Z</time>
      </trkpt>
      <trkpt lat="43.88939" lon="3.61765">
        <ele>362.55</ele>
        <time>2015-11-22T10:30:38Z</time>
      </trkpt>
      <trkpt lat="43.88939" lon="3.61752">
        <ele>361.59</ele>
        <time>2015-11-22T10:30:45Z</time>
      </trkpt>
      <trkpt lat="43.88948" lon="3.61736">
        <ele>363.04</ele>
        <time>2015-11-22T10:30:57Z</time>
      </trkpt>
      <trkpt lat="43.88952" lon="3.61732">
        <ele>364</ele>
        <time>2015-11-22T10:31:02Z</time>
      </trkpt>
      <trkpt lat="43.88956" lon="3.61727">
        <ele>365.44</ele>
        <time>2015-11-22T10:31:08Z</time>
      </trkpt>
      <trkpt lat="43.8896" lon="3.6172">
        <ele>365.92</ele>
        <time>2015-11-22T10:31:13Z</time>
      </trkpt>
      <trkpt lat="43.88965" lon="3.61717">
        <ele>366.88</ele>
        <time>2015-11-22T10:31:19Z</time>
      </trkpt>
      <trkpt lat="43.88972" lon="3.61704">
        <ele>369.76</ele>
        <time>2015-11-22T10:31:33Z</time>
      </trkpt>
      <trkpt lat="43.88974" lon="3.61696">
        <ele>371.69</ele>
        <time>2015-11-22T10:31:42Z</time>
      </trkpt>
      <trkpt lat="43.88974" lon="3.61689">
        <ele>372.17</ele>
        <time>2015-11-22T10:31:47Z</time>
      </trkpt>
      <trkpt lat="43.88978" lon="3.61677">
        <ele>374.57</ele>
        <time>2015-11-22T10:32:00Z</time>
      </trkpt>
      <trkpt lat="43.88983" lon="3.61664">
        <ele>377.45</ele>
        <time>2015-11-22T10:32:13Z</time>
      </trkpt>
      <trkpt lat="43.88985" lon="3.61653">
        <ele>380.34</ele>
        <time>2015-11-22T10:32:26Z</time>
      </trkpt>
      <trkpt lat="43.88986" lon="3.6165">
        <ele>381.78</ele>
        <time>2015-11-22T10:32:32Z</time>
      </trkpt>
      <trkpt lat="43.88985" lon="3.61647">
        <ele>382.26</ele>
        <time>2015-11-22T10:32:34Z</time>
      </trkpt>
      <trkpt lat="43.88985" lon="3.61644">
        <ele>382.74</ele>
        <time>2015-11-22T10:32:37Z</time>
      </trkpt>
      <trkpt lat="43.88985" lon="3.61636">
        <ele>384.18</ele>
        <time>2015-11-22T10:32:51Z</time>
      </trkpt>
      <trkpt lat="43.88987" lon="3.61636">
        <ele>383.22</ele>
        <time>2015-11-22T10:33:10Z</time>
      </trkpt>
      <trkpt lat="43.88988" lon="3.61637">
        <ele>383.7</ele>
        <time>2015-11-22T10:33:42Z</time>
      </trkpt>
      <trkpt lat="43.88988" lon="3.61636">
        <ele>384.66</ele>
        <time>2015-11-22T10:33:57Z</time>
      </trkpt>
      <trkpt lat="43.88989" lon="3.61635">
        <ele>384.18</ele>
        <time>2015-11-22T10:34:15Z</time>
      </trkpt>
      <trkpt lat="43.88987" lon="3.61633">
        <ele>384.66</ele>
        <time>2015-11-22T10:34:37Z</time>
      </trkpt>
      <trkpt lat="43.88987" lon="3.61628">
        <ele>385.15</ele>
        <time>2015-11-22T10:34:51Z</time>
      </trkpt>
      <trkpt lat="43.88987" lon="3.61624">
        <ele>385.15</ele>
        <time>2015-11-22T10:34:57Z</time>
      </trkpt>
      <trkpt lat="43.88989" lon="3.61614">
        <ele>385.63</ele>
        <time>2015-11-22T10:35:04Z</time>
      </trkpt>
      <trkpt lat="43.88991" lon="3.61611">
        <ele>385.63</ele>
        <time>2015-11-22T10:35:07Z</time>
      </trkpt>
      <trkpt lat="43.88995" lon="3.61595">
        <ele>387.55</ele>
        <time>2015-11-22T10:35:20Z</time>
      </trkpt>
      <trkpt lat="43.88996" lon="3.61581">
        <ele>389.95</ele>
        <time>2015-11-22T10:35:34Z</time>
      </trkpt>
      <trkpt lat="43.88991" lon="3.61564">
        <ele>390.91</ele>
        <time>2015-11-22T10:35:49Z</time>
      </trkpt>
      <trkpt lat="43.88986" lon="3.61557">
        <ele>391.39</ele>
        <time>2015-11-22T10:35:56Z</time>
      </trkpt>
      <trkpt lat="43.8898" lon="3.61546">
        <ele>392.36</ele>
        <time>2015-11-22T10:36:07Z</time>
      </trkpt>
      <trkpt lat="43.88976" lon="3.61536">
        <ele>393.32</ele>
        <time>2015-11-22T10:36:15Z</time>
      </trkpt>
      <trkpt lat="43.88974" lon="3.61517">
        <ele>394.76</ele>
        <time>2015-11-22T10:36:25Z</time>
      </trkpt>
      <trkpt lat="43.88976" lon="3.61502">
        <ele>396.2</ele>
        <time>2015-11-22T10:36:35Z</time>
      </trkpt>
      <trkpt lat="43.88977" lon="3.61499">
        <ele>396.2</ele>
        <time>2015-11-22T10:36:37Z</time>
      </trkpt>
      <trkpt lat="43.88976" lon="3.61489">
        <ele>396.68</ele>
        <time>2015-11-22T10:36:43Z</time>
      </trkpt>
      <trkpt lat="43.88977" lon="3.61471">
        <ele>397.64</ele>
        <time>2015-11-22T10:36:54Z</time>
      </trkpt>
      <trkpt lat="43.88981" lon="3.61449">
        <ele>398.12</ele>
        <time>2015-11-22T10:37:09Z</time>
      </trkpt>
      <trkpt lat="43.8898" lon="3.61437">
        <ele>399.57</ele>
        <time>2015-11-22T10:37:17Z</time>
      </trkpt>
      <trkpt lat="43.8898" lon="3.61433">
        <ele>399.57</ele>
        <time>2015-11-22T10:37:19Z</time>
      </trkpt>
      <trkpt lat="43.88981" lon="3.61422">
        <ele>400.53</ele>
        <time>2015-11-22T10:37:26Z</time>
      </trkpt>
      <trkpt lat="43.88982" lon="3.61419">
        <ele>400.53</ele>
        <time>2015-11-22T10:37:28Z</time>
      </trkpt>
      <trkpt lat="43.88983" lon="3.61415">
        <ele>401.01</ele>
        <time>2015-11-22T10:37:31Z</time>
      </trkpt>
      <trkpt lat="43.88986" lon="3.61403">
        <ele>401.01</ele>
        <time>2015-11-22T10:37:39Z</time>
      </trkpt>
      <trkpt lat="43.88992" lon="3.61387">
        <ele>402.45</ele>
        <time>2015-11-22T10:37:51Z</time>
      </trkpt>
      <trkpt lat="43.88993" lon="3.61376">
        <ele>402.45</ele>
        <time>2015-11-22T10:37:57Z</time>
      </trkpt>
      <trkpt lat="43.88996" lon="3.61366">
        <ele>403.41</ele>
        <time>2015-11-22T10:38:04Z</time>
      </trkpt>
      <trkpt lat="43.88996" lon="3.6136">
        <ele>403.41</ele>
        <time>2015-11-22T10:38:08Z</time>
      </trkpt>
      <trkpt lat="43.88997" lon="3.61335">
        <ele>403.89</ele>
        <time>2015-11-22T10:38:22Z</time>
      </trkpt>
      <trkpt lat="43.88998" lon="3.61314">
        <ele>405.33</ele>
        <time>2015-11-22T10:38:36Z</time>
      </trkpt>
      <trkpt lat="43.88995" lon="3.61308">
        <ele>405.81</ele>
        <time>2015-11-22T10:38:40Z</time>
      </trkpt>
      <trkpt lat="43.88993" lon="3.61305">
        <ele>405.81</ele>
        <time>2015-11-22T10:38:43Z</time>
      </trkpt>
      <trkpt lat="43.88989" lon="3.613">
        <ele>406.29</ele>
        <time>2015-11-22T10:38:48Z</time>
      </trkpt>
      <trkpt lat="43.88988" lon="3.61294">
        <ele>406.29</ele>
        <time>2015-11-22T10:38:51Z</time>
      </trkpt>
      <trkpt lat="43.88987" lon="3.61293">
        <ele>406.77</ele>
        <time>2015-11-22T10:38:53Z</time>
      </trkpt>
      <trkpt lat="43.88984" lon="3.61291">
        <ele>406.77</ele>
        <time>2015-11-22T10:38:56Z</time>
      </trkpt>
      <trkpt lat="43.88983" lon="3.61287">
        <ele>406.77</ele>
        <time>2015-11-22T10:38:59Z</time>
      </trkpt>
      <trkpt lat="43.88982" lon="3.61276">
        <ele>407.26</ele>
        <time>2015-11-22T10:39:06Z</time>
      </trkpt>
      <trkpt lat="43.88982" lon="3.61268">
        <ele>407.74</ele>
        <time>2015-11-22T10:39:11Z</time>
      </trkpt>
      <trkpt lat="43.88981" lon="3.61259">
        <ele>408.7</ele>
        <time>2015-11-22T10:39:17Z</time>
      </trkpt>
      <trkpt lat="43.88987" lon="3.61242">
        <ele>409.66</ele>
        <time>2015-11-22T10:39:28Z</time>
      </trkpt>
      <trkpt lat="43.88988" lon="3.61232">
        <ele>410.14</ele>
        <time>2015-11-22T10:39:34Z</time>
      </trkpt>
      <trkpt lat="43.88992" lon="3.61218">
        <ele>410.62</ele>
        <time>2015-11-22T10:39:43Z</time>
      </trkpt>
      <trkpt lat="43.88995" lon="3.61214">
        <ele>411.1</ele>
        <time>2015-11-22T10:39:46Z</time>
      </trkpt>
      <trkpt lat="43.89007" lon="3.61194">
        <ele>412.06</ele>
        <time>2015-11-22T10:40:01Z</time>
      </trkpt>
      <trkpt lat="43.8901" lon="3.61189">
        <ele>412.06</ele>
        <time>2015-11-22T10:40:05Z</time>
      </trkpt>
      <trkpt lat="43.89016" lon="3.6118">
        <ele>412.54</ele>
        <time>2015-11-22T10:40:12Z</time>
      </trkpt>
      <trkpt lat="43.8902" lon="3.61173">
        <ele>413.02</ele>
        <time>2015-11-22T10:40:17Z</time>
      </trkpt>
      <trkpt lat="43.89023" lon="3.61167">
        <ele>413.02</ele>
        <time>2015-11-22T10:40:21Z</time>
      </trkpt>
      <trkpt lat="43.89036" lon="3.61155">
        <ele>413.98</ele>
        <time>2015-11-22T10:40:33Z</time>
      </trkpt>
      <trkpt lat="43.89045" lon="3.61151">
        <ele>413.98</ele>
        <time>2015-11-22T10:40:41Z</time>
      </trkpt>
      <trkpt lat="43.8905" lon="3.61151">
        <ele>413.98</ele>
        <time>2015-11-22T10:40:45Z</time>
      </trkpt>
      <trkpt lat="43.89058" lon="3.6115">
        <ele>413.98</ele>
        <time>2015-11-22T10:40:51Z</time>
      </trkpt>
      <trkpt lat="43.89073" lon="3.61149">
        <ele>414.95</ele>
        <time>2015-11-22T10:41:04Z</time>
      </trkpt>
      <trkpt lat="43.89074" lon="3.61148">
        <ele>414.47</ele>
        <time>2015-11-22T10:41:05Z</time>
      </trkpt>
      <trkpt lat="43.89079" lon="3.61139">
        <ele>415.43</ele>
        <time>2015-11-22T10:41:13Z</time>
      </trkpt>
      <trkpt lat="43.89085" lon="3.61121">
        <ele>416.39</ele>
        <time>2015-11-22T10:41:26Z</time>
      </trkpt>
      <trkpt lat="43.89088" lon="3.61112">
        <ele>416.87</ele>
        <time>2015-11-22T10:41:32Z</time>
      </trkpt>
      <trkpt lat="43.8909" lon="3.61107">
        <ele>417.83</ele>
        <time>2015-11-22T10:41:36Z</time>
      </trkpt>
      <trkpt lat="43.89093" lon="3.61103">
        <ele>418.79</ele>
        <time>2015-11-22T10:41:40Z</time>
      </trkpt>
      <trkpt lat="43.89099" lon="3.61095">
        <ele>418.79</ele>
        <time>2015-11-22T10:41:47Z</time>
      </trkpt>
      <trkpt lat="43.89102" lon="3.61093">
        <ele>419.75</ele>
        <time>2015-11-22T10:41:50Z</time>
      </trkpt>
      <trkpt lat="43.89106" lon="3.61091">
        <ele>419.75</ele>
        <time>2015-11-22T10:41:53Z</time>
      </trkpt>
      <trkpt lat="43.89111" lon="3.61088">
        <ele>420.23</ele>
        <time>2015-11-22T10:41:58Z</time>
      </trkpt>
      <trkpt lat="43.89118" lon="3.61084">
        <ele>420.71</ele>
        <time>2015-11-22T10:42:05Z</time>
      </trkpt>
      <trkpt lat="43.89126" lon="3.61078">
        <ele>420.71</ele>
        <time>2015-11-22T10:42:13Z</time>
      </trkpt>
      <trkpt lat="43.89132" lon="3.61077">
        <ele>420.71</ele>
        <time>2015-11-22T10:42:17Z</time>
      </trkpt>
      <trkpt lat="43.89134" lon="3.61076">
        <ele>420.71</ele>
        <time>2015-11-22T10:42:19Z</time>
      </trkpt>
      <trkpt lat="43.89148" lon="3.61083">
        <ele>420.71</ele>
        <time>2015-11-22T10:42:33Z</time>
      </trkpt>
      <trkpt lat="43.89149" lon="3.61083">
        <ele>420.71</ele>
        <time>2015-11-22T10:42:53Z</time>
      </trkpt>
      <trkpt lat="43.89149" lon="3.61083">
        <ele>420.23</ele>
        <time>2015-11-22T10:43:09Z</time>
      </trkpt>
      <trkpt lat="43.89149" lon="3.61083">
        <ele>419.75</ele>
        <time>2015-11-22T10:43:37Z</time>
      </trkpt>
      <trkpt lat="43.89148" lon="3.61082">
        <ele>419.75</ele>
        <time>2015-11-22T10:43:58Z</time>
      </trkpt>
      <trkpt lat="43.89148" lon="3.61082">
        <ele>419.75</ele>
        <time>2015-11-22T10:44:08Z</time>
      </trkpt>
      <trkpt lat="43.8915" lon="3.61074">
        <ele>420.71</ele>
        <time>2015-11-22T10:44:13Z</time>
      </trkpt>
      <trkpt lat="43.89152" lon="3.61069">
        <ele>421.19</ele>
        <time>2015-11-22T10:44:17Z</time>
      </trkpt>
      <trkpt lat="43.89158" lon="3.61057">
        <ele>421.19</ele>
        <time>2015-11-22T10:44:25Z</time>
      </trkpt>
      <trkpt lat="43.8917" lon="3.61037">
        <ele>423.12</ele>
        <time>2015-11-22T10:44:39Z</time>
      </trkpt>
      <trkpt lat="43.89178" lon="3.61012">
        <ele>422.16</ele>
        <time>2015-11-22T10:44:53Z</time>
      </trkpt>
      <trkpt lat="43.89182" lon="3.61002">
        <ele>422.16</ele>
        <time>2015-11-22T10:44:59Z</time>
      </trkpt>
      <trkpt lat="43.89183" lon="3.60997">
        <ele>422.64</ele>
        <time>2015-11-22T10:45:02Z</time>
      </trkpt>
      <trkpt lat="43.89186" lon="3.6099">
        <ele>422.64</ele>
        <time>2015-11-22T10:45:06Z</time>
      </trkpt>
      <trkpt lat="43.89195" lon="3.60965">
        <ele>423.6</ele>
        <time>2015-11-22T10:45:20Z</time>
      </trkpt>
      <trkpt lat="43.89203" lon="3.60946">
        <ele>424.56</ele>
        <time>2015-11-22T10:45:32Z</time>
      </trkpt>
      <trkpt lat="43.89208" lon="3.6093">
        <ele>424.56</ele>
        <time>2015-11-22T10:45:41Z</time>
      </trkpt>
      <trkpt lat="43.89208" lon="3.60927">
        <ele>424.56</ele>
        <time>2015-11-22T10:45:43Z</time>
      </trkpt>
      <trkpt lat="43.89211" lon="3.60923">
        <ele>425.04</ele>
        <time>2015-11-22T10:45:46Z</time>
      </trkpt>
      <trkpt lat="43.89215" lon="3.6091">
        <ele>425.52</ele>
        <time>2015-11-22T10:45:54Z</time>
      </trkpt>
      <trkpt lat="43.89216" lon="3.60907">
        <ele>425.52</ele>
        <time>2015-11-22T10:45:56Z</time>
      </trkpt>
      <trkpt lat="43.89219" lon="3.60902">
        <ele>426</ele>
        <time>2015-11-22T10:46:00Z</time>
      </trkpt>
      <trkpt lat="43.89224" lon="3.60885">
        <ele>426.96</ele>
        <time>2015-11-22T10:46:11Z</time>
      </trkpt>
      <trkpt lat="43.89231" lon="3.60875">
        <ele>428.4</ele>
        <time>2015-11-22T10:46:23Z</time>
      </trkpt>
      <trkpt lat="43.89237" lon="3.60866">
        <ele>430.33</ele>
        <time>2015-11-22T10:46:37Z</time>
      </trkpt>
      <trkpt lat="43.89238" lon="3.60862">
        <ele>430.81</ele>
        <time>2015-11-22T10:46:46Z</time>
      </trkpt>
      <trkpt lat="43.89235" lon="3.60858">
        <ele>431.77</ele>
        <time>2015-11-22T10:46:54Z</time>
      </trkpt>
      <trkpt lat="43.89229" lon="3.60854">
        <ele>432.25</ele>
        <time>2015-11-22T10:47:01Z</time>
      </trkpt>
      <trkpt lat="43.89227" lon="3.60854">
        <ele>432.73</ele>
        <time>2015-11-22T10:47:03Z</time>
      </trkpt>
      <trkpt lat="43.89225" lon="3.60853">
        <ele>433.21</ele>
        <time>2015-11-22T10:47:06Z</time>
      </trkpt>
      <trkpt lat="43.89217" lon="3.60846">
        <ele>435.61</ele>
        <time>2015-11-22T10:47:21Z</time>
      </trkpt>
      <trkpt lat="43.8922" lon="3.60834">
        <ele>437.06</ele>
        <time>2015-11-22T10:47:31Z</time>
      </trkpt>
      <trkpt lat="43.89225" lon="3.60829">
        <ele>438.5</ele>
        <time>2015-11-22T10:47:39Z</time>
      </trkpt>
      <trkpt lat="43.89235" lon="3.60827">
        <ele>440.42</ele>
        <time>2015-11-22T10:47:51Z</time>
      </trkpt>
      <trkpt lat="43.89245" lon="3.60818">
        <ele>443.31</ele>
        <time>2015-11-22T10:48:06Z</time>
      </trkpt>
      <trkpt lat="43.89244" lon="3.60815">
        <ele>444.27</ele>
        <time>2015-11-22T10:48:11Z</time>
      </trkpt>
      <trkpt lat="43.89241" lon="3.60813">
        <ele>446.19</ele>
        <time>2015-11-22T10:48:17Z</time>
      </trkpt>
      <trkpt lat="43.89233" lon="3.60805">
        <ele>449.55</ele>
        <time>2015-11-22T10:48:32Z</time>
      </trkpt>
      <trkpt lat="43.89227" lon="3.60794">
        <ele>451.96</ele>
        <time>2015-11-22T10:48:46Z</time>
      </trkpt>
      <trkpt lat="43.8923" lon="3.60779">
        <ele>453.4</ele>
        <time>2015-11-22T10:48:55Z</time>
      </trkpt>
      <trkpt lat="43.89234" lon="3.60766">
        <ele>454.84</ele>
        <time>2015-11-22T10:49:06Z</time>
      </trkpt>
      <trkpt lat="43.89236" lon="3.60758">
        <ele>455.8</ele>
        <time>2015-11-22T10:49:14Z</time>
      </trkpt>
      <trkpt lat="43.89238" lon="3.60744">
        <ele>458.21</ele>
        <time>2015-11-22T10:49:28Z</time>
      </trkpt>
      <trkpt lat="43.8924" lon="3.60729">
        <ele>459.17</ele>
        <time>2015-11-22T10:49:39Z</time>
      </trkpt>
      <trkpt lat="43.89242" lon="3.60719">
        <ele>459.65</ele>
        <time>2015-11-22T10:49:46Z</time>
      </trkpt>
      <trkpt lat="43.89243" lon="3.60704">
        <ele>461.09</ele>
        <time>2015-11-22T10:49:57Z</time>
      </trkpt>
      <trkpt lat="43.89244" lon="3.60697">
        <ele>461.57</ele>
        <time>2015-11-22T10:50:02Z</time>
      </trkpt>
      <trkpt lat="43.89248" lon="3.60677">
        <ele>463.49</ele>
        <time>2015-11-22T10:50:18Z</time>
      </trkpt>
      <trkpt lat="43.89249" lon="3.60675">
        <ele>463.49</ele>
        <time>2015-11-22T10:50:19Z</time>
      </trkpt>
      <trkpt lat="43.89251" lon="3.6067">
        <ele>463.97</ele>
        <time>2015-11-22T10:50:23Z</time>
      </trkpt>
      <trkpt lat="43.89254" lon="3.60653">
        <ele>465.9</ele>
        <time>2015-11-22T10:50:36Z</time>
      </trkpt>
      <trkpt lat="43.89257" lon="3.60646">
        <ele>467.34</ele>
        <time>2015-11-22T10:50:43Z</time>
      </trkpt>
      <trkpt lat="43.89256" lon="3.60639">
        <ele>468.3</ele>
        <time>2015-11-22T10:50:48Z</time>
      </trkpt>
      <trkpt lat="43.89258" lon="3.60627">
        <ele>469.74</ele>
        <time>2015-11-22T10:50:58Z</time>
      </trkpt>
      <trkpt lat="43.89261" lon="3.60612">
        <ele>472.63</ele>
        <time>2015-11-22T10:51:11Z</time>
      </trkpt>
      <trkpt lat="43.89262" lon="3.60607">
        <ele>473.59</ele>
        <time>2015-11-22T10:51:17Z</time>
      </trkpt>
      <trkpt lat="43.89263" lon="3.60598">
        <ele>475.51</ele>
        <time>2015-11-22T10:51:24Z</time>
      </trkpt>
      <trkpt lat="43.89265" lon="3.60583">
        <ele>477.91</ele>
        <time>2015-11-22T10:51:39Z</time>
      </trkpt>
      <trkpt lat="43.89266" lon="3.60572">
        <ele>479.84</ele>
        <time>2015-11-22T10:51:50Z</time>
      </trkpt>
      <trkpt lat="43.89267" lon="3.60557">
        <ele>480.8</ele>
        <time>2015-11-22T10:52:03Z</time>
      </trkpt>
      <trkpt lat="43.89268" lon="3.60551">
        <ele>481.76</ele>
        <time>2015-11-22T10:52:09Z</time>
      </trkpt>
      <trkpt lat="43.89271" lon="3.60542">
        <ele>483.2</ele>
        <time>2015-11-22T10:52:20Z</time>
      </trkpt>
      <trkpt lat="43.89274" lon="3.60531">
        <ele>485.12</ele>
        <time>2015-11-22T10:52:32Z</time>
      </trkpt>
      <trkpt lat="43.89277" lon="3.60531">
        <ele>485.6</ele>
        <time>2015-11-22T10:52:46Z</time>
      </trkpt>
      <trkpt lat="43.89276" lon="3.60527">
        <ele>486.08</ele>
        <time>2015-11-22T10:53:02Z</time>
      </trkpt>
      <trkpt lat="43.89276" lon="3.60519">
        <ele>486.56</ele>
        <time>2015-11-22T10:53:10Z</time>
      </trkpt>
      <trkpt lat="43.89277" lon="3.60504">
        <ele>487.53</ele>
        <time>2015-11-22T10:53:24Z</time>
      </trkpt>
      <trkpt lat="43.89277" lon="3.60491">
        <ele>488.01</ele>
        <time>2015-11-22T10:53:34Z</time>
      </trkpt>
      <trkpt lat="43.89277" lon="3.60489">
        <ele>488.49</ele>
        <time>2015-11-22T10:53:35Z</time>
      </trkpt>
      <trkpt lat="43.89276" lon="3.60483">
        <ele>488.49</ele>
        <time>2015-11-22T10:53:40Z</time>
      </trkpt>
      <trkpt lat="43.8928" lon="3.60468">
        <ele>489.45</ele>
        <time>2015-11-22T10:53:51Z</time>
      </trkpt>
      <trkpt lat="43.89281" lon="3.60465">
        <ele>489.45</ele>
        <time>2015-11-22T10:53:53Z</time>
      </trkpt>
      <trkpt lat="43.89284" lon="3.60459">
        <ele>489.93</ele>
        <time>2015-11-22T10:53:57Z</time>
      </trkpt>
      <trkpt lat="43.89293" lon="3.60449">
        <ele>491.37</ele>
        <time>2015-11-22T10:54:07Z</time>
      </trkpt>
      <trkpt lat="43.89294" lon="3.60448">
        <ele>491.37</ele>
        <time>2015-11-22T10:54:08Z</time>
      </trkpt>
      <trkpt lat="43.89297" lon="3.60438">
        <ele>491.85</ele>
        <time>2015-11-22T10:54:15Z</time>
      </trkpt>
      <trkpt lat="43.89297" lon="3.60416">
        <ele>493.29</ele>
        <time>2015-11-22T10:54:29Z</time>
      </trkpt>
      <trkpt lat="43.89299" lon="3.60399">
        <ele>494.26</ele>
        <time>2015-11-22T10:54:39Z</time>
      </trkpt>
      <trkpt lat="43.89307" lon="3.60384">
        <ele>495.22</ele>
        <time>2015-11-22T10:54:50Z</time>
      </trkpt>
      <trkpt lat="43.89313" lon="3.60373">
        <ele>496.18</ele>
        <time>2015-11-22T10:54:58Z</time>
      </trkpt>
      <trkpt lat="43.89318" lon="3.60367">
        <ele>496.66</ele>
        <time>2015-11-22T10:55:04Z</time>
      </trkpt>
      <trkpt lat="43.89321" lon="3.60363">
        <ele>496.66</ele>
        <time>2015-11-22T10:55:07Z</time>
      </trkpt>
      <trkpt lat="43.89323" lon="3.60361">
        <ele>497.14</ele>
        <time>2015-11-22T10:55:09Z</time>
      </trkpt>
      <trkpt lat="43.89326" lon="3.60358">
        <ele>496.66</ele>
        <time>2015-11-22T10:55:12Z</time>
      </trkpt>
      <trkpt lat="43.89334" lon="3.60345">
        <ele>498.1</ele>
        <time>2015-11-22T10:55:22Z</time>
      </trkpt>
      <trkpt lat="43.89338" lon="3.60336">
        <ele>498.58</ele>
        <time>2015-11-22T10:55:29Z</time>
      </trkpt>
      <trkpt lat="43.8934" lon="3.60334">
        <ele>499.06</ele>
        <time>2015-11-22T10:55:31Z</time>
      </trkpt>
      <trkpt lat="43.89343" lon="3.60325">
        <ele>499.06</ele>
        <time>2015-11-22T10:55:38Z</time>
      </trkpt>
      <trkpt lat="43.89344" lon="3.60322">
        <ele>499.06</ele>
        <time>2015-11-22T10:55:40Z</time>
      </trkpt>
      <trkpt lat="43.89349" lon="3.60316">
        <ele>499.54</ele>
        <time>2015-11-22T10:55:46Z</time>
      </trkpt>
      <trkpt lat="43.89352" lon="3.60313">
        <ele>499.54</ele>
        <time>2015-11-22T10:55:49Z</time>
      </trkpt>
      <trkpt lat="43.89357" lon="3.60309">
        <ele>500.5</ele>
        <time>2015-11-22T10:55:54Z</time>
      </trkpt>
      <trkpt lat="43.89368" lon="3.60295">
        <ele>501.95</ele>
        <time>2015-11-22T10:56:08Z</time>
      </trkpt>
      <trkpt lat="43.89372" lon="3.60291">
        <ele>501.95</ele>
        <time>2015-11-22T10:56:12Z</time>
      </trkpt>
      <trkpt lat="43.89376" lon="3.60285">
        <ele>502.91</ele>
        <time>2015-11-22T10:56:18Z</time>
      </trkpt>
      <trkpt lat="43.89383" lon="3.60276">
        <ele>503.87</ele>
        <time>2015-11-22T10:56:26Z</time>
      </trkpt>
      <trkpt lat="43.89385" lon="3.60272">
        <ele>503.87</ele>
        <time>2015-11-22T10:56:29Z</time>
      </trkpt>
      <trkpt lat="43.89388" lon="3.60269">
        <ele>504.35</ele>
        <time>2015-11-22T10:56:32Z</time>
      </trkpt>
      <trkpt lat="43.89392" lon="3.60263">
        <ele>504.83</ele>
        <time>2015-11-22T10:56:37Z</time>
      </trkpt>
      <trkpt lat="43.89397" lon="3.60257">
        <ele>505.31</ele>
        <time>2015-11-22T10:56:43Z</time>
      </trkpt>
      <trkpt lat="43.89411" lon="3.60251">
        <ele>507.71</ele>
        <time>2015-11-22T10:56:57Z</time>
      </trkpt>
      <trkpt lat="43.89416" lon="3.60247">
        <ele>508.19</ele>
        <time>2015-11-22T10:57:03Z</time>
      </trkpt>
      <trkpt lat="43.8942" lon="3.60246">
        <ele>509.64</ele>
        <time>2015-11-22T10:57:08Z</time>
      </trkpt>
      <trkpt lat="43.89421" lon="3.60239">
        <ele>510.6</ele>
        <time>2015-11-22T10:57:14Z</time>
      </trkpt>
      <trkpt lat="43.8943" lon="3.60228">
        <ele>512.04</ele>
        <time>2015-11-22T10:57:28Z</time>
      </trkpt>
      <trkpt lat="43.89434" lon="3.60224">
        <ele>512.52</ele>
        <time>2015-11-22T10:57:33Z</time>
      </trkpt>
      <trkpt lat="43.89442" lon="3.60216">
        <ele>514.44</ele>
        <time>2015-11-22T10:57:45Z</time>
      </trkpt>
      <trkpt lat="43.89447" lon="3.60207">
        <ele>514.92</ele>
        <time>2015-11-22T10:57:54Z</time>
      </trkpt>
      <trkpt lat="43.89451" lon="3.60203">
        <ele>515.4</ele>
        <time>2015-11-22T10:57:59Z</time>
      </trkpt>
      <trkpt lat="43.89452" lon="3.60201">
        <ele>515.88</ele>
        <time>2015-11-22T10:58:01Z</time>
      </trkpt>
      <trkpt lat="43.89456" lon="3.60197">
        <ele>516.37</ele>
        <time>2015-11-22T10:58:06Z</time>
      </trkpt>
      <trkpt lat="43.8946" lon="3.6019">
        <ele>517.33</ele>
        <time>2015-11-22T10:58:13Z</time>
      </trkpt>
      <trkpt lat="43.89461" lon="3.60188">
        <ele>517.81</ele>
        <time>2015-11-22T10:58:15Z</time>
      </trkpt>
      <trkpt lat="43.8947" lon="3.60177">
        <ele>518.77</ele>
        <time>2015-11-22T10:58:26Z</time>
      </trkpt>
      <trkpt lat="43.89473" lon="3.60173">
        <ele>519.25</ele>
        <time>2015-11-22T10:58:30Z</time>
      </trkpt>
      <trkpt lat="43.89478" lon="3.60172">
        <ele>519.73</ele>
        <time>2015-11-22T10:58:34Z</time>
      </trkpt>
      <trkpt lat="43.89483" lon="3.60169">
        <ele>520.21</ele>
        <time>2015-11-22T10:58:39Z</time>
      </trkpt>
      <trkpt lat="43.89487" lon="3.60165">
        <ele>521.17</ele>
        <time>2015-11-22T10:58:44Z</time>
      </trkpt>
      <trkpt lat="43.89489" lon="3.60163">
        <ele>521.17</ele>
        <time>2015-11-22T10:58:46Z</time>
      </trkpt>
      <trkpt lat="43.89491" lon="3.6016">
        <ele>521.65</ele>
        <time>2015-11-22T10:58:50Z</time>
      </trkpt>
      <trkpt lat="43.89498" lon="3.60154">
        <ele>522.61</ele>
        <time>2015-11-22T10:59:01Z</time>
      </trkpt>
      <trkpt lat="43.8951" lon="3.60139">
        <ele>524.54</ele>
        <time>2015-11-22T10:59:16Z</time>
      </trkpt>
      <trkpt lat="43.89516" lon="3.60127">
        <ele>525.5</ele>
        <time>2015-11-22T10:59:28Z</time>
      </trkpt>
      <trkpt lat="43.8952" lon="3.60124">
        <ele>525.5</ele>
        <time>2015-11-22T10:59:31Z</time>
      </trkpt>
      <trkpt lat="43.89522" lon="3.6012">
        <ele>525.98</ele>
        <time>2015-11-22T10:59:35Z</time>
      </trkpt>
      <trkpt lat="43.89527" lon="3.60117">
        <ele>526.46</ele>
        <time>2015-11-22T10:59:39Z</time>
      </trkpt>
      <trkpt lat="43.89539" lon="3.60111">
        <ele>527.42</ele>
        <time>2015-11-22T10:59:50Z</time>
      </trkpt>
      <trkpt lat="43.89542" lon="3.6011">
        <ele>527.9</ele>
        <time>2015-11-22T10:59:54Z</time>
      </trkpt>
      <trkpt lat="43.89544" lon="3.60108">
        <ele>527.9</ele>
        <time>2015-11-22T10:59:56Z</time>
      </trkpt>
      <trkpt lat="43.89547" lon="3.60105">
        <ele>528.86</ele>
        <time>2015-11-22T11:00:00Z</time>
      </trkpt>
      <trkpt lat="43.89549" lon="3.60105">
        <ele>529.82</ele>
        <time>2015-11-22T11:00:02Z</time>
      </trkpt>
      <trkpt lat="43.89549" lon="3.60105">
        <ele>530.79</ele>
        <time>2015-11-22T11:00:03Z</time>
      </trkpt>
      <trkpt lat="43.8956" lon="3.60102">
        <ele>531.75</ele>
        <time>2015-11-22T11:00:16Z</time>
      </trkpt>
      <trkpt lat="43.89569" lon="3.60098">
        <ele>534.15</ele>
        <time>2015-11-22T11:00:28Z</time>
      </trkpt>
      <trkpt lat="43.89573" lon="3.60094">
        <ele>535.59</ele>
        <time>2015-11-22T11:00:35Z</time>
      </trkpt>
      <trkpt lat="43.89581" lon="3.6009">
        <ele>536.55</ele>
        <time>2015-11-22T11:00:44Z</time>
      </trkpt>
      <trkpt lat="43.89584" lon="3.60088">
        <ele>537.51</ele>
        <time>2015-11-22T11:00:47Z</time>
      </trkpt>
      <trkpt lat="43.89588" lon="3.60085">
        <ele>537.51</ele>
        <time>2015-11-22T11:00:52Z</time>
      </trkpt>
      <trkpt lat="43.89595" lon="3.60077">
        <ele>539.92</ele>
        <time>2015-11-22T11:01:03Z</time>
      </trkpt>
      <trkpt lat="43.89605" lon="3.60074">
        <ele>541.36</ele>
        <time>2015-11-22T11:01:15Z</time>
      </trkpt>
      <trkpt lat="43.89613" lon="3.60069">
        <ele>544.24</ele>
        <time>2015-11-22T11:01:28Z</time>
      </trkpt>
      <trkpt lat="43.89625" lon="3.60062">
        <ele>545.69</ele>
        <time>2015-11-22T11:01:42Z</time>
      </trkpt>
      <trkpt lat="43.89626" lon="3.60062">
        <ele>545.69</ele>
        <time>2015-11-22T11:01:43Z</time>
      </trkpt>
      <trkpt lat="43.89628" lon="3.60062">
        <ele>545.69</ele>
        <time>2015-11-22T11:01:47Z</time>
      </trkpt>
      <trkpt lat="43.89636" lon="3.60058">
        <ele>546.65</ele>
        <time>2015-11-22T11:01:56Z</time>
      </trkpt>
      <trkpt lat="43.89638" lon="3.60057">
        <ele>547.13</ele>
        <time>2015-11-22T11:01:58Z</time>
      </trkpt>
      <trkpt lat="43.89646" lon="3.6005">
        <ele>548.57</ele>
        <time>2015-11-22T11:02:10Z</time>
      </trkpt>
      <trkpt lat="43.89649" lon="3.6005">
        <ele>549.05</ele>
        <time>2015-11-22T11:02:23Z</time>
      </trkpt>
      <trkpt lat="43.8965" lon="3.6005">
        <ele>549.05</ele>
        <time>2015-11-22T11:02:40Z</time>
      </trkpt>
      <trkpt lat="43.89651" lon="3.60053">
        <ele>549.53</ele>
        <time>2015-11-22T11:03:01Z</time>
      </trkpt>
      <trkpt lat="43.89651" lon="3.60054">
        <ele>549.53</ele>
        <time>2015-11-22T11:03:23Z</time>
      </trkpt>
      <trkpt lat="43.89651" lon="3.60062">
        <ele>550.49</ele>
        <time>2015-11-22T11:03:30Z</time>
      </trkpt>
      <trkpt lat="43.89655" lon="3.60076">
        <ele>553.38</ele>
        <time>2015-11-22T11:03:44Z</time>
      </trkpt>
      <trkpt lat="43.89656" lon="3.60077">
        <ele>553.38</ele>
        <time>2015-11-22T11:03:46Z</time>
      </trkpt>
      <trkpt lat="43.89659" lon="3.60081">
        <ele>554.34</ele>
        <time>2015-11-22T11:03:50Z</time>
      </trkpt>
      <trkpt lat="43.89664" lon="3.60091">
        <ele>556.74</ele>
        <time>2015-11-22T11:04:03Z</time>
      </trkpt>
      <trkpt lat="43.8967" lon="3.60089">
        <ele>558.66</ele>
        <time>2015-11-22T11:04:16Z</time>
      </trkpt>
      <trkpt lat="43.89671" lon="3.60088">
        <ele>558.66</ele>
        <time>2015-11-22T11:04:33Z</time>
      </trkpt>
      <trkpt lat="43.89672" lon="3.60085">
        <ele>559.62</ele>
        <time>2015-11-22T11:04:43Z</time>
      </trkpt>
      <trkpt lat="43.89673" lon="3.60078">
        <ele>559.14</ele>
        <time>2015-11-22T11:04:56Z</time>
      </trkpt>
      <trkpt lat="43.89674" lon="3.60083">
        <ele>559.14</ele>
        <time>2015-11-22T11:05:12Z</time>
      </trkpt>
      <trkpt lat="43.89673" lon="3.60082">
        <ele>559.14</ele>
        <time>2015-11-22T11:05:28Z</time>
      </trkpt>
      <trkpt lat="43.89677" lon="3.60077">
        <ele>560.11</ele>
        <time>2015-11-22T11:05:41Z</time>
      </trkpt>
      <trkpt lat="43.89686" lon="3.60074">
        <ele>562.99</ele>
        <time>2015-11-22T11:05:54Z</time>
      </trkpt>
      <trkpt lat="43.89686" lon="3.60074">
        <ele>562.99</ele>
        <time>2015-11-22T11:05:55Z</time>
      </trkpt>
      <trkpt lat="43.89696" lon="3.60073">
        <ele>566.35</ele>
        <time>2015-11-22T11:06:09Z</time>
      </trkpt>
      <trkpt lat="43.89704" lon="3.60071">
        <ele>568.28</ele>
        <time>2015-11-22T11:06:21Z</time>
      </trkpt>
      <trkpt lat="43.89709" lon="3.60065">
        <ele>570.68</ele>
        <time>2015-11-22T11:06:33Z</time>
      </trkpt>
      <trkpt lat="43.89704" lon="3.60061">
        <ele>573.08</ele>
        <time>2015-11-22T11:06:46Z</time>
      </trkpt>
      <trkpt lat="43.89702" lon="3.60044">
        <ele>575.01</ele>
        <time>2015-11-22T11:07:00Z</time>
      </trkpt>
      <trkpt lat="43.89706" lon="3.60033">
        <ele>576.93</ele>
        <time>2015-11-22T11:07:12Z</time>
      </trkpt>
      <trkpt lat="43.89709" lon="3.60032">
        <ele>577.89</ele>
        <time>2015-11-22T11:07:16Z</time>
      </trkpt>
      <trkpt lat="43.89717" lon="3.60031">
        <ele>579.81</ele>
        <time>2015-11-22T11:07:28Z</time>
      </trkpt>
      <trkpt lat="43.89726" lon="3.60034">
        <ele>581.73</ele>
        <time>2015-11-22T11:07:41Z</time>
      </trkpt>
      <trkpt lat="43.89728" lon="3.60027">
        <ele>583.66</ele>
        <time>2015-11-22T11:07:51Z</time>
      </trkpt>
      <trkpt lat="43.89729" lon="3.60018">
        <ele>585.1</ele>
        <time>2015-11-22T11:08:05Z</time>
      </trkpt>
      <trkpt lat="43.89735" lon="3.60011">
        <ele>586.06</ele>
        <time>2015-11-22T11:08:19Z</time>
      </trkpt>
      <trkpt lat="43.89742" lon="3.60008">
        <ele>587.98</ele>
        <time>2015-11-22T11:08:28Z</time>
      </trkpt>
      <trkpt lat="43.89745" lon="3.60006">
        <ele>588.95</ele>
        <time>2015-11-22T11:08:31Z</time>
      </trkpt>
      <trkpt lat="43.89753" lon="3.60004">
        <ele>590.87</ele>
        <time>2015-11-22T11:08:42Z</time>
      </trkpt>
      <trkpt lat="43.89756" lon="3.60002">
        <ele>591.35</ele>
        <time>2015-11-22T11:08:47Z</time>
      </trkpt>
      <trkpt lat="43.89764" lon="3.59995">
        <ele>593.27</ele>
        <time>2015-11-22T11:08:59Z</time>
      </trkpt>
      <trkpt lat="43.89767" lon="3.59992">
        <ele>594.71</ele>
        <time>2015-11-22T11:09:04Z</time>
      </trkpt>
      <trkpt lat="43.89773" lon="3.59987">
        <ele>595.67</ele>
        <time>2015-11-22T11:09:12Z</time>
      </trkpt>
      <trkpt lat="43.89775" lon="3.59985">
        <ele>596.15</ele>
        <time>2015-11-22T11:09:14Z</time>
      </trkpt>
      <trkpt lat="43.89782" lon="3.59982">
        <ele>597.6</ele>
        <time>2015-11-22T11:09:22Z</time>
      </trkpt>
      <trkpt lat="43.89792" lon="3.59976">
        <ele>599.04</ele>
        <time>2015-11-22T11:09:33Z</time>
      </trkpt>
      <trkpt lat="43.89797" lon="3.5997">
        <ele>600</ele>
        <time>2015-11-22T11:09:46Z</time>
      </trkpt>
      <trkpt lat="43.898" lon="3.59958">
        <ele>601.92</ele>
        <time>2015-11-22T11:09:59Z</time>
      </trkpt>
      <trkpt lat="43.89805" lon="3.5995">
        <ele>603.85</ele>
        <time>2015-11-22T11:10:09Z</time>
      </trkpt>
      <trkpt lat="43.89809" lon="3.59939">
        <ele>606.25</ele>
        <time>2015-11-22T11:10:22Z</time>
      </trkpt>
      <trkpt lat="43.89811" lon="3.59933">
        <ele>607.69</ele>
        <time>2015-11-22T11:10:30Z</time>
      </trkpt>
      <trkpt lat="43.89817" lon="3.59923">
        <ele>610.57</ele>
        <time>2015-11-22T11:10:42Z</time>
      </trkpt>
      <trkpt lat="43.89827" lon="3.59924">
        <ele>609.61</ele>
        <time>2015-11-22T11:10:54Z</time>
      </trkpt>
      <trkpt lat="43.89837" lon="3.59922">
        <ele>610.09</ele>
        <time>2015-11-22T11:11:06Z</time>
      </trkpt>
      <trkpt lat="43.89841" lon="3.59913">
        <ele>612.02</ele>
        <time>2015-11-22T11:11:18Z</time>
      </trkpt>
      <trkpt lat="43.89847" lon="3.59902">
        <ele>614.42</ele>
        <time>2015-11-22T11:11:30Z</time>
      </trkpt>
      <trkpt lat="43.89853" lon="3.59896">
        <ele>615.86</ele>
        <time>2015-11-22T11:11:45Z</time>
      </trkpt>
      <trkpt lat="43.89853" lon="3.59894">
        <ele>616.34</ele>
        <time>2015-11-22T11:11:58Z</time>
      </trkpt>
      <trkpt lat="43.89854" lon="3.59898">
        <ele>615.86</ele>
        <time>2015-11-22T11:12:14Z</time>
      </trkpt>
      <trkpt lat="43.89852" lon="3.59895">
        <ele>616.82</ele>
        <time>2015-11-22T11:12:29Z</time>
      </trkpt>
      <trkpt lat="43.89851" lon="3.59894">
        <ele>616.82</ele>
        <time>2015-11-22T11:12:31Z</time>
      </trkpt>
      <trkpt lat="43.89847" lon="3.59889">
        <ele>617.3</ele>
        <time>2015-11-22T11:12:43Z</time>
      </trkpt>
      <trkpt lat="43.89847" lon="3.59881">
        <ele>618.26</ele>
        <time>2015-11-22T11:12:59Z</time>
      </trkpt>
      <trkpt lat="43.89845" lon="3.59877">
        <ele>618.75</ele>
        <time>2015-11-22T11:13:03Z</time>
      </trkpt>
      <trkpt lat="43.89842" lon="3.59871">
        <ele>618.75</ele>
        <time>2015-11-22T11:13:08Z</time>
      </trkpt>
      <trkpt lat="43.89841" lon="3.59868">
        <ele>619.23</ele>
        <time>2015-11-22T11:13:11Z</time>
      </trkpt>
      <trkpt lat="43.8984" lon="3.59864">
        <ele>619.23</ele>
        <time>2015-11-22T11:13:14Z</time>
      </trkpt>
      <trkpt lat="43.89841" lon="3.59853">
        <ele>620.19</ele>
        <time>2015-11-22T11:13:26Z</time>
      </trkpt>
      <trkpt lat="43.89839" lon="3.59844">
        <ele>620.67</ele>
        <time>2015-11-22T11:13:37Z</time>
      </trkpt>
      <trkpt lat="43.89838" lon="3.59837">
        <ele>621.15</ele>
        <time>2015-11-22T11:13:42Z</time>
      </trkpt>
      <trkpt lat="43.89838" lon="3.59834">
        <ele>621.63</ele>
        <time>2015-11-22T11:13:44Z</time>
      </trkpt>
      <trkpt lat="43.89841" lon="3.59819">
        <ele>622.59</ele>
        <time>2015-11-22T11:13:56Z</time>
      </trkpt>
      <trkpt lat="43.89843" lon="3.59815">
        <ele>623.07</ele>
        <time>2015-11-22T11:14:00Z</time>
      </trkpt>
      <trkpt lat="43.89842" lon="3.59812">
        <ele>623.07</ele>
        <time>2015-11-22T11:14:02Z</time>
      </trkpt>
      <trkpt lat="43.89844" lon="3.59796">
        <ele>624.03</ele>
        <time>2015-11-22T11:14:14Z</time>
      </trkpt>
      <trkpt lat="43.89846" lon="3.59784">
        <ele>624.51</ele>
        <time>2015-11-22T11:14:22Z</time>
      </trkpt>
      <trkpt lat="43.89846" lon="3.59778">
        <ele>624.51</ele>
        <time>2015-11-22T11:14:26Z</time>
      </trkpt>
      <trkpt lat="43.89848" lon="3.59769">
        <ele>624.51</ele>
        <time>2015-11-22T11:14:31Z</time>
      </trkpt>
      <trkpt lat="43.89849" lon="3.59761">
        <ele>624.99</ele>
        <time>2015-11-22T11:14:36Z</time>
      </trkpt>
      <trkpt lat="43.89852" lon="3.59746">
        <ele>625.96</ele>
        <time>2015-11-22T11:14:46Z</time>
      </trkpt>
      <trkpt lat="43.89851" lon="3.59741">
        <ele>625.96</ele>
        <time>2015-11-22T11:14:50Z</time>
      </trkpt>
      <trkpt lat="43.89851" lon="3.59736">
        <ele>625.47</ele>
        <time>2015-11-22T11:14:53Z</time>
      </trkpt>
      <trkpt lat="43.89862" lon="3.59713">
        <ele>626.92</ele>
        <time>2015-11-22T11:15:10Z</time>
      </trkpt>
      <trkpt lat="43.89868" lon="3.59697">
        <ele>628.36</ele>
        <time>2015-11-22T11:15:22Z</time>
      </trkpt>
      <trkpt lat="43.89869" lon="3.59694">
        <ele>628.36</ele>
        <time>2015-11-22T11:15:24Z</time>
      </trkpt>
      <trkpt lat="43.89871" lon="3.5969">
        <ele>628.36</ele>
        <time>2015-11-22T11:15:27Z</time>
      </trkpt>
      <trkpt lat="43.89875" lon="3.59682">
        <ele>628.84</ele>
        <time>2015-11-22T11:15:34Z</time>
      </trkpt>
      <trkpt lat="43.89877" lon="3.59676">
        <ele>628.84</ele>
        <time>2015-11-22T11:15:37Z</time>
      </trkpt>
      <trkpt lat="43.8988" lon="3.59662">
        <ele>628.84</ele>
        <time>2015-11-22T11:15:46Z</time>
      </trkpt>
      <trkpt lat="43.89884" lon="3.59653">
        <ele>629.32</ele>
        <time>2015-11-22T11:15:53Z</time>
      </trkpt>
      <trkpt lat="43.89896" lon="3.5964">
        <ele>631.24</ele>
        <time>2015-11-22T11:16:07Z</time>
      </trkpt>
      <trkpt lat="43.89898" lon="3.59638">
        <ele>631.24</ele>
        <time>2015-11-22T11:16:09Z</time>
      </trkpt>
      <trkpt lat="43.89906" lon="3.59625">
        <ele>632.68</ele>
        <time>2015-11-22T11:16:21Z</time>
      </trkpt>
      <trkpt lat="43.89908" lon="3.5962">
        <ele>632.68</ele>
        <time>2015-11-22T11:16:25Z</time>
      </trkpt>
      <trkpt lat="43.89914" lon="3.59611">
        <ele>633.17</ele>
        <time>2015-11-22T11:16:33Z</time>
      </trkpt>
      <trkpt lat="43.89918" lon="3.5961">
        <ele>633.65</ele>
        <time>2015-11-22T11:16:37Z</time>
      </trkpt>
      <trkpt lat="43.89931" lon="3.59607">
        <ele>636.05</ele>
        <time>2015-11-22T11:16:50Z</time>
      </trkpt>
      <trkpt lat="43.89935" lon="3.59604">
        <ele>637.01</ele>
        <time>2015-11-22T11:16:54Z</time>
      </trkpt>
      <trkpt lat="43.89944" lon="3.59597">
        <ele>637.97</ele>
        <time>2015-11-22T11:17:06Z</time>
      </trkpt>
      <trkpt lat="43.8995" lon="3.59592">
        <ele>637.49</ele>
        <time>2015-11-22T11:17:12Z</time>
      </trkpt>
      <trkpt lat="43.89959" lon="3.59587">
        <ele>637.97</ele>
        <time>2015-11-22T11:17:21Z</time>
      </trkpt>
      <trkpt lat="43.89966" lon="3.59582">
        <ele>636.53</ele>
        <time>2015-11-22T11:17:29Z</time>
      </trkpt>
      <trkpt lat="43.89969" lon="3.59581">
        <ele>638.45</ele>
        <time>2015-11-22T11:17:32Z</time>
      </trkpt>
      <trkpt lat="43.8997" lon="3.5958">
        <ele>637.49</ele>
        <time>2015-11-22T11:17:33Z</time>
      </trkpt>
      <trkpt lat="43.89979" lon="3.5958">
        <ele>638.45</ele>
        <time>2015-11-22T11:17:47Z</time>
      </trkpt>
      <trkpt lat="43.89982" lon="3.59584">
        <ele>638.45</ele>
        <time>2015-11-22T11:18:01Z</time>
      </trkpt>
      <trkpt lat="43.89981" lon="3.59585">
        <ele>637.49</ele>
        <time>2015-11-22T11:18:19Z</time>
      </trkpt>
      <trkpt lat="43.89981" lon="3.59585">
        <ele>637.01</ele>
        <time>2015-11-22T11:18:50Z</time>
      </trkpt>
      <trkpt lat="43.89981" lon="3.59585">
        <ele>637.01</ele>
        <time>2015-11-22T11:19:20Z</time>
      </trkpt>
      <trkpt lat="43.89981" lon="3.59585">
        <ele>637.01</ele>
        <time>2015-11-22T11:19:46Z</time>
      </trkpt>
      <trkpt lat="43.8998" lon="3.59585">
        <ele>637.01</ele>
        <time>2015-11-22T11:20:26Z</time>
      </trkpt>
      <trkpt lat="43.8998" lon="3.59585">
        <ele>637.49</ele>
        <time>2015-11-22T11:20:58Z</time>
      </trkpt>
      <trkpt lat="43.89981" lon="3.59585">
        <ele>637.49</ele>
        <time>2015-11-22T11:21:12Z</time>
      </trkpt>
      <trkpt lat="43.89981" lon="3.59583">
        <ele>637.49</ele>
        <time>2015-11-22T11:21:29Z</time>
      </trkpt>
      <trkpt lat="43.89982" lon="3.59583">
        <ele>637.97</ele>
        <time>2015-11-22T11:21:48Z</time>
      </trkpt>
      <trkpt lat="43.89983" lon="3.5958">
        <ele>636.53</ele>
        <time>2015-11-22T11:22:12Z</time>
      </trkpt>
      <trkpt lat="43.89992" lon="3.5957">
        <ele>636.53</ele>
        <time>2015-11-22T11:22:24Z</time>
      </trkpt>
      <trkpt lat="43.89995" lon="3.59568">
        <ele>636.53</ele>
        <time>2015-11-22T11:22:26Z</time>
      </trkpt>
      <trkpt lat="43.90001" lon="3.59563">
        <ele>637.01</ele>
        <time>2015-11-22T11:22:32Z</time>
      </trkpt>
      <trkpt lat="43.90018" lon="3.59549">
        <ele>636.05</ele>
        <time>2015-11-22T11:22:47Z</time>
      </trkpt>
      <trkpt lat="43.9002" lon="3.59545">
        <ele>636.05</ele>
        <time>2015-11-22T11:22:50Z</time>
      </trkpt>
      <trkpt lat="43.90028" lon="3.5954">
        <ele>636.05</ele>
        <time>2015-11-22T11:22:56Z</time>
      </trkpt>
      <trkpt lat="43.90033" lon="3.59538">
        <ele>635.57</ele>
        <time>2015-11-22T11:23:00Z</time>
      </trkpt>
      <trkpt lat="43.90047" lon="3.59527">
        <ele>635.09</ele>
        <time>2015-11-22T11:23:12Z</time>
      </trkpt>
      <trkpt lat="43.90059" lon="3.59519">
        <ele>635.57</ele>
        <time>2015-11-22T11:23:22Z</time>
      </trkpt>
      <trkpt lat="43.90065" lon="3.59514">
        <ele>635.09</ele>
        <time>2015-11-22T11:23:27Z</time>
      </trkpt>
      <trkpt lat="43.90068" lon="3.59513">
        <ele>635.09</ele>
        <time>2015-11-22T11:23:30Z</time>
      </trkpt>
      <trkpt lat="43.90076" lon="3.59508">
        <ele>634.13</ele>
        <time>2015-11-22T11:23:37Z</time>
      </trkpt>
      <trkpt lat="43.90088" lon="3.59504">
        <ele>633.65</ele>
        <time>2015-11-22T11:23:46Z</time>
      </trkpt>
      <trkpt lat="43.90091" lon="3.59501">
        <ele>634.13</ele>
        <time>2015-11-22T11:23:49Z</time>
      </trkpt>
      <trkpt lat="43.90109" lon="3.59508">
        <ele>634.13</ele>
        <time>2015-11-22T11:24:03Z</time>
      </trkpt>
      <trkpt lat="43.90127" lon="3.59511">
        <ele>633.65</ele>
        <time>2015-11-22T11:24:16Z</time>
      </trkpt>
      <trkpt lat="43.90132" lon="3.59514">
        <ele>633.65</ele>
        <time>2015-11-22T11:24:21Z</time>
      </trkpt>
      <trkpt lat="43.9015" lon="3.59514">
        <ele>633.17</ele>
        <time>2015-11-22T11:24:35Z</time>
      </trkpt>
      <trkpt lat="43.90155" lon="3.59514">
        <ele>633.17</ele>
        <time>2015-11-22T11:24:40Z</time>
      </trkpt>
      <trkpt lat="43.90159" lon="3.59514">
        <ele>633.17</ele>
        <time>2015-11-22T11:24:43Z</time>
      </trkpt>
      <trkpt lat="43.90165" lon="3.59511">
        <ele>632.68</ele>
        <time>2015-11-22T11:24:48Z</time>
      </trkpt>
      <trkpt lat="43.9017" lon="3.59509">
        <ele>632.68</ele>
        <time>2015-11-22T11:24:53Z</time>
      </trkpt>
      <trkpt lat="43.90175" lon="3.5951">
        <ele>632.68</ele>
        <time>2015-11-22T11:24:57Z</time>
      </trkpt>
      <trkpt lat="43.90178" lon="3.59512">
        <ele>633.17</ele>
        <time>2015-11-22T11:25:00Z</time>
      </trkpt>
      <trkpt lat="43.90183" lon="3.59515">
        <ele>633.17</ele>
        <time>2015-11-22T11:25:05Z</time>
      </trkpt>
      <trkpt lat="43.90184" lon="3.59517">
        <ele>633.17</ele>
        <time>2015-11-22T11:25:07Z</time>
      </trkpt>
      <trkpt lat="43.90185" lon="3.59521">
        <ele>633.65</ele>
        <time>2015-11-22T11:25:10Z</time>
      </trkpt>
      <trkpt lat="43.90188" lon="3.59526">
        <ele>634.13</ele>
        <time>2015-11-22T11:25:15Z</time>
      </trkpt>
      <trkpt lat="43.90191" lon="3.59526">
        <ele>634.13</ele>
        <time>2015-11-22T11:25:18Z</time>
      </trkpt>
      <trkpt lat="43.90196" lon="3.59528">
        <ele>634.61</ele>
        <time>2015-11-22T11:25:22Z</time>
      </trkpt>
      <trkpt lat="43.90201" lon="3.59534">
        <ele>635.09</ele>
        <time>2015-11-22T11:25:33Z</time>
      </trkpt>
      <trkpt lat="43.90201" lon="3.59535">
        <ele>634.61</ele>
        <time>2015-11-22T11:25:43Z</time>
      </trkpt>
      <trkpt lat="43.90201" lon="3.59535">
        <ele>634.61</ele>
        <time>2015-11-22T11:25:44Z</time>
      </trkpt>
      <trkpt lat="43.90203" lon="3.59534">
        <ele>634.61</ele>
        <time>2015-11-22T11:25:47Z</time>
      </trkpt>
      <trkpt lat="43.90217" lon="3.59533">
        <ele>634.61</ele>
        <time>2015-11-22T11:25:59Z</time>
      </trkpt>
      <trkpt lat="43.90224" lon="3.59533">
        <ele>634.61</ele>
        <time>2015-11-22T11:26:05Z</time>
      </trkpt>
      <trkpt lat="43.90233" lon="3.59536">
        <ele>634.13</ele>
        <time>2015-11-22T11:26:12Z</time>
      </trkpt>
      <trkpt lat="43.90248" lon="3.59533">
        <ele>634.61</ele>
        <time>2015-11-22T11:26:25Z</time>
      </trkpt>
      <trkpt lat="43.9026" lon="3.59538">
        <ele>635.57</ele>
        <time>2015-11-22T11:26:35Z</time>
      </trkpt>
      <trkpt lat="43.90278" lon="3.59538">
        <ele>636.53</ele>
        <time>2015-11-22T11:26:50Z</time>
      </trkpt>
      <trkpt lat="43.90293" lon="3.5954">
        <ele>637.97</ele>
        <time>2015-11-22T11:27:03Z</time>
      </trkpt>
      <trkpt lat="43.90313" lon="3.59545">
        <ele>638.93</ele>
        <time>2015-11-22T11:27:19Z</time>
      </trkpt>
      <trkpt lat="43.90319" lon="3.59546">
        <ele>639.41</ele>
        <time>2015-11-22T11:27:24Z</time>
      </trkpt>
      <trkpt lat="43.90337" lon="3.59549">
        <ele>640.86</ele>
        <time>2015-11-22T11:27:39Z</time>
      </trkpt>
      <trkpt lat="43.90345" lon="3.59552">
        <ele>641.34</ele>
        <time>2015-11-22T11:27:46Z</time>
      </trkpt>
      <trkpt lat="43.90349" lon="3.59554">
        <ele>641.82</ele>
        <time>2015-11-22T11:27:50Z</time>
      </trkpt>
      <trkpt lat="43.90363" lon="3.5956">
        <ele>643.74</ele>
        <time>2015-11-22T11:28:03Z</time>
      </trkpt>
      <trkpt lat="43.90376" lon="3.59566">
        <ele>645.18</ele>
        <time>2015-11-22T11:28:16Z</time>
      </trkpt>
      <trkpt lat="43.90393" lon="3.59574">
        <ele>646.14</ele>
        <time>2015-11-22T11:28:31Z</time>
      </trkpt>
      <trkpt lat="43.90396" lon="3.59575">
        <ele>646.62</ele>
        <time>2015-11-22T11:28:34Z</time>
      </trkpt>
      <trkpt lat="43.90399" lon="3.59577">
        <ele>646.62</ele>
        <time>2015-11-22T11:28:37Z</time>
      </trkpt>
      <trkpt lat="43.90405" lon="3.59582">
        <ele>647.59</ele>
        <time>2015-11-22T11:28:43Z</time>
      </trkpt>
      <trkpt lat="43.90419" lon="3.59597">
        <ele>649.99</ele>
        <time>2015-11-22T11:28:57Z</time>
      </trkpt>
      <trkpt lat="43.90427" lon="3.59601">
        <ele>650.47</ele>
        <time>2015-11-22T11:29:05Z</time>
      </trkpt>
      <trkpt lat="43.9043" lon="3.59603">
        <ele>650.95</ele>
        <time>2015-11-22T11:29:08Z</time>
      </trkpt>
      <trkpt lat="43.90446" lon="3.59612">
        <ele>652.39</ele>
        <time>2015-11-22T11:29:23Z</time>
      </trkpt>
      <trkpt lat="43.90447" lon="3.59613">
        <ele>652.39</ele>
        <time>2015-11-22T11:29:24Z</time>
      </trkpt>
      <trkpt lat="43.90452" lon="3.59616">
        <ele>652.87</ele>
        <time>2015-11-22T11:29:28Z</time>
      </trkpt>
      <trkpt lat="43.90461" lon="3.59624">
        <ele>653.83</ele>
        <time>2015-11-22T11:29:38Z</time>
      </trkpt>
      <trkpt lat="43.90477" lon="3.59633">
        <ele>654.31</ele>
        <time>2015-11-22T11:29:53Z</time>
      </trkpt>
      <trkpt lat="43.90481" lon="3.59635">
        <ele>654.8</ele>
        <time>2015-11-22T11:29:56Z</time>
      </trkpt>
      <trkpt lat="43.90485" lon="3.59637">
        <ele>655.28</ele>
        <time>2015-11-22T11:30:00Z</time>
      </trkpt>
      <trkpt lat="43.90502" lon="3.59647">
        <ele>656.72</ele>
        <time>2015-11-22T11:30:15Z</time>
      </trkpt>
      <trkpt lat="43.9051" lon="3.59655">
        <ele>657.68</ele>
        <time>2015-11-22T11:30:23Z</time>
      </trkpt>
      <trkpt lat="43.90523" lon="3.59661">
        <ele>659.12</ele>
        <time>2015-11-22T11:30:34Z</time>
      </trkpt>
      <trkpt lat="43.9054" lon="3.59671">
        <ele>659.12</ele>
        <time>2015-11-22T11:30:49Z</time>
      </trkpt>
      <trkpt lat="43.90551" lon="3.59679">
        <ele>660.08</ele>
        <time>2015-11-22T11:31:00Z</time>
      </trkpt>
      <trkpt lat="43.90556" lon="3.59682">
        <ele>661.04</ele>
        <time>2015-11-22T11:31:05Z</time>
      </trkpt>
      <trkpt lat="43.90574" lon="3.59689">
        <ele>661.04</ele>
        <time>2015-11-22T11:31:20Z</time>
      </trkpt>
      <trkpt lat="43.90593" lon="3.59698">
        <ele>661.04</ele>
        <time>2015-11-22T11:31:35Z</time>
      </trkpt>
      <trkpt lat="43.90609" lon="3.59712">
        <ele>661.04</ele>
        <time>2015-11-22T11:31:50Z</time>
      </trkpt>
      <trkpt lat="43.90611" lon="3.59713">
        <ele>661.04</ele>
        <time>2015-11-22T11:31:51Z</time>
      </trkpt>
      <trkpt lat="43.90618" lon="3.59723">
        <ele>661.52</ele>
        <time>2015-11-22T11:31:59Z</time>
      </trkpt>
      <trkpt lat="43.9062" lon="3.59727">
        <ele>661.52</ele>
        <time>2015-11-22T11:32:02Z</time>
      </trkpt>
      <trkpt lat="43.90627" lon="3.59739">
        <ele>663.45</ele>
        <time>2015-11-22T11:32:12Z</time>
      </trkpt>
      <trkpt lat="43.90639" lon="3.59755">
        <ele>665.37</ele>
        <time>2015-11-22T11:32:26Z</time>
      </trkpt>
      <trkpt lat="43.90645" lon="3.59761">
        <ele>666.33</ele>
        <time>2015-11-22T11:32:33Z</time>
      </trkpt>
      <trkpt lat="43.90648" lon="3.59765">
        <ele>666.81</ele>
        <time>2015-11-22T11:32:37Z</time>
      </trkpt>
      <trkpt lat="43.90662" lon="3.59776">
        <ele>668.73</ele>
        <time>2015-11-22T11:32:52Z</time>
      </trkpt>
      <trkpt lat="43.90679" lon="3.59783">
        <ele>668.73</ele>
        <time>2015-11-22T11:33:06Z</time>
      </trkpt>
      <trkpt lat="43.9068" lon="3.59784">
        <ele>669.22</ele>
        <time>2015-11-22T11:33:07Z</time>
      </trkpt>
      <trkpt lat="43.90688" lon="3.59788">
        <ele>668.73</ele>
        <time>2015-11-22T11:33:14Z</time>
      </trkpt>
      <trkpt lat="43.90702" lon="3.59795">
        <ele>669.22</ele>
        <time>2015-11-22T11:33:26Z</time>
      </trkpt>
      <trkpt lat="43.90717" lon="3.59806">
        <ele>670.18</ele>
        <time>2015-11-22T11:33:40Z</time>
      </trkpt>
      <trkpt lat="43.90728" lon="3.59812">
        <ele>670.66</ele>
        <time>2015-11-22T11:33:50Z</time>
      </trkpt>
      <trkpt lat="43.90736" lon="3.59817">
        <ele>671.14</ele>
        <time>2015-11-22T11:33:56Z</time>
      </trkpt>
      <trkpt lat="43.90751" lon="3.59826">
        <ele>671.14</ele>
        <time>2015-11-22T11:34:10Z</time>
      </trkpt>
      <trkpt lat="43.90767" lon="3.59839">
        <ele>671.62</ele>
        <time>2015-11-22T11:34:24Z</time>
      </trkpt>
      <trkpt lat="43.90781" lon="3.59853">
        <ele>670.66</ele>
        <time>2015-11-22T11:34:37Z</time>
      </trkpt>
      <trkpt lat="43.90785" lon="3.59859">
        <ele>671.14</ele>
        <time>2015-11-22T11:34:42Z</time>
      </trkpt>
      <trkpt lat="43.90796" lon="3.59881">
        <ele>671.62</ele>
        <time>2015-11-22T11:34:56Z</time>
      </trkpt>
      <trkpt lat="43.90804" lon="3.59896">
        <ele>672.1</ele>
        <time>2015-11-22T11:35:07Z</time>
      </trkpt>
      <trkpt lat="43.90815" lon="3.59911">
        <ele>674.5</ele>
        <time>2015-11-22T11:35:22Z</time>
      </trkpt>
      <trkpt lat="43.90825" lon="3.59923">
        <ele>675.94</ele>
        <time>2015-11-22T11:35:34Z</time>
      </trkpt>
      <trkpt lat="43.90838" lon="3.59932">
        <ele>677.39</ele>
        <time>2015-11-22T11:35:47Z</time>
      </trkpt>
      <trkpt lat="43.9085" lon="3.59946">
        <ele>678.35</ele>
        <time>2015-11-22T11:36:00Z</time>
      </trkpt>
      <trkpt lat="43.90861" lon="3.59965">
        <ele>679.31</ele>
        <time>2015-11-22T11:36:14Z</time>
      </trkpt>
      <trkpt lat="43.90865" lon="3.59976">
        <ele>679.79</ele>
        <time>2015-11-22T11:36:22Z</time>
      </trkpt>
      <trkpt lat="43.90866" lon="3.5998">
        <ele>679.79</ele>
        <time>2015-11-22T11:36:27Z</time>
      </trkpt>
      <trkpt lat="43.90867" lon="3.59985">
        <ele>680.27</ele>
        <time>2015-11-22T11:36:32Z</time>
      </trkpt>
      <trkpt lat="43.90868" lon="3.5999">
        <ele>680.27</ele>
        <time>2015-11-22T11:36:35Z</time>
      </trkpt>
      <trkpt lat="43.90869" lon="3.6001">
        <ele>680.75</ele>
        <time>2015-11-22T11:36:48Z</time>
      </trkpt>
      <trkpt lat="43.90872" lon="3.60016">
        <ele>680.75</ele>
        <time>2015-11-22T11:36:53Z</time>
      </trkpt>
      <trkpt lat="43.90873" lon="3.60019">
        <ele>681.23</ele>
        <time>2015-11-22T11:36:55Z</time>
      </trkpt>
      <trkpt lat="43.90876" lon="3.6003">
        <ele>680.75</ele>
        <time>2015-11-22T11:37:02Z</time>
      </trkpt>
      <trkpt lat="43.90884" lon="3.60053">
        <ele>681.71</ele>
        <time>2015-11-22T11:37:17Z</time>
      </trkpt>
      <trkpt lat="43.90885" lon="3.60056">
        <ele>681.71</ele>
        <time>2015-11-22T11:37:29Z</time>
      </trkpt>
      <trkpt lat="43.90884" lon="3.6006">
        <ele>681.71</ele>
        <time>2015-11-22T11:37:45Z</time>
      </trkpt>
      <trkpt lat="43.90882" lon="3.60059">
        <ele>681.71</ele>
        <time>2015-11-22T11:38:09Z</time>
      </trkpt>
      <trkpt lat="43.90882" lon="3.6006">
        <ele>681.71</ele>
        <time>2015-11-22T11:38:27Z</time>
      </trkpt>
      <trkpt lat="43.90885" lon="3.60061">
        <ele>681.23</ele>
        <time>2015-11-22T11:38:45Z</time>
      </trkpt>
      <trkpt lat="43.90887" lon="3.60062">
        <ele>680.27</ele>
        <time>2015-11-22T11:38:47Z</time>
      </trkpt>
      <trkpt lat="43.9089" lon="3.60067">
        <ele>679.31</ele>
        <time>2015-11-22T11:38:53Z</time>
      </trkpt>
      <trkpt lat="43.90893" lon="3.60073">
        <ele>678.83</ele>
        <time>2015-11-22T11:38:59Z</time>
      </trkpt>
      <trkpt lat="43.90898" lon="3.60084">
        <ele>677.87</ele>
        <time>2015-11-22T11:39:07Z</time>
      </trkpt>
      <trkpt lat="43.90901" lon="3.60087">
        <ele>677.39</ele>
        <time>2015-11-22T11:39:10Z</time>
      </trkpt>
      <trkpt lat="43.90904" lon="3.60094">
        <ele>677.39</ele>
        <time>2015-11-22T11:39:15Z</time>
      </trkpt>
      <trkpt lat="43.90906" lon="3.60096">
        <ele>676.91</ele>
        <time>2015-11-22T11:39:17Z</time>
      </trkpt>
      <trkpt lat="43.90918" lon="3.60106">
        <ele>677.39</ele>
        <time>2015-11-22T11:39:29Z</time>
      </trkpt>
      <trkpt lat="43.90923" lon="3.60108">
        <ele>677.39</ele>
        <time>2015-11-22T11:39:34Z</time>
      </trkpt>
      <trkpt lat="43.90937" lon="3.60122">
        <ele>677.87</ele>
        <time>2015-11-22T11:39:49Z</time>
      </trkpt>
      <trkpt lat="43.90939" lon="3.60124">
        <ele>677.87</ele>
        <time>2015-11-22T11:39:51Z</time>
      </trkpt>
      <trkpt lat="43.90945" lon="3.60128">
        <ele>677.87</ele>
        <time>2015-11-22T11:39:58Z</time>
      </trkpt>
      <trkpt lat="43.90947" lon="3.60132">
        <ele>678.35</ele>
        <time>2015-11-22T11:40:01Z</time>
      </trkpt>
      <trkpt lat="43.90951" lon="3.60136">
        <ele>678.35</ele>
        <time>2015-11-22T11:40:05Z</time>
      </trkpt>
      <trkpt lat="43.90953" lon="3.60142">
        <ele>678.83</ele>
        <time>2015-11-22T11:40:10Z</time>
      </trkpt>
      <trkpt lat="43.90959" lon="3.60148">
        <ele>678.35</ele>
        <time>2015-11-22T11:40:18Z</time>
      </trkpt>
      <trkpt lat="43.90966" lon="3.60154">
        <ele>678.35</ele>
        <time>2015-11-22T11:40:25Z</time>
      </trkpt>
      <trkpt lat="43.90969" lon="3.60156">
        <ele>678.35</ele>
        <time>2015-11-22T11:40:28Z</time>
      </trkpt>
      <trkpt lat="43.90981" lon="3.60161">
        <ele>677.39</ele>
        <time>2015-11-22T11:40:39Z</time>
      </trkpt>
      <trkpt lat="43.90992" lon="3.6017">
        <ele>676.42</ele>
        <time>2015-11-22T11:40:49Z</time>
      </trkpt>
      <trkpt lat="43.90999" lon="3.60176">
        <ele>676.42</ele>
        <time>2015-11-22T11:40:59Z</time>
      </trkpt>
      <trkpt lat="43.91008" lon="3.6018">
        <ele>674.98</ele>
        <time>2015-11-22T11:41:08Z</time>
      </trkpt>
      <trkpt lat="43.91011" lon="3.60182">
        <ele>674.98</ele>
        <time>2015-11-22T11:41:11Z</time>
      </trkpt>
      <trkpt lat="43.91014" lon="3.60186">
        <ele>674.98</ele>
        <time>2015-11-22T11:41:14Z</time>
      </trkpt>
      <trkpt lat="43.9102" lon="3.60203">
        <ele>675.46</ele>
        <time>2015-11-22T11:41:26Z</time>
      </trkpt>
      <trkpt lat="43.91021" lon="3.60207">
        <ele>675.94</ele>
        <time>2015-11-22T11:41:28Z</time>
      </trkpt>
      <trkpt lat="43.91024" lon="3.60214">
        <ele>675.46</ele>
        <time>2015-11-22T11:41:34Z</time>
      </trkpt>
      <trkpt lat="43.91034" lon="3.60237">
        <ele>676.91</ele>
        <time>2015-11-22T11:41:50Z</time>
      </trkpt>
      <trkpt lat="43.91037" lon="3.60245">
        <ele>677.39</ele>
        <time>2015-11-22T11:41:57Z</time>
      </trkpt>
      <trkpt lat="43.9104" lon="3.60251">
        <ele>677.87</ele>
        <time>2015-11-22T11:42:01Z</time>
      </trkpt>
      <trkpt lat="43.91051" lon="3.60268">
        <ele>678.35</ele>
        <time>2015-11-22T11:42:16Z</time>
      </trkpt>
      <trkpt lat="43.91052" lon="3.60275">
        <ele>678.35</ele>
        <time>2015-11-22T11:42:20Z</time>
      </trkpt>
      <trkpt lat="43.91056" lon="3.60286">
        <ele>678.83</ele>
        <time>2015-11-22T11:42:28Z</time>
      </trkpt>
      <trkpt lat="43.9106" lon="3.60301">
        <ele>679.31</ele>
        <time>2015-11-22T11:42:39Z</time>
      </trkpt>
      <trkpt lat="43.91064" lon="3.60312">
        <ele>680.75</ele>
        <time>2015-11-22T11:42:47Z</time>
      </trkpt>
      <trkpt lat="43.91068" lon="3.60324">
        <ele>680.75</ele>
        <time>2015-11-22T11:42:55Z</time>
      </trkpt>
      <trkpt lat="43.91073" lon="3.60344">
        <ele>681.23</ele>
        <time>2015-11-22T11:43:08Z</time>
      </trkpt>
      <trkpt lat="43.91073" lon="3.60347">
        <ele>681.23</ele>
        <time>2015-11-22T11:43:10Z</time>
      </trkpt>
      <trkpt lat="43.91075" lon="3.60355">
        <ele>681.71</ele>
        <time>2015-11-22T11:43:14Z</time>
      </trkpt>
      <trkpt lat="43.91076" lon="3.60368">
        <ele>681.71</ele>
        <time>2015-11-22T11:43:22Z</time>
      </trkpt>
      <trkpt lat="43.91076" lon="3.60393">
        <ele>682.19</ele>
        <time>2015-11-22T11:43:37Z</time>
      </trkpt>
      <trkpt lat="43.91075" lon="3.60416">
        <ele>682.67</ele>
        <time>2015-11-22T11:43:50Z</time>
      </trkpt>
      <trkpt lat="43.91072" lon="3.60426">
        <ele>683.15</ele>
        <time>2015-11-22T11:43:56Z</time>
      </trkpt>
      <trkpt lat="43.91071" lon="3.60442">
        <ele>683.15</ele>
        <time>2015-11-22T11:44:05Z</time>
      </trkpt>
      <trkpt lat="43.91073" lon="3.60455">
        <ele>683.15</ele>
        <time>2015-11-22T11:44:13Z</time>
      </trkpt>
      <trkpt lat="43.91071" lon="3.60467">
        <ele>683.15</ele>
        <time>2015-11-22T11:44:26Z</time>
      </trkpt>
      <trkpt lat="43.91071" lon="3.60467">
        <ele>683.63</ele>
        <time>2015-11-22T11:44:27Z</time>
      </trkpt>
      <trkpt lat="43.91073" lon="3.60474">
        <ele>683.15</ele>
        <time>2015-11-22T11:44:32Z</time>
      </trkpt>
      <trkpt lat="43.91077" lon="3.6048">
        <ele>682.67</ele>
        <time>2015-11-22T11:44:37Z</time>
      </trkpt>
      <trkpt lat="43.91082" lon="3.60501">
        <ele>683.63</ele>
        <time>2015-11-22T11:44:50Z</time>
      </trkpt>
      <trkpt lat="43.91086" lon="3.60514">
        <ele>683.63</ele>
        <time>2015-11-22T11:44:59Z</time>
      </trkpt>
      <trkpt lat="43.91095" lon="3.60534">
        <ele>684.6</ele>
        <time>2015-11-22T11:45:13Z</time>
      </trkpt>
      <trkpt lat="43.91096" lon="3.60535">
        <ele>684.6</ele>
        <time>2015-11-22T11:45:14Z</time>
      </trkpt>
      <trkpt lat="43.91106" lon="3.60554">
        <ele>685.56</ele>
        <time>2015-11-22T11:45:29Z</time>
      </trkpt>
      <trkpt lat="43.91109" lon="3.60559">
        <ele>686.04</ele>
        <time>2015-11-22T11:45:34Z</time>
      </trkpt>
      <trkpt lat="43.91121" lon="3.60576">
        <ele>687</ele>
        <time>2015-11-22T11:45:49Z</time>
      </trkpt>
      <trkpt lat="43.91121" lon="3.60577">
        <ele>687.48</ele>
        <time>2015-11-22T11:45:50Z</time>
      </trkpt>
      <trkpt lat="43.91124" lon="3.60581">
        <ele>687.96</ele>
        <time>2015-11-22T11:45:54Z</time>
      </trkpt>
      <trkpt lat="43.9113" lon="3.60587">
        <ele>688.92</ele>
        <time>2015-11-22T11:46:03Z</time>
      </trkpt>
      <trkpt lat="43.91133" lon="3.60589">
        <ele>689.4</ele>
        <time>2015-11-22T11:46:07Z</time>
      </trkpt>
      <trkpt lat="43.91135" lon="3.60592">
        <ele>689.88</ele>
        <time>2015-11-22T11:46:10Z</time>
      </trkpt>
      <trkpt lat="43.91138" lon="3.60595">
        <ele>689.88</ele>
        <time>2015-11-22T11:46:14Z</time>
      </trkpt>
      <trkpt lat="43.9114" lon="3.60598">
        <ele>690.36</ele>
        <time>2015-11-22T11:46:17Z</time>
      </trkpt>
      <trkpt lat="43.91148" lon="3.60607">
        <ele>692.77</ele>
        <time>2015-11-22T11:46:28Z</time>
      </trkpt>
      <trkpt lat="43.91153" lon="3.60616">
        <ele>693.73</ele>
        <time>2015-11-22T11:46:35Z</time>
      </trkpt>
      <trkpt lat="43.91154" lon="3.6062">
        <ele>693.73</ele>
        <time>2015-11-22T11:46:38Z</time>
      </trkpt>
      <trkpt lat="43.9116" lon="3.60633">
        <ele>695.65</ele>
        <time>2015-11-22T11:46:50Z</time>
      </trkpt>
      <trkpt lat="43.91166" lon="3.6064">
        <ele>696.61</ele>
        <time>2015-11-22T11:46:58Z</time>
      </trkpt>
      <trkpt lat="43.91173" lon="3.60647">
        <ele>698.53</ele>
        <time>2015-11-22T11:47:08Z</time>
      </trkpt>
      <trkpt lat="43.91175" lon="3.60649">
        <ele>699.02</ele>
        <time>2015-11-22T11:47:10Z</time>
      </trkpt>
      <trkpt lat="43.91177" lon="3.60654">
        <ele>699.5</ele>
        <time>2015-11-22T11:47:14Z</time>
      </trkpt>
      <trkpt lat="43.91178" lon="3.60657">
        <ele>699.98</ele>
        <time>2015-11-22T11:47:17Z</time>
      </trkpt>
      <trkpt lat="43.9118" lon="3.60664">
        <ele>700.94</ele>
        <time>2015-11-22T11:47:23Z</time>
      </trkpt>
      <trkpt lat="43.91182" lon="3.6067">
        <ele>701.9</ele>
        <time>2015-11-22T11:47:27Z</time>
      </trkpt>
      <trkpt lat="43.91182" lon="3.60687">
        <ele>704.78</ele>
        <time>2015-11-22T11:47:41Z</time>
      </trkpt>
      <trkpt lat="43.91183" lon="3.60696">
        <ele>706.23</ele>
        <time>2015-11-22T11:47:48Z</time>
      </trkpt>
      <trkpt lat="43.91185" lon="3.60699">
        <ele>706.71</ele>
        <time>2015-11-22T11:47:51Z</time>
      </trkpt>
      <trkpt lat="43.9119" lon="3.60711">
        <ele>708.15</ele>
        <time>2015-11-22T11:48:01Z</time>
      </trkpt>
      <trkpt lat="43.91192" lon="3.60716">
        <ele>709.59</ele>
        <time>2015-11-22T11:48:06Z</time>
      </trkpt>
      <trkpt lat="43.91194" lon="3.60721">
        <ele>709.59</ele>
        <time>2015-11-22T11:48:10Z</time>
      </trkpt>
      <trkpt lat="43.91197" lon="3.60727">
        <ele>710.55</ele>
        <time>2015-11-22T11:48:16Z</time>
      </trkpt>
      <trkpt lat="43.912" lon="3.60732">
        <ele>711.03</ele>
        <time>2015-11-22T11:48:21Z</time>
      </trkpt>
      <trkpt lat="43.91204" lon="3.60736">
        <ele>711.03</ele>
        <time>2015-11-22T11:48:35Z</time>
      </trkpt>
      <trkpt lat="43.91201" lon="3.60739">
        <ele>711.51</ele>
        <time>2015-11-22T11:48:49Z</time>
      </trkpt>
      <trkpt lat="43.91202" lon="3.60739">
        <ele>711.03</ele>
        <time>2015-11-22T11:49:16Z</time>
      </trkpt>
      <trkpt lat="43.91202" lon="3.60731">
        <ele>710.55</ele>
        <time>2015-11-22T11:49:28Z</time>
      </trkpt>
      <trkpt lat="43.91203" lon="3.6073">
        <ele>710.55</ele>
        <time>2015-11-22T11:49:37Z</time>
      </trkpt>
      <trkpt lat="43.91202" lon="3.6074">
        <ele>711.51</ele>
        <time>2015-11-22T11:49:48Z</time>
      </trkpt>
      <trkpt lat="43.912" lon="3.60752">
        <ele>711.51</ele>
        <time>2015-11-22T11:50:04Z</time>
      </trkpt>
      <trkpt lat="43.912" lon="3.60754">
        <ele>711.51</ele>
        <time>2015-11-22T11:50:07Z</time>
      </trkpt>
      <trkpt lat="43.91196" lon="3.60759">
        <ele>710.55</ele>
        <time>2015-11-22T11:50:12Z</time>
      </trkpt>
      <trkpt lat="43.91192" lon="3.60763">
        <ele>709.59</ele>
        <time>2015-11-22T11:50:18Z</time>
      </trkpt>
      <trkpt lat="43.91178" lon="3.60773">
        <ele>708.63</ele>
        <time>2015-11-22T11:50:32Z</time>
      </trkpt>
      <trkpt lat="43.91173" lon="3.60786">
        <ele>708.63</ele>
        <time>2015-11-22T11:50:45Z</time>
      </trkpt>
      <trkpt lat="43.91173" lon="3.60789">
        <ele>708.63</ele>
        <time>2015-11-22T11:50:48Z</time>
      </trkpt>
      <trkpt lat="43.91171" lon="3.60794">
        <ele>708.63</ele>
        <time>2015-11-22T11:50:53Z</time>
      </trkpt>
      <trkpt lat="43.91168" lon="3.60798">
        <ele>708.63</ele>
        <time>2015-11-22T11:50:57Z</time>
      </trkpt>
      <trkpt lat="43.91163" lon="3.60802">
        <ele>707.67</ele>
        <time>2015-11-22T11:51:10Z</time>
      </trkpt>
      <trkpt lat="43.91162" lon="3.60801">
        <ele>707.67</ele>
        <time>2015-11-22T11:51:15Z</time>
      </trkpt>
      <trkpt lat="43.91159" lon="3.60802">
        <ele>707.67</ele>
        <time>2015-11-22T11:51:18Z</time>
      </trkpt>
      <trkpt lat="43.91155" lon="3.60798">
        <ele>706.71</ele>
        <time>2015-11-22T11:51:28Z</time>
      </trkpt>
      <trkpt lat="43.91157" lon="3.60794">
        <ele>706.71</ele>
        <time>2015-11-22T11:51:33Z</time>
      </trkpt>
      <trkpt lat="43.91159" lon="3.60792">
        <ele>706.23</ele>
        <time>2015-11-22T11:51:45Z</time>
      </trkpt>
      <trkpt lat="43.9116" lon="3.60792">
        <ele>705.75</ele>
        <time>2015-11-22T11:52:03Z</time>
      </trkpt>
      <trkpt lat="43.91159" lon="3.60792">
        <ele>705.26</ele>
        <time>2015-11-22T11:52:24Z</time>
      </trkpt>
      <trkpt lat="43.91159" lon="3.60791">
        <ele>705.26</ele>
        <time>2015-11-22T11:52:58Z</time>
      </trkpt>
      <trkpt lat="43.91159" lon="3.60792">
        <ele>705.26</ele>
        <time>2015-11-22T11:53:30Z</time>
      </trkpt>
      <trkpt lat="43.91157" lon="3.60794">
        <ele>706.71</ele>
        <time>2015-11-22T11:53:53Z</time>
      </trkpt>
      <trkpt lat="43.91157" lon="3.60795">
        <ele>706.23</ele>
        <time>2015-11-22T11:53:54Z</time>
      </trkpt>
      <trkpt lat="43.91153" lon="3.60798">
        <ele>706.23</ele>
        <time>2015-11-22T11:53:59Z</time>
      </trkpt>
      <trkpt lat="43.9115" lon="3.60795">
        <ele>705.26</ele>
        <time>2015-11-22T11:54:14Z</time>
      </trkpt>
      <trkpt lat="43.9115" lon="3.60794">
        <ele>705.75</ele>
        <time>2015-11-22T11:54:15Z</time>
      </trkpt>
      <trkpt lat="43.9115" lon="3.60791">
        <ele>705.26</ele>
        <time>2015-11-22T11:54:17Z</time>
      </trkpt>
      <trkpt lat="43.9115" lon="3.60775">
        <ele>703.34</ele>
        <time>2015-11-22T11:54:29Z</time>
      </trkpt>
      <trkpt lat="43.91152" lon="3.60765">
        <ele>703.82</ele>
        <time>2015-11-22T11:54:42Z</time>
      </trkpt>
      <trkpt lat="43.91151" lon="3.60765">
        <ele>702.38</ele>
        <time>2015-11-22T11:54:54Z</time>
      </trkpt>
      <trkpt lat="43.91152" lon="3.60764">
        <ele>702.38</ele>
        <time>2015-11-22T11:55:17Z</time>
      </trkpt>
      <trkpt lat="43.91152" lon="3.60764">
        <ele>702.38</ele>
        <time>2015-11-22T11:55:48Z</time>
      </trkpt>
      <trkpt lat="43.91152" lon="3.60764">
        <ele>702.38</ele>
        <time>2015-11-22T11:56:18Z</time>
      </trkpt>
      <trkpt lat="43.91152" lon="3.60765">
        <ele>702.38</ele>
        <time>2015-11-22T11:56:32Z</time>
      </trkpt>
      <trkpt lat="43.91152" lon="3.60765">
        <ele>702.38</ele>
        <time>2015-11-22T11:57:06Z</time>
      </trkpt>
      <trkpt lat="43.91152" lon="3.60765">
        <ele>701.9</ele>
        <time>2015-11-22T11:57:39Z</time>
      </trkpt>
      <trkpt lat="43.91152" lon="3.60765">
        <ele>701.9</ele>
        <time>2015-11-22T11:58:09Z</time>
      </trkpt>
      <trkpt lat="43.91152" lon="3.60764">
        <ele>701.9</ele>
        <time>2015-11-22T11:58:38Z</time>
      </trkpt>
      <trkpt lat="43.91152" lon="3.60765">
        <ele>701.42</ele>
        <time>2015-11-22T11:59:14Z</time>
      </trkpt>
      <trkpt lat="43.91152" lon="3.60765">
        <ele>701.42</ele>
        <time>2015-11-22T11:59:46Z</time>
      </trkpt>
      <trkpt lat="43.91152" lon="3.60765">
        <ele>700.94</ele>
        <time>2015-11-22T12:00:19Z</time>
      </trkpt>
      <trkpt lat="43.91152" lon="3.60764">
        <ele>701.42</ele>
        <time>2015-11-22T12:00:51Z</time>
      </trkpt>
      <trkpt lat="43.91152" lon="3.60764">
        <ele>701.42</ele>
        <time>2015-11-22T12:01:17Z</time>
      </trkpt>
      <trkpt lat="43.91152" lon="3.60764">
        <ele>700.94</ele>
        <time>2015-11-22T12:01:45Z</time>
      </trkpt>
      <trkpt lat="43.91152" lon="3.60764">
        <ele>700.94</ele>
        <time>2015-11-22T12:02:14Z</time>
      </trkpt>
      <trkpt lat="43.91152" lon="3.60764">
        <ele>700.94</ele>
        <time>2015-11-22T12:02:41Z</time>
      </trkpt>
      <trkpt lat="43.91152" lon="3.60763">
        <ele>700.94</ele>
        <time>2015-11-22T12:03:17Z</time>
      </trkpt>
      <trkpt lat="43.91152" lon="3.60763">
        <ele>700.94</ele>
        <time>2015-11-22T12:03:40Z</time>
      </trkpt>
      <trkpt lat="43.91152" lon="3.60764">
        <ele>700.94</ele>
        <time>2015-11-22T12:04:12Z</time>
      </trkpt>
      <trkpt lat="43.91152" lon="3.60764">
        <ele>700.94</ele>
        <time>2015-11-22T12:04:43Z</time>
      </trkpt>
      <trkpt lat="43.91152" lon="3.60764">
        <ele>700.46</ele>
        <time>2015-11-22T12:05:11Z</time>
      </trkpt>
      <trkpt lat="43.91152" lon="3.60765">
        <ele>700.46</ele>
        <time>2015-11-22T12:05:48Z</time>
      </trkpt>
      <trkpt lat="43.91152" lon="3.60765">
        <ele>700.46</ele>
        <time>2015-11-22T12:06:19Z</time>
      </trkpt>
      <trkpt lat="43.91152" lon="3.60764">
        <ele>700.46</ele>
        <time>2015-11-22T12:06:53Z</time>
      </trkpt>
      <trkpt lat="43.91153" lon="3.60764">
        <ele>700.46</ele>
        <time>2015-11-22T12:07:29Z</time>
      </trkpt>
      <trkpt lat="43.91153" lon="3.60764">
        <ele>700.46</ele>
        <time>2015-11-22T12:08:04Z</time>
      </trkpt>
      <trkpt lat="43.91153" lon="3.60764">
        <ele>700.46</ele>
        <time>2015-11-22T12:08:38Z</time>
      </trkpt>
      <trkpt lat="43.91152" lon="3.60765">
        <ele>700.94</ele>
        <time>2015-11-22T12:09:14Z</time>
      </trkpt>
      <trkpt lat="43.91152" lon="3.60765">
        <ele>700.46</ele>
        <time>2015-11-22T12:09:50Z</time>
      </trkpt>
      <trkpt lat="43.91152" lon="3.60765">
        <ele>700.46</ele>
        <time>2015-11-22T12:10:18Z</time>
      </trkpt>
      <trkpt lat="43.91152" lon="3.60765">
        <ele>700.46</ele>
        <time>2015-11-22T12:10:50Z</time>
      </trkpt>
      <trkpt lat="43.91152" lon="3.60765">
        <ele>700.46</ele>
        <time>2015-11-22T12:11:22Z</time>
      </trkpt>
      <trkpt lat="43.91152" lon="3.60765">
        <ele>700.46</ele>
        <time>2015-11-22T12:12:00Z</time>
      </trkpt>
      <trkpt lat="43.91152" lon="3.60765">
        <ele>700.46</ele>
        <time>2015-11-22T12:12:35Z</time>
      </trkpt>
      <trkpt lat="43.91152" lon="3.60764">
        <ele>700.46</ele>
        <time>2015-11-22T12:13:13Z</time>
      </trkpt>
      <trkpt lat="43.91152" lon="3.60765">
        <ele>699.98</ele>
        <time>2015-11-22T12:13:46Z</time>
      </trkpt>
      <trkpt lat="43.91152" lon="3.60764">
        <ele>700.46</ele>
        <time>2015-11-22T12:14:25Z</time>
      </trkpt>
      <trkpt lat="43.91152" lon="3.60765">
        <ele>700.46</ele>
        <time>2015-11-22T12:15:01Z</time>
      </trkpt>
      <trkpt lat="43.91152" lon="3.60765">
        <ele>700.94</ele>
        <time>2015-11-22T12:15:41Z</time>
      </trkpt>
      <trkpt lat="43.91152" lon="3.60765">
        <ele>700.46</ele>
        <time>2015-11-22T12:16:16Z</time>
      </trkpt>
      <trkpt lat="43.91152" lon="3.60765">
        <ele>700.94</ele>
        <time>2015-11-22T12:16:56Z</time>
      </trkpt>
      <trkpt lat="43.91152" lon="3.60765">
        <ele>700.94</ele>
        <time>2015-11-22T12:17:33Z</time>
      </trkpt>
      <trkpt lat="43.91152" lon="3.60765">
        <ele>701.42</ele>
        <time>2015-11-22T12:18:08Z</time>
      </trkpt>
      <trkpt lat="43.91152" lon="3.60765">
        <ele>700.94</ele>
        <time>2015-11-22T12:18:36Z</time>
      </trkpt>
      <trkpt lat="43.91152" lon="3.60765">
        <ele>701.42</ele>
        <time>2015-11-22T12:19:07Z</time>
      </trkpt>
      <trkpt lat="43.91152" lon="3.60764">
        <ele>701.9</ele>
        <time>2015-11-22T12:19:42Z</time>
      </trkpt>
      <trkpt lat="43.91152" lon="3.60765">
        <ele>701.9</ele>
        <time>2015-11-22T12:20:08Z</time>
      </trkpt>
      <trkpt lat="43.91152" lon="3.60764">
        <ele>701.9</ele>
        <time>2015-11-22T12:20:39Z</time>
      </trkpt>
      <trkpt lat="43.91152" lon="3.60764">
        <ele>702.38</ele>
        <time>2015-11-22T12:21:16Z</time>
      </trkpt>
      <trkpt lat="43.91152" lon="3.60765">
        <ele>701.9</ele>
        <time>2015-11-22T12:21:54Z</time>
      </trkpt>
      <trkpt lat="43.91152" lon="3.60765">
        <ele>701.9</ele>
        <time>2015-11-22T12:22:28Z</time>
      </trkpt>
      <trkpt lat="43.91152" lon="3.60764">
        <ele>701.9</ele>
        <time>2015-11-22T12:23:00Z</time>
      </trkpt>
      <trkpt lat="43.91152" lon="3.60765">
        <ele>701.9</ele>
        <time>2015-11-22T12:23:32Z</time>
      </trkpt>
      <trkpt lat="43.91152" lon="3.60765">
        <ele>702.38</ele>
        <time>2015-11-22T12:24:02Z</time>
      </trkpt>
      <trkpt lat="43.91152" lon="3.60765">
        <ele>701.9</ele>
        <time>2015-11-22T12:24:36Z</time>
      </trkpt>
      <trkpt lat="43.91152" lon="3.60766">
        <ele>702.38</ele>
        <time>2015-11-22T12:25:11Z</time>
      </trkpt>
      <trkpt lat="43.91152" lon="3.60765">
        <ele>702.86</ele>
        <time>2015-11-22T12:25:44Z</time>
      </trkpt>
      <trkpt lat="43.91152" lon="3.60765">
        <ele>702.38</ele>
        <time>2015-11-22T12:26:11Z</time>
      </trkpt>
      <trkpt lat="43.91152" lon="3.60765">
        <ele>701.9</ele>
        <time>2015-11-22T12:26:43Z</time>
      </trkpt>
      <trkpt lat="43.91153" lon="3.60765">
        <ele>701.9</ele>
        <time>2015-11-22T12:27:12Z</time>
      </trkpt>
      <trkpt lat="43.91153" lon="3.60765">
        <ele>701.9</ele>
        <time>2015-11-22T12:27:46Z</time>
      </trkpt>
      <trkpt lat="43.91153" lon="3.60764">
        <ele>701.9</ele>
        <time>2015-11-22T12:28:17Z</time>
      </trkpt>
      <trkpt lat="43.91153" lon="3.60764">
        <ele>701.42</ele>
        <time>2015-11-22T12:28:51Z</time>
      </trkpt>
      <trkpt lat="43.91153" lon="3.60764">
        <ele>701.9</ele>
        <time>2015-11-22T12:29:26Z</time>
      </trkpt>
      <trkpt lat="43.91153" lon="3.60764">
        <ele>700.46</ele>
        <time>2015-11-22T12:29:53Z</time>
      </trkpt>
      <trkpt lat="43.91153" lon="3.60764">
        <ele>700.46</ele>
        <time>2015-11-22T12:30:22Z</time>
      </trkpt>
      <trkpt lat="43.91152" lon="3.60764">
        <ele>700.46</ele>
        <time>2015-11-22T12:30:47Z</time>
      </trkpt>
      <trkpt lat="43.91152" lon="3.60763">
        <ele>700.94</ele>
        <time>2015-11-22T12:31:14Z</time>
      </trkpt>
      <trkpt lat="43.91152" lon="3.60763">
        <ele>700.46</ele>
        <time>2015-11-22T12:31:33Z</time>
      </trkpt>
      <trkpt lat="43.91152" lon="3.60763">
        <ele>700.94</ele>
        <time>2015-11-22T12:32:03Z</time>
      </trkpt>
      <trkpt lat="43.91152" lon="3.60763">
        <ele>700.94</ele>
        <time>2015-11-22T12:32:41Z</time>
      </trkpt>
      <trkpt lat="43.91152" lon="3.60764">
        <ele>700.94</ele>
        <time>2015-11-22T12:33:20Z</time>
      </trkpt>
      <trkpt lat="43.91152" lon="3.60764">
        <ele>701.42</ele>
        <time>2015-11-22T12:34:01Z</time>
      </trkpt>
      <trkpt lat="43.91152" lon="3.60764">
        <ele>701.42</ele>
        <time>2015-11-22T12:34:41Z</time>
      </trkpt>
      <trkpt lat="43.91152" lon="3.60764">
        <ele>701.42</ele>
        <time>2015-11-22T12:35:16Z</time>
      </trkpt>
      <trkpt lat="43.91152" lon="3.60764">
        <ele>700.46</ele>
        <time>2015-11-22T12:35:50Z</time>
      </trkpt>
      <trkpt lat="43.91152" lon="3.60764">
        <ele>702.86</ele>
        <time>2015-11-22T12:36:26Z</time>
      </trkpt>
      <trkpt lat="43.91152" lon="3.60763">
        <ele>701.9</ele>
        <time>2015-11-22T12:36:43Z</time>
      </trkpt>
      <trkpt lat="43.91152" lon="3.60763">
        <ele>701.9</ele>
        <time>2015-11-22T12:36:57Z</time>
      </trkpt>
      <trkpt lat="43.91152" lon="3.60762">
        <ele>701.9</ele>
        <time>2015-11-22T12:37:18Z</time>
      </trkpt>
      <trkpt lat="43.91151" lon="3.60764">
        <ele>701.9</ele>
        <time>2015-11-22T12:37:31Z</time>
      </trkpt>
      <trkpt lat="43.91151" lon="3.60764">
        <ele>701.42</ele>
        <time>2015-11-22T12:37:59Z</time>
      </trkpt>
      <trkpt lat="43.91151" lon="3.60764">
        <ele>701.9</ele>
        <time>2015-11-22T12:38:11Z</time>
      </trkpt>
      <trkpt lat="43.91151" lon="3.60767">
        <ele>702.38</ele>
        <time>2015-11-22T12:38:14Z</time>
      </trkpt>
      <trkpt lat="43.91149" lon="3.60775">
        <ele>702.38</ele>
        <time>2015-11-22T12:38:27Z</time>
      </trkpt>
      <trkpt lat="43.91152" lon="3.60785">
        <ele>702.86</ele>
        <time>2015-11-22T12:38:39Z</time>
      </trkpt>
      <trkpt lat="43.91152" lon="3.60792">
        <ele>703.34</ele>
        <time>2015-11-22T12:38:50Z</time>
      </trkpt>
      <trkpt lat="43.91154" lon="3.60793">
        <ele>703.34</ele>
        <time>2015-11-22T12:38:52Z</time>
      </trkpt>
      <trkpt lat="43.91156" lon="3.60796">
        <ele>703.82</ele>
        <time>2015-11-22T12:38:55Z</time>
      </trkpt>
      <trkpt lat="43.91157" lon="3.60804">
        <ele>703.82</ele>
        <time>2015-11-22T12:39:04Z</time>
      </trkpt>
      <trkpt lat="43.91152" lon="3.60815">
        <ele>703.34</ele>
        <time>2015-11-22T12:39:12Z</time>
      </trkpt>
      <trkpt lat="43.91146" lon="3.60824">
        <ele>703.82</ele>
        <time>2015-11-22T12:39:21Z</time>
      </trkpt>
      <trkpt lat="43.91148" lon="3.60834">
        <ele>704.3</ele>
        <time>2015-11-22T12:39:35Z</time>
      </trkpt>
      <trkpt lat="43.91148" lon="3.60836">
        <ele>705.26</ele>
        <time>2015-11-22T12:39:48Z</time>
      </trkpt>
      <trkpt lat="43.91144" lon="3.60842">
        <ele>704.78</ele>
        <time>2015-11-22T12:40:00Z</time>
      </trkpt>
      <trkpt lat="43.91145" lon="3.60846">
        <ele>704.78</ele>
        <time>2015-11-22T12:40:10Z</time>
      </trkpt>
      <trkpt lat="43.91145" lon="3.6085">
        <ele>704.78</ele>
        <time>2015-11-22T12:40:15Z</time>
      </trkpt>
      <trkpt lat="43.91148" lon="3.6085">
        <ele>704.78</ele>
        <time>2015-11-22T12:40:19Z</time>
      </trkpt>
      <trkpt lat="43.91145" lon="3.60854">
        <ele>704.3</ele>
        <time>2015-11-22T12:40:24Z</time>
      </trkpt>
      <trkpt lat="43.91142" lon="3.60873">
        <ele>702.86</ele>
        <time>2015-11-22T12:40:39Z</time>
      </trkpt>
      <trkpt lat="43.91141" lon="3.60893">
        <ele>701.42</ele>
        <time>2015-11-22T12:40:54Z</time>
      </trkpt>
      <trkpt lat="43.91141" lon="3.60894">
        <ele>700.94</ele>
        <time>2015-11-22T12:40:55Z</time>
      </trkpt>
      <trkpt lat="43.91148" lon="3.60903">
        <ele>699.98</ele>
        <time>2015-11-22T12:41:04Z</time>
      </trkpt>
      <trkpt lat="43.91161" lon="3.60915">
        <ele>698.53</ele>
        <time>2015-11-22T12:41:18Z</time>
      </trkpt>
      <trkpt lat="43.91166" lon="3.60918">
        <ele>698.05</ele>
        <time>2015-11-22T12:41:23Z</time>
      </trkpt>
      <trkpt lat="43.91175" lon="3.60924">
        <ele>697.57</ele>
        <time>2015-11-22T12:41:32Z</time>
      </trkpt>
      <trkpt lat="43.91181" lon="3.60923">
        <ele>697.57</ele>
        <time>2015-11-22T12:41:38Z</time>
      </trkpt>
      <trkpt lat="43.91183" lon="3.60923">
        <ele>697.57</ele>
        <time>2015-11-22T12:41:40Z</time>
      </trkpt>
      <trkpt lat="43.91193" lon="3.60917">
        <ele>697.57</ele>
        <time>2015-11-22T12:41:49Z</time>
      </trkpt>
      <trkpt lat="43.91197" lon="3.60918">
        <ele>697.09</ele>
        <time>2015-11-22T12:41:53Z</time>
      </trkpt>
      <trkpt lat="43.9121" lon="3.6091">
        <ele>695.17</ele>
        <time>2015-11-22T12:42:04Z</time>
      </trkpt>
      <trkpt lat="43.91218" lon="3.609">
        <ele>692.29</ele>
        <time>2015-11-22T12:42:13Z</time>
      </trkpt>
      <trkpt lat="43.91219" lon="3.60899">
        <ele>692.77</ele>
        <time>2015-11-22T12:42:14Z</time>
      </trkpt>
      <trkpt lat="43.91228" lon="3.60892">
        <ele>692.29</ele>
        <time>2015-11-22T12:42:22Z</time>
      </trkpt>
      <trkpt lat="43.9123" lon="3.60891">
        <ele>691.81</ele>
        <time>2015-11-22T12:42:24Z</time>
      </trkpt>
      <trkpt lat="43.9124" lon="3.60889">
        <ele>690.84</ele>
        <time>2015-11-22T12:42:36Z</time>
      </trkpt>
      <trkpt lat="43.91248" lon="3.60891">
        <ele>689.4</ele>
        <time>2015-11-22T12:42:46Z</time>
      </trkpt>
      <trkpt lat="43.91258" lon="3.60893">
        <ele>686.52</ele>
        <time>2015-11-22T12:42:58Z</time>
      </trkpt>
      <trkpt lat="43.91264" lon="3.60898">
        <ele>683.63</ele>
        <time>2015-11-22T12:43:07Z</time>
      </trkpt>
      <trkpt lat="43.91267" lon="3.60905">
        <ele>680.27</ele>
        <time>2015-11-22T12:43:17Z</time>
      </trkpt>
      <trkpt lat="43.91272" lon="3.60911">
        <ele>677.87</ele>
        <time>2015-11-22T12:43:29Z</time>
      </trkpt>
      <trkpt lat="43.91281" lon="3.60919">
        <ele>674.98</ele>
        <time>2015-11-22T12:43:41Z</time>
      </trkpt>
      <trkpt lat="43.91291" lon="3.60918">
        <ele>672.1</ele>
        <time>2015-11-22T12:43:54Z</time>
      </trkpt>
      <trkpt lat="43.913" lon="3.6092">
        <ele>668.73</ele>
        <time>2015-11-22T12:44:05Z</time>
      </trkpt>
      <trkpt lat="43.91309" lon="3.60923">
        <ele>665.85</ele>
        <time>2015-11-22T12:44:19Z</time>
      </trkpt>
      <trkpt lat="43.91317" lon="3.60923">
        <ele>662.97</ele>
        <time>2015-11-22T12:44:27Z</time>
      </trkpt>
      <trkpt lat="43.91328" lon="3.60924">
        <ele>661.52</ele>
        <time>2015-11-22T12:44:39Z</time>
      </trkpt>
      <trkpt lat="43.91337" lon="3.60927">
        <ele>658.16</ele>
        <time>2015-11-22T12:44:48Z</time>
      </trkpt>
      <trkpt lat="43.91347" lon="3.6093">
        <ele>654.8</ele>
        <time>2015-11-22T12:45:02Z</time>
      </trkpt>
      <trkpt lat="43.91352" lon="3.60935">
        <ele>652.39</ele>
        <time>2015-11-22T12:45:11Z</time>
      </trkpt>
      <trkpt lat="43.91349" lon="3.60944">
        <ele>650.47</ele>
        <time>2015-11-22T12:45:23Z</time>
      </trkpt>
      <trkpt lat="43.91356" lon="3.60944">
        <ele>647.1</ele>
        <time>2015-11-22T12:45:38Z</time>
      </trkpt>
      <trkpt lat="43.91364" lon="3.60946">
        <ele>643.74</ele>
        <time>2015-11-22T12:45:51Z</time>
      </trkpt>
      <trkpt lat="43.91373" lon="3.60946">
        <ele>640.38</ele>
        <time>2015-11-22T12:46:03Z</time>
      </trkpt>
      <trkpt lat="43.91377" lon="3.6095">
        <ele>638.45</ele>
        <time>2015-11-22T12:46:10Z</time>
      </trkpt>
      <trkpt lat="43.91381" lon="3.60957">
        <ele>635.09</ele>
        <time>2015-11-22T12:46:20Z</time>
      </trkpt>
      <trkpt lat="43.91382" lon="3.60958">
        <ele>634.13</ele>
        <time>2015-11-22T12:46:22Z</time>
      </trkpt>
      <trkpt lat="43.91387" lon="3.60962">
        <ele>631.72</ele>
        <time>2015-11-22T12:46:35Z</time>
      </trkpt>
      <trkpt lat="43.91394" lon="3.60968">
        <ele>629.8</ele>
        <time>2015-11-22T12:46:45Z</time>
      </trkpt>
      <trkpt lat="43.91401" lon="3.6097">
        <ele>626.44</ele>
        <time>2015-11-22T12:46:57Z</time>
      </trkpt>
      <trkpt lat="43.91407" lon="3.60972">
        <ele>624.03</ele>
        <time>2015-11-22T12:47:08Z</time>
      </trkpt>
      <trkpt lat="43.91407" lon="3.60972">
        <ele>623.55</ele>
        <time>2015-11-22T12:47:12Z</time>
      </trkpt>
      <trkpt lat="43.9141" lon="3.60973">
        <ele>623.07</ele>
        <time>2015-11-22T12:47:26Z</time>
      </trkpt>
      <trkpt lat="43.91412" lon="3.60973">
        <ele>621.63</ele>
        <time>2015-11-22T12:47:31Z</time>
      </trkpt>
      <trkpt lat="43.91416" lon="3.60978">
        <ele>618.26</ele>
        <time>2015-11-22T12:47:42Z</time>
      </trkpt>
      <trkpt lat="43.91416" lon="3.60985">
        <ele>617.3</ele>
        <time>2015-11-22T12:47:58Z</time>
      </trkpt>
      <trkpt lat="43.91415" lon="3.60986">
        <ele>616.82</ele>
        <time>2015-11-22T12:48:14Z</time>
      </trkpt>
      <trkpt lat="43.91414" lon="3.60992">
        <ele>614.42</ele>
        <time>2015-11-22T12:48:24Z</time>
      </trkpt>
      <trkpt lat="43.9141" lon="3.60999">
        <ele>611.54</ele>
        <time>2015-11-22T12:48:36Z</time>
      </trkpt>
      <trkpt lat="43.9141" lon="3.61004">
        <ele>610.57</ele>
        <time>2015-11-22T12:48:48Z</time>
      </trkpt>
      <trkpt lat="43.91409" lon="3.61004">
        <ele>610.09</ele>
        <time>2015-11-22T12:49:10Z</time>
      </trkpt>
      <trkpt lat="43.91407" lon="3.61002">
        <ele>611.06</ele>
        <time>2015-11-22T12:49:27Z</time>
      </trkpt>
      <trkpt lat="43.91408" lon="3.61001">
        <ele>611.06</ele>
        <time>2015-11-22T12:49:56Z</time>
      </trkpt>
      <trkpt lat="43.91408" lon="3.61001">
        <ele>610.57</ele>
        <time>2015-11-22T12:50:22Z</time>
      </trkpt>
      <trkpt lat="43.91408" lon="3.61001">
        <ele>610.57</ele>
        <time>2015-11-22T12:50:46Z</time>
      </trkpt>
      <trkpt lat="43.91405" lon="3.61003">
        <ele>609.61</ele>
        <time>2015-11-22T12:51:08Z</time>
      </trkpt>
      <trkpt lat="43.91401" lon="3.61006">
        <ele>609.13</ele>
        <time>2015-11-22T12:51:27Z</time>
      </trkpt>
      <trkpt lat="43.91396" lon="3.61016">
        <ele>606.25</ele>
        <time>2015-11-22T12:51:40Z</time>
      </trkpt>
      <trkpt lat="43.91388" lon="3.61024">
        <ele>604.33</ele>
        <time>2015-11-22T12:51:51Z</time>
      </trkpt>
      <trkpt lat="43.91381" lon="3.61035">
        <ele>602.4</ele>
        <time>2015-11-22T12:52:03Z</time>
      </trkpt>
      <trkpt lat="43.91378" lon="3.61039">
        <ele>598.56</ele>
        <time>2015-11-22T12:52:13Z</time>
      </trkpt>
      <trkpt lat="43.91371" lon="3.61047">
        <ele>595.67</ele>
        <time>2015-11-22T12:52:22Z</time>
      </trkpt>
      <trkpt lat="43.91368" lon="3.61052">
        <ele>594.71</ele>
        <time>2015-11-22T12:52:25Z</time>
      </trkpt>
      <trkpt lat="43.91356" lon="3.61063">
        <ele>592.31</ele>
        <time>2015-11-22T12:52:39Z</time>
      </trkpt>
      <trkpt lat="43.91345" lon="3.61071">
        <ele>589.91</ele>
        <time>2015-11-22T12:52:53Z</time>
      </trkpt>
      <trkpt lat="43.91337" lon="3.61078">
        <ele>588.46</ele>
        <time>2015-11-22T12:53:06Z</time>
      </trkpt>
      <trkpt lat="43.9133" lon="3.61091">
        <ele>586.54</ele>
        <time>2015-11-22T12:53:19Z</time>
      </trkpt>
      <trkpt lat="43.91326" lon="3.61105">
        <ele>584.14</ele>
        <time>2015-11-22T12:53:33Z</time>
      </trkpt>
      <trkpt lat="43.91319" lon="3.61116">
        <ele>582.22</ele>
        <time>2015-11-22T12:53:46Z</time>
      </trkpt>
      <trkpt lat="43.91313" lon="3.61132">
        <ele>578.85</ele>
        <time>2015-11-22T12:54:00Z</time>
      </trkpt>
      <trkpt lat="43.9131" lon="3.61144">
        <ele>576.45</ele>
        <time>2015-11-22T12:54:13Z</time>
      </trkpt>
      <trkpt lat="43.91306" lon="3.61157">
        <ele>573.56</ele>
        <time>2015-11-22T12:54:28Z</time>
      </trkpt>
      <trkpt lat="43.91305" lon="3.61175">
        <ele>571.64</ele>
        <time>2015-11-22T12:54:41Z</time>
      </trkpt>
      <trkpt lat="43.91301" lon="3.61185">
        <ele>570.68</ele>
        <time>2015-11-22T12:54:57Z</time>
      </trkpt>
      <trkpt lat="43.91296" lon="3.61199">
        <ele>568.76</ele>
        <time>2015-11-22T12:55:10Z</time>
      </trkpt>
      <trkpt lat="43.91291" lon="3.6121">
        <ele>567.32</ele>
        <time>2015-11-22T12:55:22Z</time>
      </trkpt>
      <trkpt lat="43.91284" lon="3.61221">
        <ele>563.95</ele>
        <time>2015-11-22T12:55:33Z</time>
      </trkpt>
      <trkpt lat="43.9128" lon="3.61227">
        <ele>562.51</ele>
        <time>2015-11-22T12:55:39Z</time>
      </trkpt>
      <trkpt lat="43.91272" lon="3.61237">
        <ele>561.07</ele>
        <time>2015-11-22T12:55:49Z</time>
      </trkpt>
      <trkpt lat="43.91261" lon="3.61251">
        <ele>557.7</ele>
        <time>2015-11-22T12:56:00Z</time>
      </trkpt>
      <trkpt lat="43.9126" lon="3.61252">
        <ele>557.22</ele>
        <time>2015-11-22T12:56:01Z</time>
      </trkpt>
      <trkpt lat="43.91253" lon="3.61266">
        <ele>554.82</ele>
        <time>2015-11-22T12:56:14Z</time>
      </trkpt>
      <trkpt lat="43.91244" lon="3.61274">
        <ele>554.82</ele>
        <time>2015-11-22T12:56:25Z</time>
      </trkpt>
      <trkpt lat="43.91243" lon="3.61276">
        <ele>554.82</ele>
        <time>2015-11-22T12:56:26Z</time>
      </trkpt>
      <trkpt lat="43.91227" lon="3.61275">
        <ele>554.34</ele>
        <time>2015-11-22T12:56:40Z</time>
      </trkpt>
      <trkpt lat="43.91213" lon="3.61272">
        <ele>554.34</ele>
        <time>2015-11-22T12:56:53Z</time>
      </trkpt>
      <trkpt lat="43.91212" lon="3.61272">
        <ele>554.34</ele>
        <time>2015-11-22T12:57:13Z</time>
      </trkpt>
      <trkpt lat="43.91206" lon="3.61267">
        <ele>554.34</ele>
        <time>2015-11-22T12:57:20Z</time>
      </trkpt>
      <trkpt lat="43.91202" lon="3.61263">
        <ele>554.34</ele>
        <time>2015-11-22T12:57:24Z</time>
      </trkpt>
      <trkpt lat="43.91199" lon="3.61258">
        <ele>555.3</ele>
        <time>2015-11-22T12:57:36Z</time>
      </trkpt>
      <trkpt lat="43.91195" lon="3.61247">
        <ele>556.74</ele>
        <time>2015-11-22T12:57:46Z</time>
      </trkpt>
      <trkpt lat="43.9119" lon="3.61238">
        <ele>559.14</ele>
        <time>2015-11-22T12:57:58Z</time>
      </trkpt>
      <trkpt lat="43.91184" lon="3.61235">
        <ele>559.14</ele>
        <time>2015-11-22T12:58:08Z</time>
      </trkpt>
      <trkpt lat="43.91182" lon="3.61233">
        <ele>558.66</ele>
        <time>2015-11-22T12:58:11Z</time>
      </trkpt>
      <trkpt lat="43.91177" lon="3.61232">
        <ele>557.7</ele>
        <time>2015-11-22T12:58:16Z</time>
      </trkpt>
      <trkpt lat="43.91166" lon="3.6123">
        <ele>556.26</ele>
        <time>2015-11-22T12:58:26Z</time>
      </trkpt>
      <trkpt lat="43.91154" lon="3.61225">
        <ele>557.22</ele>
        <time>2015-11-22T12:58:38Z</time>
      </trkpt>
      <trkpt lat="43.91152" lon="3.61223">
        <ele>557.22</ele>
        <time>2015-11-22T12:58:40Z</time>
      </trkpt>
      <trkpt lat="43.9114" lon="3.61211">
        <ele>559.14</ele>
        <time>2015-11-22T12:58:55Z</time>
      </trkpt>
      <trkpt lat="43.91139" lon="3.61211">
        <ele>559.62</ele>
        <time>2015-11-22T12:58:56Z</time>
      </trkpt>
      <trkpt lat="43.9113" lon="3.61208">
        <ele>559.62</ele>
        <time>2015-11-22T12:59:11Z</time>
      </trkpt>
      <trkpt lat="43.91125" lon="3.61204">
        <ele>559.62</ele>
        <time>2015-11-22T12:59:18Z</time>
      </trkpt>
      <trkpt lat="43.91121" lon="3.61194">
        <ele>558.66</ele>
        <time>2015-11-22T12:59:25Z</time>
      </trkpt>
      <trkpt lat="43.91114" lon="3.61184">
        <ele>558.18</ele>
        <time>2015-11-22T12:59:34Z</time>
      </trkpt>
      <trkpt lat="43.91112" lon="3.61178">
        <ele>557.7</ele>
        <time>2015-11-22T12:59:38Z</time>
      </trkpt>
      <trkpt lat="43.91109" lon="3.61176">
        <ele>557.7</ele>
        <time>2015-11-22T12:59:42Z</time>
      </trkpt>
      <trkpt lat="43.91106" lon="3.61175">
        <ele>556.74</ele>
        <time>2015-11-22T12:59:45Z</time>
      </trkpt>
      <trkpt lat="43.911" lon="3.61167">
        <ele>557.7</ele>
        <time>2015-11-22T12:59:53Z</time>
      </trkpt>
      <trkpt lat="43.91096" lon="3.61164">
        <ele>557.7</ele>
        <time>2015-11-22T12:59:58Z</time>
      </trkpt>
      <trkpt lat="43.9109" lon="3.61159">
        <ele>556.26</ele>
        <time>2015-11-22T13:00:09Z</time>
      </trkpt>
      <trkpt lat="43.91082" lon="3.61156">
        <ele>555.3</ele>
        <time>2015-11-22T13:00:21Z</time>
      </trkpt>
      <trkpt lat="43.9108" lon="3.61156">
        <ele>554.34</ele>
        <time>2015-11-22T13:00:24Z</time>
      </trkpt>
      <trkpt lat="43.91067" lon="3.61156">
        <ele>553.38</ele>
        <time>2015-11-22T13:00:35Z</time>
      </trkpt>
      <trkpt lat="43.91055" lon="3.61155">
        <ele>554.82</ele>
        <time>2015-11-22T13:00:51Z</time>
      </trkpt>
      <trkpt lat="43.91054" lon="3.61155">
        <ele>554.82</ele>
        <time>2015-11-22T13:00:53Z</time>
      </trkpt>
      <trkpt lat="43.91052" lon="3.61157">
        <ele>553.86</ele>
        <time>2015-11-22T13:00:56Z</time>
      </trkpt>
      <trkpt lat="43.91043" lon="3.61161">
        <ele>553.38</ele>
        <time>2015-11-22T13:01:09Z</time>
      </trkpt>
      <trkpt lat="43.91035" lon="3.61166">
        <ele>552.9</ele>
        <time>2015-11-22T13:01:24Z</time>
      </trkpt>
      <trkpt lat="43.91031" lon="3.61168">
        <ele>552.9</ele>
        <time>2015-11-22T13:01:28Z</time>
      </trkpt>
      <trkpt lat="43.91018" lon="3.61174">
        <ele>552.41</ele>
        <time>2015-11-22T13:01:39Z</time>
      </trkpt>
      <trkpt lat="43.91002" lon="3.61181">
        <ele>551.93</ele>
        <time>2015-11-22T13:01:54Z</time>
      </trkpt>
      <trkpt lat="43.91" lon="3.61182">
        <ele>551.45</ele>
        <time>2015-11-22T13:01:56Z</time>
      </trkpt>
      <trkpt lat="43.90997" lon="3.61183">
        <ele>551.45</ele>
        <time>2015-11-22T13:01:59Z</time>
      </trkpt>
      <trkpt lat="43.90994" lon="3.61184">
        <ele>550.97</ele>
        <time>2015-11-22T13:02:02Z</time>
      </trkpt>
      <trkpt lat="43.90985" lon="3.61189">
        <ele>548.57</ele>
        <time>2015-11-22T13:02:15Z</time>
      </trkpt>
      <trkpt lat="43.90983" lon="3.6119">
        <ele>547.13</ele>
        <time>2015-11-22T13:02:22Z</time>
      </trkpt>
      <trkpt lat="43.90976" lon="3.61195">
        <ele>546.65</ele>
        <time>2015-11-22T13:02:27Z</time>
      </trkpt>
      <trkpt lat="43.90969" lon="3.61198">
        <ele>545.69</ele>
        <time>2015-11-22T13:02:39Z</time>
      </trkpt>
      <trkpt lat="43.90963" lon="3.61203">
        <ele>544.24</ele>
        <time>2015-11-22T13:02:51Z</time>
      </trkpt>
      <trkpt lat="43.90958" lon="3.61207">
        <ele>544.24</ele>
        <time>2015-11-22T13:02:56Z</time>
      </trkpt>
      <trkpt lat="43.90952" lon="3.61211">
        <ele>544.72</ele>
        <time>2015-11-22T13:03:11Z</time>
      </trkpt>
      <trkpt lat="43.90947" lon="3.61216">
        <ele>544.72</ele>
        <time>2015-11-22T13:03:25Z</time>
      </trkpt>
      <trkpt lat="43.90945" lon="3.61219">
        <ele>544.72</ele>
        <time>2015-11-22T13:03:28Z</time>
      </trkpt>
      <trkpt lat="43.90937" lon="3.61227">
        <ele>543.28</ele>
        <time>2015-11-22T13:03:41Z</time>
      </trkpt>
      <trkpt lat="43.90928" lon="3.61236">
        <ele>542.8</ele>
        <time>2015-11-22T13:03:53Z</time>
      </trkpt>
      <trkpt lat="43.90921" lon="3.61242">
        <ele>542.32</ele>
        <time>2015-11-22T13:04:05Z</time>
      </trkpt>
      <trkpt lat="43.90917" lon="3.61246">
        <ele>541.84</ele>
        <time>2015-11-22T13:04:08Z</time>
      </trkpt>
      <trkpt lat="43.90908" lon="3.61257">
        <ele>539.92</ele>
        <time>2015-11-22T13:04:19Z</time>
      </trkpt>
      <trkpt lat="43.90898" lon="3.61268">
        <ele>537.51</ele>
        <time>2015-11-22T13:04:30Z</time>
      </trkpt>
      <trkpt lat="43.90893" lon="3.61276">
        <ele>534.63</ele>
        <time>2015-11-22T13:04:40Z</time>
      </trkpt>
      <trkpt lat="43.90882" lon="3.61285">
        <ele>532.23</ele>
        <time>2015-11-22T13:04:52Z</time>
      </trkpt>
      <trkpt lat="43.90878" lon="3.61288">
        <ele>532.23</ele>
        <time>2015-11-22T13:04:55Z</time>
      </trkpt>
      <trkpt lat="43.90867" lon="3.61295">
        <ele>529.34</ele>
        <time>2015-11-22T13:05:09Z</time>
      </trkpt>
      <trkpt lat="43.90858" lon="3.61304">
        <ele>525.98</ele>
        <time>2015-11-22T13:05:21Z</time>
      </trkpt>
      <trkpt lat="43.90849" lon="3.6131">
        <ele>525.02</ele>
        <time>2015-11-22T13:05:37Z</time>
      </trkpt>
      <trkpt lat="43.90845" lon="3.61313">
        <ele>524.06</ele>
        <time>2015-11-22T13:05:50Z</time>
      </trkpt>
      <trkpt lat="43.90836" lon="3.61321">
        <ele>522.13</ele>
        <time>2015-11-22T13:06:04Z</time>
      </trkpt>
      <trkpt lat="43.90832" lon="3.61323">
        <ele>521.17</ele>
        <time>2015-11-22T13:06:08Z</time>
      </trkpt>
      <trkpt lat="43.9082" lon="3.6133">
        <ele>518.29</ele>
        <time>2015-11-22T13:06:19Z</time>
      </trkpt>
      <trkpt lat="43.90813" lon="3.61326">
        <ele>516.37</ele>
        <time>2015-11-22T13:06:28Z</time>
      </trkpt>
      <trkpt lat="43.90805" lon="3.61333">
        <ele>514.92</ele>
        <time>2015-11-22T13:06:40Z</time>
      </trkpt>
      <trkpt lat="43.90798" lon="3.61347">
        <ele>513.48</ele>
        <time>2015-11-22T13:06:51Z</time>
      </trkpt>
      <trkpt lat="43.90791" lon="3.61354">
        <ele>512.04</ele>
        <time>2015-11-22T13:06:57Z</time>
      </trkpt>
      <trkpt lat="43.90782" lon="3.61362">
        <ele>510.12</ele>
        <time>2015-11-22T13:07:09Z</time>
      </trkpt>
      <trkpt lat="43.90776" lon="3.61365">
        <ele>509.64</ele>
        <time>2015-11-22T13:07:15Z</time>
      </trkpt>
      <trkpt lat="43.90769" lon="3.61371">
        <ele>509.16</ele>
        <time>2015-11-22T13:07:23Z</time>
      </trkpt>
      <trkpt lat="43.90768" lon="3.6138">
        <ele>506.75</ele>
        <time>2015-11-22T13:07:37Z</time>
      </trkpt>
      <trkpt lat="43.90766" lon="3.61385">
        <ele>507.71</ele>
        <time>2015-11-22T13:07:42Z</time>
      </trkpt>
      <trkpt lat="43.90762" lon="3.61394">
        <ele>507.71</ele>
        <time>2015-11-22T13:07:56Z</time>
      </trkpt>
      <trkpt lat="43.90758" lon="3.61405">
        <ele>506.75</ele>
        <time>2015-11-22T13:08:11Z</time>
      </trkpt>
      <trkpt lat="43.90751" lon="3.61417">
        <ele>505.79</ele>
        <time>2015-11-22T13:08:24Z</time>
      </trkpt>
      <trkpt lat="43.90746" lon="3.61429">
        <ele>504.83</ele>
        <time>2015-11-22T13:08:35Z</time>
      </trkpt>
      <trkpt lat="43.90743" lon="3.61442">
        <ele>503.87</ele>
        <time>2015-11-22T13:08:47Z</time>
      </trkpt>
      <trkpt lat="43.90741" lon="3.61451">
        <ele>503.39</ele>
        <time>2015-11-22T13:08:58Z</time>
      </trkpt>
      <trkpt lat="43.90739" lon="3.61462">
        <ele>501.95</ele>
        <time>2015-11-22T13:09:15Z</time>
      </trkpt>
      <trkpt lat="43.90733" lon="3.61482">
        <ele>500.5</ele>
        <time>2015-11-22T13:09:28Z</time>
      </trkpt>
      <trkpt lat="43.90733" lon="3.61495">
        <ele>500.02</ele>
        <time>2015-11-22T13:09:39Z</time>
      </trkpt>
      <trkpt lat="43.9073" lon="3.61506">
        <ele>499.54</ele>
        <time>2015-11-22T13:09:51Z</time>
      </trkpt>
      <trkpt lat="43.90727" lon="3.61524">
        <ele>497.14</ele>
        <time>2015-11-22T13:10:06Z</time>
      </trkpt>
      <trkpt lat="43.90727" lon="3.61541">
        <ele>495.22</ele>
        <time>2015-11-22T13:10:18Z</time>
      </trkpt>
      <trkpt lat="43.90724" lon="3.61551">
        <ele>495.22</ele>
        <time>2015-11-22T13:10:30Z</time>
      </trkpt>
      <trkpt lat="43.90725" lon="3.61558">
        <ele>493.77</ele>
        <time>2015-11-22T13:10:45Z</time>
      </trkpt>
      <trkpt lat="43.9072" lon="3.6157">
        <ele>492.81</ele>
        <time>2015-11-22T13:10:57Z</time>
      </trkpt>
      <trkpt lat="43.90719" lon="3.61573">
        <ele>493.29</ele>
        <time>2015-11-22T13:10:59Z</time>
      </trkpt>
      <trkpt lat="43.90718" lon="3.61577">
        <ele>492.33</ele>
        <time>2015-11-22T13:11:04Z</time>
      </trkpt>
      <trkpt lat="43.90718" lon="3.61592">
        <ele>493.29</ele>
        <time>2015-11-22T13:11:18Z</time>
      </trkpt>
      <trkpt lat="43.90719" lon="3.61607">
        <ele>492.33</ele>
        <time>2015-11-22T13:11:29Z</time>
      </trkpt>
      <trkpt lat="43.9072" lon="3.61619">
        <ele>489.45</ele>
        <time>2015-11-22T13:11:40Z</time>
      </trkpt>
      <trkpt lat="43.9072" lon="3.6162">
        <ele>488.97</ele>
        <time>2015-11-22T13:11:41Z</time>
      </trkpt>
      <trkpt lat="43.90719" lon="3.61633">
        <ele>485.6</ele>
        <time>2015-11-22T13:11:54Z</time>
      </trkpt>
      <trkpt lat="43.90718" lon="3.61643">
        <ele>484.64</ele>
        <time>2015-11-22T13:12:05Z</time>
      </trkpt>
      <trkpt lat="43.90718" lon="3.61646">
        <ele>484.64</ele>
        <time>2015-11-22T13:12:30Z</time>
      </trkpt>
      <trkpt lat="43.90717" lon="3.6165">
        <ele>484.16</ele>
        <time>2015-11-22T13:12:43Z</time>
      </trkpt>
      <trkpt lat="43.90715" lon="3.61655">
        <ele>483.2</ele>
        <time>2015-11-22T13:12:58Z</time>
      </trkpt>
      <trkpt lat="43.90718" lon="3.61656">
        <ele>482.24</ele>
        <time>2015-11-22T13:13:20Z</time>
      </trkpt>
      <trkpt lat="43.90718" lon="3.6167">
        <ele>479.35</ele>
        <time>2015-11-22T13:13:33Z</time>
      </trkpt>
      <trkpt lat="43.90718" lon="3.61673">
        <ele>478.87</ele>
        <time>2015-11-22T13:13:35Z</time>
      </trkpt>
      <trkpt lat="43.90718" lon="3.61692">
        <ele>476.47</ele>
        <time>2015-11-22T13:13:49Z</time>
      </trkpt>
      <trkpt lat="43.90716" lon="3.61704">
        <ele>475.99</ele>
        <time>2015-11-22T13:14:02Z</time>
      </trkpt>
      <trkpt lat="43.90716" lon="3.61719">
        <ele>473.59</ele>
        <time>2015-11-22T13:14:16Z</time>
      </trkpt>
      <trkpt lat="43.90714" lon="3.61732">
        <ele>471.18</ele>
        <time>2015-11-22T13:14:28Z</time>
      </trkpt>
      <trkpt lat="43.90712" lon="3.61735">
        <ele>471.66</ele>
        <time>2015-11-22T13:14:43Z</time>
      </trkpt>
      <trkpt lat="43.90709" lon="3.61743">
        <ele>471.18</ele>
        <time>2015-11-22T13:14:48Z</time>
      </trkpt>
      <trkpt lat="43.90706" lon="3.61754">
        <ele>470.7</ele>
        <time>2015-11-22T13:14:55Z</time>
      </trkpt>
      <trkpt lat="43.90704" lon="3.61766">
        <ele>469.26</ele>
        <time>2015-11-22T13:15:08Z</time>
      </trkpt>
      <trkpt lat="43.90699" lon="3.61782">
        <ele>469.74</ele>
        <time>2015-11-22T13:15:19Z</time>
      </trkpt>
      <trkpt lat="43.90697" lon="3.61793">
        <ele>468.78</ele>
        <time>2015-11-22T13:15:30Z</time>
      </trkpt>
      <trkpt lat="43.90693" lon="3.61806">
        <ele>468.3</ele>
        <time>2015-11-22T13:15:40Z</time>
      </trkpt>
      <trkpt lat="43.90691" lon="3.61819">
        <ele>466.38</ele>
        <time>2015-11-22T13:15:49Z</time>
      </trkpt>
      <trkpt lat="43.90688" lon="3.61832">
        <ele>464.93</ele>
        <time>2015-11-22T13:16:00Z</time>
      </trkpt>
      <trkpt lat="43.90686" lon="3.61841">
        <ele>465.9</ele>
        <time>2015-11-22T13:16:12Z</time>
      </trkpt>
      <trkpt lat="43.90682" lon="3.61852">
        <ele>466.86</ele>
        <time>2015-11-22T13:16:22Z</time>
      </trkpt>
      <trkpt lat="43.90673" lon="3.61877">
        <ele>466.86</ele>
        <time>2015-11-22T13:16:35Z</time>
      </trkpt>
      <trkpt lat="43.90669" lon="3.61883">
        <ele>466.86</ele>
        <time>2015-11-22T13:16:42Z</time>
      </trkpt>
      <trkpt lat="43.90662" lon="3.61899">
        <ele>465.9</ele>
        <time>2015-11-22T13:16:55Z</time>
      </trkpt>
      <trkpt lat="43.9066" lon="3.61904">
        <ele>466.86</ele>
        <time>2015-11-22T13:16:59Z</time>
      </trkpt>
      <trkpt lat="43.90658" lon="3.61911">
        <ele>466.86</ele>
        <time>2015-11-22T13:17:03Z</time>
      </trkpt>
      <trkpt lat="43.90654" lon="3.61919">
        <ele>466.86</ele>
        <time>2015-11-22T13:17:09Z</time>
      </trkpt>
      <trkpt lat="43.9065" lon="3.61929">
        <ele>466.38</ele>
        <time>2015-11-22T13:17:16Z</time>
      </trkpt>
      <trkpt lat="43.90644" lon="3.61933">
        <ele>465.9</ele>
        <time>2015-11-22T13:17:21Z</time>
      </trkpt>
      <trkpt lat="43.90632" lon="3.61933">
        <ele>466.38</ele>
        <time>2015-11-22T13:17:30Z</time>
      </trkpt>
      <trkpt lat="43.90626" lon="3.61936">
        <ele>466.86</ele>
        <time>2015-11-22T13:17:35Z</time>
      </trkpt>
      <trkpt lat="43.90611" lon="3.61937">
        <ele>466.38</ele>
        <time>2015-11-22T13:17:49Z</time>
      </trkpt>
      <trkpt lat="43.90609" lon="3.61938">
        <ele>466.38</ele>
        <time>2015-11-22T13:17:52Z</time>
      </trkpt>
      <trkpt lat="43.90604" lon="3.61935">
        <ele>466.38</ele>
        <time>2015-11-22T13:17:56Z</time>
      </trkpt>
      <trkpt lat="43.90587" lon="3.6193">
        <ele>466.38</ele>
        <time>2015-11-22T13:18:10Z</time>
      </trkpt>
      <trkpt lat="43.90586" lon="3.6193">
        <ele>466.38</ele>
        <time>2015-11-22T13:18:11Z</time>
      </trkpt>
      <trkpt lat="43.90583" lon="3.61928">
        <ele>466.38</ele>
        <time>2015-11-22T13:18:13Z</time>
      </trkpt>
      <trkpt lat="43.90564" lon="3.61929">
        <ele>466.38</ele>
        <time>2015-11-22T13:18:28Z</time>
      </trkpt>
      <trkpt lat="43.90554" lon="3.61926">
        <ele>465.42</ele>
        <time>2015-11-22T13:18:40Z</time>
      </trkpt>
      <trkpt lat="43.9055" lon="3.61924">
        <ele>464.93</ele>
        <time>2015-11-22T13:18:46Z</time>
      </trkpt>
      <trkpt lat="43.90542" lon="3.61924">
        <ele>464.93</ele>
        <time>2015-11-22T13:19:00Z</time>
      </trkpt>
      <trkpt lat="43.90543" lon="3.61923">
        <ele>464.93</ele>
        <time>2015-11-22T13:19:22Z</time>
      </trkpt>
      <trkpt lat="43.90543" lon="3.61923">
        <ele>465.42</ele>
        <time>2015-11-22T13:19:56Z</time>
      </trkpt>
      <trkpt lat="43.90544" lon="3.61921">
        <ele>465.42</ele>
        <time>2015-11-22T13:20:29Z</time>
      </trkpt>
      <trkpt lat="43.90539" lon="3.61921">
        <ele>464.45</ele>
        <time>2015-11-22T13:20:50Z</time>
      </trkpt>
      <trkpt lat="43.90529" lon="3.6192">
        <ele>462.53</ele>
        <time>2015-11-22T13:21:00Z</time>
      </trkpt>
      <trkpt lat="43.90515" lon="3.61927">
        <ele>463.97</ele>
        <time>2015-11-22T13:21:14Z</time>
      </trkpt>
      <trkpt lat="43.90507" lon="3.61932">
        <ele>464.45</ele>
        <time>2015-11-22T13:21:22Z</time>
      </trkpt>
      <trkpt lat="43.90496" lon="3.61939">
        <ele>464.93</ele>
        <time>2015-11-22T13:21:30Z</time>
      </trkpt>
      <trkpt lat="43.9049" lon="3.6194">
        <ele>465.9</ele>
        <time>2015-11-22T13:21:36Z</time>
      </trkpt>
      <trkpt lat="43.90472" lon="3.61953">
        <ele>466.38</ele>
        <time>2015-11-22T13:21:52Z</time>
      </trkpt>
      <trkpt lat="43.90466" lon="3.61957">
        <ele>465.42</ele>
        <time>2015-11-22T13:21:58Z</time>
      </trkpt>
      <trkpt lat="43.90462" lon="3.61958">
        <ele>465.42</ele>
        <time>2015-11-22T13:22:01Z</time>
      </trkpt>
      <trkpt lat="43.90446" lon="3.6196">
        <ele>465.42</ele>
        <time>2015-11-22T13:22:14Z</time>
      </trkpt>
      <trkpt lat="43.90441" lon="3.61957">
        <ele>464.93</ele>
        <time>2015-11-22T13:22:18Z</time>
      </trkpt>
      <trkpt lat="43.90436" lon="3.6195">
        <ele>465.42</ele>
        <time>2015-11-22T13:22:25Z</time>
      </trkpt>
      <trkpt lat="43.90424" lon="3.6194">
        <ele>466.38</ele>
        <time>2015-11-22T13:22:36Z</time>
      </trkpt>
      <trkpt lat="43.90423" lon="3.61934">
        <ele>465.9</ele>
        <time>2015-11-22T13:22:40Z</time>
      </trkpt>
      <trkpt lat="43.90413" lon="3.61927">
        <ele>465.9</ele>
        <time>2015-11-22T13:22:50Z</time>
      </trkpt>
      <trkpt lat="43.90407" lon="3.61921">
        <ele>465.9</ele>
        <time>2015-11-22T13:22:56Z</time>
      </trkpt>
      <trkpt lat="43.90402" lon="3.61915">
        <ele>465.42</ele>
        <time>2015-11-22T13:23:00Z</time>
      </trkpt>
      <trkpt lat="43.90397" lon="3.61908">
        <ele>466.38</ele>
        <time>2015-11-22T13:23:07Z</time>
      </trkpt>
      <trkpt lat="43.90387" lon="3.61896">
        <ele>467.34</ele>
        <time>2015-11-22T13:23:21Z</time>
      </trkpt>
      <trkpt lat="43.90378" lon="3.61892">
        <ele>467.34</ele>
        <time>2015-11-22T13:23:30Z</time>
      </trkpt>
      <trkpt lat="43.90369" lon="3.61886">
        <ele>466.38</ele>
        <time>2015-11-22T13:23:39Z</time>
      </trkpt>
      <trkpt lat="43.90363" lon="3.61883">
        <ele>465.42</ele>
        <time>2015-11-22T13:23:45Z</time>
      </trkpt>
      <trkpt lat="43.90359" lon="3.61884">
        <ele>464.93</ele>
        <time>2015-11-22T13:23:48Z</time>
      </trkpt>
      <trkpt lat="43.90357" lon="3.61885">
        <ele>464.45</ele>
        <time>2015-11-22T13:23:50Z</time>
      </trkpt>
      <trkpt lat="43.90346" lon="3.61885">
        <ele>464.45</ele>
        <time>2015-11-22T13:24:00Z</time>
      </trkpt>
      <trkpt lat="43.90336" lon="3.61887">
        <ele>463.49</ele>
        <time>2015-11-22T13:24:11Z</time>
      </trkpt>
      <trkpt lat="43.90331" lon="3.61889">
        <ele>463.97</ele>
        <time>2015-11-22T13:24:15Z</time>
      </trkpt>
      <trkpt lat="43.90321" lon="3.61892">
        <ele>463.97</ele>
        <time>2015-11-22T13:24:26Z</time>
      </trkpt>
      <trkpt lat="43.9032" lon="3.61893">
        <ele>463.49</ele>
        <time>2015-11-22T13:24:28Z</time>
      </trkpt>
      <trkpt lat="43.90313" lon="3.61899">
        <ele>463.01</ele>
        <time>2015-11-22T13:24:38Z</time>
      </trkpt>
      <trkpt lat="43.90307" lon="3.61907">
        <ele>461.57</ele>
        <time>2015-11-22T13:24:50Z</time>
      </trkpt>
      <trkpt lat="43.90304" lon="3.61909">
        <ele>461.57</ele>
        <time>2015-11-22T13:24:53Z</time>
      </trkpt>
      <trkpt lat="43.90299" lon="3.61919">
        <ele>460.13</ele>
        <time>2015-11-22T13:25:04Z</time>
      </trkpt>
      <trkpt lat="43.90297" lon="3.61922">
        <ele>459.17</ele>
        <time>2015-11-22T13:25:08Z</time>
      </trkpt>
      <trkpt lat="43.90294" lon="3.61927">
        <ele>459.17</ele>
        <time>2015-11-22T13:25:13Z</time>
      </trkpt>
      <trkpt lat="43.90286" lon="3.61943">
        <ele>456.76</ele>
        <time>2015-11-22T13:25:23Z</time>
      </trkpt>
      <trkpt lat="43.90282" lon="3.61948">
        <ele>456.28</ele>
        <time>2015-11-22T13:25:28Z</time>
      </trkpt>
      <trkpt lat="43.90274" lon="3.61961">
        <ele>453.88</ele>
        <time>2015-11-22T13:25:38Z</time>
      </trkpt>
      <trkpt lat="43.90267" lon="3.6197">
        <ele>451.48</ele>
        <time>2015-11-22T13:25:49Z</time>
      </trkpt>
      <trkpt lat="43.90262" lon="3.61979">
        <ele>451</ele>
        <time>2015-11-22T13:25:57Z</time>
      </trkpt>
      <trkpt lat="43.9026" lon="3.61981">
        <ele>451</ele>
        <time>2015-11-22T13:25:59Z</time>
      </trkpt>
      <trkpt lat="43.90258" lon="3.61984">
        <ele>450.52</ele>
        <time>2015-11-22T13:26:02Z</time>
      </trkpt>
      <trkpt lat="43.90252" lon="3.61991">
        <ele>450.03</ele>
        <time>2015-11-22T13:26:09Z</time>
      </trkpt>
      <trkpt lat="43.9025" lon="3.61995">
        <ele>449.55</ele>
        <time>2015-11-22T13:26:12Z</time>
      </trkpt>
      <trkpt lat="43.90246" lon="3.62001">
        <ele>448.11</ele>
        <time>2015-11-22T13:26:19Z</time>
      </trkpt>
      <trkpt lat="43.90237" lon="3.6201">
        <ele>446.67</ele>
        <time>2015-11-22T13:26:30Z</time>
      </trkpt>
      <trkpt lat="43.9023" lon="3.6202">
        <ele>445.71</ele>
        <time>2015-11-22T13:26:44Z</time>
      </trkpt>
      <trkpt lat="43.90223" lon="3.62028">
        <ele>443.31</ele>
        <time>2015-11-22T13:26:56Z</time>
      </trkpt>
      <trkpt lat="43.90221" lon="3.62032">
        <ele>442.34</ele>
        <time>2015-11-22T13:27:00Z</time>
      </trkpt>
      <trkpt lat="43.90218" lon="3.62034">
        <ele>441.86</ele>
        <time>2015-11-22T13:27:03Z</time>
      </trkpt>
      <trkpt lat="43.90216" lon="3.62039">
        <ele>440.9</ele>
        <time>2015-11-22T13:27:07Z</time>
      </trkpt>
      <trkpt lat="43.90214" lon="3.6205">
        <ele>439.94</ele>
        <time>2015-11-22T13:27:14Z</time>
      </trkpt>
      <trkpt lat="43.90209" lon="3.62057">
        <ele>439.46</ele>
        <time>2015-11-22T13:27:20Z</time>
      </trkpt>
      <trkpt lat="43.90203" lon="3.62064">
        <ele>438.02</ele>
        <time>2015-11-22T13:27:27Z</time>
      </trkpt>
      <trkpt lat="43.90199" lon="3.62074">
        <ele>437.06</ele>
        <time>2015-11-22T13:27:34Z</time>
      </trkpt>
      <trkpt lat="43.90196" lon="3.62078">
        <ele>437.06</ele>
        <time>2015-11-22T13:27:37Z</time>
      </trkpt>
      <trkpt lat="43.9019" lon="3.6209">
        <ele>436.58</ele>
        <time>2015-11-22T13:27:45Z</time>
      </trkpt>
      <trkpt lat="43.90184" lon="3.6211">
        <ele>435.61</ele>
        <time>2015-11-22T13:27:57Z</time>
      </trkpt>
      <trkpt lat="43.90183" lon="3.62113">
        <ele>435.13</ele>
        <time>2015-11-22T13:27:59Z</time>
      </trkpt>
      <trkpt lat="43.90169" lon="3.62127">
        <ele>433.69</ele>
        <time>2015-11-22T13:28:13Z</time>
      </trkpt>
      <trkpt lat="43.90167" lon="3.62128">
        <ele>433.21</ele>
        <time>2015-11-22T13:28:15Z</time>
      </trkpt>
      <trkpt lat="43.90153" lon="3.62136">
        <ele>432.25</ele>
        <time>2015-11-22T13:28:29Z</time>
      </trkpt>
      <trkpt lat="43.90149" lon="3.62137">
        <ele>432.25</ele>
        <time>2015-11-22T13:28:33Z</time>
      </trkpt>
      <trkpt lat="43.90145" lon="3.62138">
        <ele>431.77</ele>
        <time>2015-11-22T13:28:37Z</time>
      </trkpt>
      <trkpt lat="43.90128" lon="3.62137">
        <ele>430.33</ele>
        <time>2015-11-22T13:28:51Z</time>
      </trkpt>
      <trkpt lat="43.90115" lon="3.62135">
        <ele>428.4</ele>
        <time>2015-11-22T13:29:04Z</time>
      </trkpt>
      <trkpt lat="43.90109" lon="3.62132">
        <ele>426.96</ele>
        <time>2015-11-22T13:29:10Z</time>
      </trkpt>
      <trkpt lat="43.90092" lon="3.6213">
        <ele>424.08</ele>
        <time>2015-11-22T13:29:23Z</time>
      </trkpt>
      <trkpt lat="43.9008" lon="3.6213">
        <ele>424.08</ele>
        <time>2015-11-22T13:29:34Z</time>
      </trkpt>
      <trkpt lat="43.90076" lon="3.62132">
        <ele>425.04</ele>
        <time>2015-11-22T13:29:41Z</time>
      </trkpt>
      <trkpt lat="43.90074" lon="3.62135">
        <ele>425.04</ele>
        <time>2015-11-22T13:29:44Z</time>
      </trkpt>
      <trkpt lat="43.90064" lon="3.62146">
        <ele>424.08</ele>
        <time>2015-11-22T13:29:56Z</time>
      </trkpt>
      <trkpt lat="43.90051" lon="3.62156">
        <ele>423.12</ele>
        <time>2015-11-22T13:30:09Z</time>
      </trkpt>
      <trkpt lat="43.90043" lon="3.62164">
        <ele>422.64</ele>
        <time>2015-11-22T13:30:17Z</time>
      </trkpt>
      <trkpt lat="43.90035" lon="3.62168">
        <ele>422.16</ele>
        <time>2015-11-22T13:30:23Z</time>
      </trkpt>
      <trkpt lat="43.90023" lon="3.62166">
        <ele>421.19</ele>
        <time>2015-11-22T13:30:32Z</time>
      </trkpt>
      <trkpt lat="43.90007" lon="3.62164">
        <ele>419.75</ele>
        <time>2015-11-22T13:30:46Z</time>
      </trkpt>
      <trkpt lat="43.8999" lon="3.6216">
        <ele>417.83</ele>
        <time>2015-11-22T13:31:00Z</time>
      </trkpt>
      <trkpt lat="43.89988" lon="3.6216">
        <ele>417.83</ele>
        <time>2015-11-22T13:31:01Z</time>
      </trkpt>
      <trkpt lat="43.89979" lon="3.62156">
        <ele>416.87</ele>
        <time>2015-11-22T13:31:10Z</time>
      </trkpt>
      <trkpt lat="43.89976" lon="3.62154">
        <ele>416.87</ele>
        <time>2015-11-22T13:31:13Z</time>
      </trkpt>
      <trkpt lat="43.89974" lon="3.62153">
        <ele>416.39</ele>
        <time>2015-11-22T13:31:16Z</time>
      </trkpt>
      <trkpt lat="43.89967" lon="3.62152">
        <ele>415.91</ele>
        <time>2015-11-22T13:31:21Z</time>
      </trkpt>
      <trkpt lat="43.89962" lon="3.62149">
        <ele>415.91</ele>
        <time>2015-11-22T13:31:26Z</time>
      </trkpt>
      <trkpt lat="43.89955" lon="3.62146">
        <ele>414.47</ele>
        <time>2015-11-22T13:31:33Z</time>
      </trkpt>
      <trkpt lat="43.89951" lon="3.62144">
        <ele>414.47</ele>
        <time>2015-11-22T13:31:37Z</time>
      </trkpt>
      <trkpt lat="43.89945" lon="3.62141">
        <ele>413.98</ele>
        <time>2015-11-22T13:31:42Z</time>
      </trkpt>
      <trkpt lat="43.89932" lon="3.62127">
        <ele>411.58</ele>
        <time>2015-11-22T13:31:57Z</time>
      </trkpt>
      <trkpt lat="43.89921" lon="3.62125">
        <ele>410.14</ele>
        <time>2015-11-22T13:32:11Z</time>
      </trkpt>
      <trkpt lat="43.8992" lon="3.62124">
        <ele>410.14</ele>
        <time>2015-11-22T13:32:31Z</time>
      </trkpt>
      <trkpt lat="43.8992" lon="3.62123">
        <ele>409.66</ele>
        <time>2015-11-22T13:32:47Z</time>
      </trkpt>
      <trkpt lat="43.89926" lon="3.62121">
        <ele>410.62</ele>
        <time>2015-11-22T13:32:59Z</time>
      </trkpt>
      <trkpt lat="43.89927" lon="3.6212">
        <ele>411.1</ele>
        <time>2015-11-22T13:33:27Z</time>
      </trkpt>
      <trkpt lat="43.89926" lon="3.6212">
        <ele>410.62</ele>
        <time>2015-11-22T13:33:42Z</time>
      </trkpt>
      <trkpt lat="43.89923" lon="3.62117">
        <ele>410.14</ele>
        <time>2015-11-22T13:33:55Z</time>
      </trkpt>
      <trkpt lat="43.8992" lon="3.62115">
        <ele>409.66</ele>
        <time>2015-11-22T13:33:58Z</time>
      </trkpt>
      <trkpt lat="43.89912" lon="3.62104">
        <ele>408.22</ele>
        <time>2015-11-22T13:34:09Z</time>
      </trkpt>
      <trkpt lat="43.89909" lon="3.62101">
        <ele>407.26</ele>
        <time>2015-11-22T13:34:12Z</time>
      </trkpt>
      <trkpt lat="43.89906" lon="3.62094">
        <ele>406.77</ele>
        <time>2015-11-22T13:34:17Z</time>
      </trkpt>
      <trkpt lat="43.89898" lon="3.6207">
        <ele>403.89</ele>
        <time>2015-11-22T13:34:33Z</time>
      </trkpt>
      <trkpt lat="43.89895" lon="3.62065">
        <ele>403.89</ele>
        <time>2015-11-22T13:34:38Z</time>
      </trkpt>
      <trkpt lat="43.89887" lon="3.62052">
        <ele>402.45</ele>
        <time>2015-11-22T13:34:52Z</time>
      </trkpt>
      <trkpt lat="43.89876" lon="3.62046">
        <ele>401.49</ele>
        <time>2015-11-22T13:35:04Z</time>
      </trkpt>
      <trkpt lat="43.89875" lon="3.62046">
        <ele>401.01</ele>
        <time>2015-11-22T13:35:07Z</time>
      </trkpt>
      <trkpt lat="43.8987" lon="3.62051">
        <ele>401.49</ele>
        <time>2015-11-22T13:35:13Z</time>
      </trkpt>
      <trkpt lat="43.89865" lon="3.62056">
        <ele>401.49</ele>
        <time>2015-11-22T13:35:18Z</time>
      </trkpt>
      <trkpt lat="43.89861" lon="3.62055">
        <ele>401.97</ele>
        <time>2015-11-22T13:35:22Z</time>
      </trkpt>
      <trkpt lat="43.89858" lon="3.62055">
        <ele>402.45</ele>
        <time>2015-11-22T13:35:24Z</time>
      </trkpt>
      <trkpt lat="43.89853" lon="3.62056">
        <ele>402.45</ele>
        <time>2015-11-22T13:35:28Z</time>
      </trkpt>
      <trkpt lat="43.89848" lon="3.62055">
        <ele>403.89</ele>
        <time>2015-11-22T13:35:33Z</time>
      </trkpt>
      <trkpt lat="43.89838" lon="3.62053">
        <ele>403.89</ele>
        <time>2015-11-22T13:35:46Z</time>
      </trkpt>
      <trkpt lat="43.8983" lon="3.62054">
        <ele>403.89</ele>
        <time>2015-11-22T13:35:56Z</time>
      </trkpt>
      <trkpt lat="43.89821" lon="3.62067">
        <ele>405.81</ele>
        <time>2015-11-22T13:36:12Z</time>
      </trkpt>
      <trkpt lat="43.89818" lon="3.6207">
        <ele>406.29</ele>
        <time>2015-11-22T13:36:16Z</time>
      </trkpt>
      <trkpt lat="43.89816" lon="3.62071">
        <ele>406.77</ele>
        <time>2015-11-22T13:36:18Z</time>
      </trkpt>
      <trkpt lat="43.89798" lon="3.62076">
        <ele>408.22</ele>
        <time>2015-11-22T13:36:34Z</time>
      </trkpt>
      <trkpt lat="43.89797" lon="3.62076">
        <ele>408.7</ele>
        <time>2015-11-22T13:36:36Z</time>
      </trkpt>
      <trkpt lat="43.89784" lon="3.62074">
        <ele>408.7</ele>
        <time>2015-11-22T13:36:47Z</time>
      </trkpt>
      <trkpt lat="43.89777" lon="3.62068">
        <ele>409.66</ele>
        <time>2015-11-22T13:36:55Z</time>
      </trkpt>
      <trkpt lat="43.89765" lon="3.62069">
        <ele>409.66</ele>
        <time>2015-11-22T13:37:05Z</time>
      </trkpt>
      <trkpt lat="43.89758" lon="3.6207">
        <ele>410.14</ele>
        <time>2015-11-22T13:37:11Z</time>
      </trkpt>
      <trkpt lat="43.89743" lon="3.62078">
        <ele>410.62</ele>
        <time>2015-11-22T13:37:26Z</time>
      </trkpt>
      <trkpt lat="43.8973" lon="3.62084">
        <ele>410.14</ele>
        <time>2015-11-22T13:37:36Z</time>
      </trkpt>
      <trkpt lat="43.89717" lon="3.62086">
        <ele>410.62</ele>
        <time>2015-11-22T13:37:46Z</time>
      </trkpt>
      <trkpt lat="43.89714" lon="3.62086">
        <ele>411.1</ele>
        <time>2015-11-22T13:37:49Z</time>
      </trkpt>
      <trkpt lat="43.89695" lon="3.62086">
        <ele>411.1</ele>
        <time>2015-11-22T13:38:05Z</time>
      </trkpt>
      <trkpt lat="43.89693" lon="3.62086">
        <ele>411.1</ele>
        <time>2015-11-22T13:38:06Z</time>
      </trkpt>
      <trkpt lat="43.8969" lon="3.62085">
        <ele>411.1</ele>
        <time>2015-11-22T13:38:09Z</time>
      </trkpt>
      <trkpt lat="43.89673" lon="3.62079">
        <ele>410.62</ele>
        <time>2015-11-22T13:38:22Z</time>
      </trkpt>
      <trkpt lat="43.89651" lon="3.62067">
        <ele>410.14</ele>
        <time>2015-11-22T13:38:39Z</time>
      </trkpt>
      <trkpt lat="43.89631" lon="3.62051">
        <ele>409.18</ele>
        <time>2015-11-22T13:38:57Z</time>
      </trkpt>
      <trkpt lat="43.89615" lon="3.62033">
        <ele>407.74</ele>
        <time>2015-11-22T13:39:12Z</time>
      </trkpt>
      <trkpt lat="43.89603" lon="3.6202">
        <ele>406.29</ele>
        <time>2015-11-22T13:39:25Z</time>
      </trkpt>
      <trkpt lat="43.89602" lon="3.62019">
        <ele>406.29</ele>
        <time>2015-11-22T13:39:26Z</time>
      </trkpt>
      <trkpt lat="43.89593" lon="3.62">
        <ele>404.37</ele>
        <time>2015-11-22T13:39:39Z</time>
      </trkpt>
      <trkpt lat="43.89589" lon="3.6199">
        <ele>402.93</ele>
        <time>2015-11-22T13:39:47Z</time>
      </trkpt>
      <trkpt lat="43.89579" lon="3.61969">
        <ele>400.53</ele>
        <time>2015-11-22T13:40:01Z</time>
      </trkpt>
      <trkpt lat="43.89572" lon="3.61957">
        <ele>399.08</ele>
        <time>2015-11-22T13:40:11Z</time>
      </trkpt>
      <trkpt lat="43.89563" lon="3.61935">
        <ele>396.68</ele>
        <time>2015-11-22T13:40:26Z</time>
      </trkpt>
      <trkpt lat="43.89561" lon="3.61932">
        <ele>396.2</ele>
        <time>2015-11-22T13:40:30Z</time>
      </trkpt>
      <trkpt lat="43.89558" lon="3.61931">
        <ele>395.72</ele>
        <time>2015-11-22T13:40:33Z</time>
      </trkpt>
      <trkpt lat="43.89548" lon="3.61926">
        <ele>394.76</ele>
        <time>2015-11-22T13:40:42Z</time>
      </trkpt>
      <trkpt lat="43.89535" lon="3.61917">
        <ele>394.28</ele>
        <time>2015-11-22T13:40:56Z</time>
      </trkpt>
      <trkpt lat="43.89535" lon="3.61917">
        <ele>394.28</ele>
        <time>2015-11-22T13:40:57Z</time>
      </trkpt>
      <trkpt lat="43.89533" lon="3.6192">
        <ele>394.28</ele>
        <time>2015-11-22T13:41:11Z</time>
      </trkpt>
      <trkpt lat="43.89532" lon="3.61917">
        <ele>394.28</ele>
        <time>2015-11-22T13:41:30Z</time>
      </trkpt>
      <trkpt lat="43.89532" lon="3.61911">
        <ele>394.28</ele>
        <time>2015-11-22T13:41:35Z</time>
      </trkpt>
      <trkpt lat="43.8953" lon="3.61907">
        <ele>394.28</ele>
        <time>2015-11-22T13:41:38Z</time>
      </trkpt>
      <trkpt lat="43.89522" lon="3.61895">
        <ele>394.28</ele>
        <time>2015-11-22T13:41:50Z</time>
      </trkpt>
      <trkpt lat="43.89517" lon="3.61898">
        <ele>392.36</ele>
        <time>2015-11-22T13:41:58Z</time>
      </trkpt>
      <trkpt lat="43.89514" lon="3.61899">
        <ele>391.39</ele>
        <time>2015-11-22T13:42:01Z</time>
      </trkpt>
      <trkpt lat="43.8951" lon="3.61899">
        <ele>390.43</ele>
        <time>2015-11-22T13:42:05Z</time>
      </trkpt>
      <trkpt lat="43.89508" lon="3.61899">
        <ele>389.95</ele>
        <time>2015-11-22T13:42:07Z</time>
      </trkpt>
      <trkpt lat="43.89506" lon="3.61899">
        <ele>389.95</ele>
        <time>2015-11-22T13:42:09Z</time>
      </trkpt>
      <trkpt lat="43.895" lon="3.61899">
        <ele>388.51</ele>
        <time>2015-11-22T13:42:19Z</time>
      </trkpt>
      <trkpt lat="43.89496" lon="3.619">
        <ele>388.03</ele>
        <time>2015-11-22T13:42:23Z</time>
      </trkpt>
      <trkpt lat="43.89491" lon="3.61909">
        <ele>387.55</ele>
        <time>2015-11-22T13:42:36Z</time>
      </trkpt>
      <trkpt lat="43.89491" lon="3.61909">
        <ele>388.03</ele>
        <time>2015-11-22T13:42:58Z</time>
      </trkpt>
      <trkpt lat="43.89496" lon="3.61902">
        <ele>388.03</ele>
        <time>2015-11-22T13:43:09Z</time>
      </trkpt>
      <trkpt lat="43.89497" lon="3.61901">
        <ele>388.03</ele>
        <time>2015-11-22T13:43:10Z</time>
      </trkpt>
      <trkpt lat="43.89502" lon="3.619">
        <ele>387.55</ele>
        <time>2015-11-22T13:43:22Z</time>
      </trkpt>
      <trkpt lat="43.89503" lon="3.619">
        <ele>387.07</ele>
        <time>2015-11-22T13:43:38Z</time>
      </trkpt>
      <trkpt lat="43.89506" lon="3.61901">
        <ele>386.11</ele>
        <time>2015-11-22T13:43:57Z</time>
      </trkpt>
      <trkpt lat="43.89506" lon="3.61908">
        <ele>383.7</ele>
        <time>2015-11-22T13:44:08Z</time>
      </trkpt>
      <trkpt lat="43.8951" lon="3.61917">
        <ele>381.3</ele>
        <time>2015-11-22T13:44:21Z</time>
      </trkpt>
      <trkpt lat="43.89509" lon="3.61924">
        <ele>379.86</ele>
        <time>2015-11-22T13:44:33Z</time>
      </trkpt>
      <trkpt lat="43.89508" lon="3.61933">
        <ele>377.45</ele>
        <time>2015-11-22T13:44:45Z</time>
      </trkpt>
      <trkpt lat="43.89504" lon="3.61939">
        <ele>375.05</ele>
        <time>2015-11-22T13:44:58Z</time>
      </trkpt>
      <trkpt lat="43.89496" lon="3.61941">
        <ele>373.13</ele>
        <time>2015-11-22T13:45:10Z</time>
      </trkpt>
      <trkpt lat="43.89495" lon="3.61943">
        <ele>370.73</ele>
        <time>2015-11-22T13:45:21Z</time>
      </trkpt>
      <trkpt lat="43.89494" lon="3.61947">
        <ele>367.84</ele>
        <time>2015-11-22T13:45:33Z</time>
      </trkpt>
      <trkpt lat="43.89487" lon="3.61953">
        <ele>364.96</ele>
        <time>2015-11-22T13:45:47Z</time>
      </trkpt>
      <trkpt lat="43.89485" lon="3.61964">
        <ele>362.55</ele>
        <time>2015-11-22T13:46:00Z</time>
      </trkpt>
      <trkpt lat="43.89482" lon="3.61964">
        <ele>360.15</ele>
        <time>2015-11-22T13:46:10Z</time>
      </trkpt>
      <trkpt lat="43.89482" lon="3.6197">
        <ele>357.75</ele>
        <time>2015-11-22T13:46:20Z</time>
      </trkpt>
      <trkpt lat="43.89478" lon="3.61978">
        <ele>356.79</ele>
        <time>2015-11-22T13:46:32Z</time>
      </trkpt>
      <trkpt lat="43.89477" lon="3.61981">
        <ele>355.34</ele>
        <time>2015-11-22T13:46:37Z</time>
      </trkpt>
      <trkpt lat="43.89476" lon="3.61989">
        <ele>353.9</ele>
        <time>2015-11-22T13:46:42Z</time>
      </trkpt>
      <trkpt lat="43.89474" lon="3.61993">
        <ele>352.46</ele>
        <time>2015-11-22T13:46:55Z</time>
      </trkpt>
      <trkpt lat="43.89475" lon="3.62004">
        <ele>350.06</ele>
        <time>2015-11-22T13:47:08Z</time>
      </trkpt>
      <trkpt lat="43.89475" lon="3.6201">
        <ele>350.06</ele>
        <time>2015-11-22T13:47:15Z</time>
      </trkpt>
      <trkpt lat="43.89481" lon="3.62015">
        <ele>348.62</ele>
        <time>2015-11-22T13:47:27Z</time>
      </trkpt>
      <trkpt lat="43.89491" lon="3.62024">
        <ele>346.69</ele>
        <time>2015-11-22T13:47:41Z</time>
      </trkpt>
      <trkpt lat="43.89492" lon="3.62033">
        <ele>345.25</ele>
        <time>2015-11-22T13:47:53Z</time>
      </trkpt>
      <trkpt lat="43.89489" lon="3.62044">
        <ele>343.33</ele>
        <time>2015-11-22T13:48:05Z</time>
      </trkpt>
      <trkpt lat="43.89486" lon="3.62055">
        <ele>340.92</ele>
        <time>2015-11-22T13:48:15Z</time>
      </trkpt>
      <trkpt lat="43.89483" lon="3.62069">
        <ele>339.48</ele>
        <time>2015-11-22T13:48:26Z</time>
      </trkpt>
      <trkpt lat="43.89478" lon="3.62082">
        <ele>337.08</ele>
        <time>2015-11-22T13:48:39Z</time>
      </trkpt>
      <trkpt lat="43.89478" lon="3.62084">
        <ele>336.12</ele>
        <time>2015-11-22T13:48:41Z</time>
      </trkpt>
      <trkpt lat="43.89476" lon="3.62088">
        <ele>335.16</ele>
        <time>2015-11-22T13:48:48Z</time>
      </trkpt>
      <trkpt lat="43.8947" lon="3.62098">
        <ele>333.71</ele>
        <time>2015-11-22T13:49:01Z</time>
      </trkpt>
      <trkpt lat="43.89472" lon="3.62103">
        <ele>330.83</ele>
        <time>2015-11-22T13:49:13Z</time>
      </trkpt>
      <trkpt lat="43.8948" lon="3.62115">
        <ele>327.95</ele>
        <time>2015-11-22T13:49:28Z</time>
      </trkpt>
      <trkpt lat="43.89487" lon="3.62117">
        <ele>326.5</ele>
        <time>2015-11-22T13:49:43Z</time>
      </trkpt>
      <trkpt lat="43.89495" lon="3.6212">
        <ele>324.58</ele>
        <time>2015-11-22T13:49:56Z</time>
      </trkpt>
      <trkpt lat="43.89498" lon="3.62127">
        <ele>322.18</ele>
        <time>2015-11-22T13:50:11Z</time>
      </trkpt>
      <trkpt lat="43.89499" lon="3.62136">
        <ele>319.3</ele>
        <time>2015-11-22T13:50:26Z</time>
      </trkpt>
      <trkpt lat="43.89497" lon="3.62142">
        <ele>315.93</ele>
        <time>2015-11-22T13:50:40Z</time>
      </trkpt>
      <trkpt lat="43.89498" lon="3.62149">
        <ele>313.53</ele>
        <time>2015-11-22T13:50:52Z</time>
      </trkpt>
      <trkpt lat="43.89498" lon="3.62151">
        <ele>313.53</ele>
        <time>2015-11-22T13:51:07Z</time>
      </trkpt>
      <trkpt lat="43.89498" lon="3.6215">
        <ele>313.53</ele>
        <time>2015-11-22T13:51:24Z</time>
      </trkpt>
      <trkpt lat="43.89498" lon="3.62153">
        <ele>311.6</ele>
        <time>2015-11-22T13:51:38Z</time>
      </trkpt>
      <trkpt lat="43.89499" lon="3.6216">
        <ele>309.2</ele>
        <time>2015-11-22T13:51:52Z</time>
      </trkpt>
      <trkpt lat="43.89496" lon="3.62163">
        <ele>306.8</ele>
        <time>2015-11-22T13:52:03Z</time>
      </trkpt>
      <trkpt lat="43.89496" lon="3.62164">
        <ele>306.8</ele>
        <time>2015-11-22T13:52:14Z</time>
      </trkpt>
      <trkpt lat="43.89497" lon="3.62171">
        <ele>304.88</ele>
        <time>2015-11-22T13:52:25Z</time>
      </trkpt>
      <trkpt lat="43.89498" lon="3.62176">
        <ele>301.99</ele>
        <time>2015-11-22T13:52:36Z</time>
      </trkpt>
      <trkpt lat="43.89496" lon="3.62188">
        <ele>300.55</ele>
        <time>2015-11-22T13:52:47Z</time>
      </trkpt>
      <trkpt lat="43.89492" lon="3.6219">
        <ele>300.07</ele>
        <time>2015-11-22T13:53:02Z</time>
      </trkpt>
      <trkpt lat="43.89489" lon="3.6219">
        <ele>298.63</ele>
        <time>2015-11-22T13:53:18Z</time>
      </trkpt>
      <trkpt lat="43.89483" lon="3.62187">
        <ele>296.7</ele>
        <time>2015-11-22T13:53:27Z</time>
      </trkpt>
      <trkpt lat="43.89481" lon="3.62197">
        <ele>294.78</ele>
        <time>2015-11-22T13:53:39Z</time>
      </trkpt>
      <trkpt lat="43.89481" lon="3.62204">
        <ele>293.82</ele>
        <time>2015-11-22T13:53:48Z</time>
      </trkpt>
      <trkpt lat="43.89479" lon="3.62212">
        <ele>292.86</ele>
        <time>2015-11-22T13:53:55Z</time>
      </trkpt>
      <trkpt lat="43.89477" lon="3.62218">
        <ele>292.38</ele>
        <time>2015-11-22T13:54:02Z</time>
      </trkpt>
      <trkpt lat="43.89472" lon="3.62228">
        <ele>291.9</ele>
        <time>2015-11-22T13:54:13Z</time>
      </trkpt>
      <trkpt lat="43.89469" lon="3.62234">
        <ele>289.97</ele>
        <time>2015-11-22T13:54:27Z</time>
      </trkpt>
      <trkpt lat="43.89463" lon="3.62243">
        <ele>287.57</ele>
        <time>2015-11-22T13:54:45Z</time>
      </trkpt>
      <trkpt lat="43.89457" lon="3.62246">
        <ele>284.69</ele>
        <time>2015-11-22T13:54:55Z</time>
      </trkpt>
      <trkpt lat="43.89453" lon="3.6225">
        <ele>283.25</ele>
        <time>2015-11-22T13:55:07Z</time>
      </trkpt>
      <trkpt lat="43.89454" lon="3.62252">
        <ele>282.28</ele>
        <time>2015-11-22T13:55:20Z</time>
      </trkpt>
      <trkpt lat="43.89456" lon="3.62254">
        <ele>281.32</ele>
        <time>2015-11-22T13:55:24Z</time>
      </trkpt>
      <trkpt lat="43.89463" lon="3.62262">
        <ele>277.96</ele>
        <time>2015-11-22T13:55:39Z</time>
      </trkpt>
      <trkpt lat="43.89464" lon="3.62262">
        <ele>277.96</ele>
        <time>2015-11-22T13:55:40Z</time>
      </trkpt>
      <trkpt lat="43.8947" lon="3.62265">
        <ele>276.04</ele>
        <time>2015-11-22T13:55:51Z</time>
      </trkpt>
      <trkpt lat="43.89466" lon="3.62275">
        <ele>274.11</ele>
        <time>2015-11-22T13:56:05Z</time>
      </trkpt>
      <trkpt lat="43.89465" lon="3.62282">
        <ele>272.67</ele>
        <time>2015-11-22T13:56:19Z</time>
      </trkpt>
      <trkpt lat="43.89459" lon="3.62281">
        <ele>272.19</ele>
        <time>2015-11-22T13:56:29Z</time>
      </trkpt>
      <trkpt lat="43.89457" lon="3.6228">
        <ele>272.19</ele>
        <time>2015-11-22T13:56:31Z</time>
      </trkpt>
      <trkpt lat="43.89439" lon="3.62276">
        <ele>271.23</ele>
        <time>2015-11-22T13:56:44Z</time>
      </trkpt>
      <trkpt lat="43.89426" lon="3.62276">
        <ele>271.23</ele>
        <time>2015-11-22T13:56:57Z</time>
      </trkpt>
      <trkpt lat="43.89425" lon="3.62274">
        <ele>270.75</ele>
        <time>2015-11-22T13:57:05Z</time>
      </trkpt>
      <trkpt lat="43.89419" lon="3.62268">
        <ele>270.27</ele>
        <time>2015-11-22T13:57:10Z</time>
      </trkpt>
      <trkpt lat="43.89406" lon="3.62258">
        <ele>268.83</ele>
        <time>2015-11-22T13:57:21Z</time>
      </trkpt>
      <trkpt lat="43.89402" lon="3.62256">
        <ele>268.35</ele>
        <time>2015-11-22T13:57:24Z</time>
      </trkpt>
      <trkpt lat="43.89398" lon="3.62253">
        <ele>267.86</ele>
        <time>2015-11-22T13:57:28Z</time>
      </trkpt>
      <trkpt lat="43.89384" lon="3.62242">
        <ele>265.94</ele>
        <time>2015-11-22T13:57:40Z</time>
      </trkpt>
      <trkpt lat="43.89369" lon="3.62231">
        <ele>264.02</ele>
        <time>2015-11-22T13:57:53Z</time>
      </trkpt>
      <trkpt lat="43.89363" lon="3.62228">
        <ele>263.54</ele>
        <time>2015-11-22T13:57:58Z</time>
      </trkpt>
      <trkpt lat="43.89356" lon="3.62225">
        <ele>263.06</ele>
        <time>2015-11-22T13:58:04Z</time>
      </trkpt>
      <trkpt lat="43.89344" lon="3.62223">
        <ele>261.14</ele>
        <time>2015-11-22T13:58:15Z</time>
      </trkpt>
      <trkpt lat="43.89337" lon="3.62219">
        <ele>260.17</ele>
        <time>2015-11-22T13:58:20Z</time>
      </trkpt>
      <trkpt lat="43.89333" lon="3.62213">
        <ele>259.69</ele>
        <time>2015-11-22T13:58:24Z</time>
      </trkpt>
      <trkpt lat="43.89321" lon="3.62205">
        <ele>258.73</ele>
        <time>2015-11-22T13:58:33Z</time>
      </trkpt>
      <trkpt lat="43.89312" lon="3.622">
        <ele>257.77</ele>
        <time>2015-11-22T13:58:44Z</time>
      </trkpt>
      <trkpt lat="43.89311" lon="3.62202">
        <ele>257.29</ele>
        <time>2015-11-22T13:58:49Z</time>
      </trkpt>
      <trkpt lat="43.89304" lon="3.62207">
        <ele>256.81</ele>
        <time>2015-11-22T13:59:01Z</time>
      </trkpt>
      <trkpt lat="43.89303" lon="3.62208">
        <ele>256.81</ele>
        <time>2015-11-22T13:59:23Z</time>
      </trkpt>
      <trkpt lat="43.89304" lon="3.62212">
        <ele>256.33</ele>
        <time>2015-11-22T13:59:38Z</time>
      </trkpt>
      <trkpt lat="43.89304" lon="3.62223">
        <ele>255.85</ele>
        <time>2015-11-22T13:59:49Z</time>
      </trkpt>
      <trkpt lat="43.89304" lon="3.62232">
        <ele>254.89</ele>
        <time>2015-11-22T13:59:57Z</time>
      </trkpt>
      <trkpt lat="43.89303" lon="3.62238">
        <ele>254.41</ele>
        <time>2015-11-22T14:00:02Z</time>
      </trkpt>
      <trkpt lat="43.89304" lon="3.62245">
        <ele>253.44</ele>
        <time>2015-11-22T14:00:06Z</time>
      </trkpt>
      <trkpt lat="43.89304" lon="3.62252">
        <ele>252.96</ele>
        <time>2015-11-22T14:00:10Z</time>
      </trkpt>
      <trkpt lat="43.89305" lon="3.62256">
        <ele>252.48</ele>
        <time>2015-11-22T14:00:13Z</time>
      </trkpt>
      <trkpt lat="43.89305" lon="3.62264">
        <ele>252</ele>
        <time>2015-11-22T14:00:18Z</time>
      </trkpt>
      <trkpt lat="43.89305" lon="3.62276">
        <ele>250.56</ele>
        <time>2015-11-22T14:00:28Z</time>
      </trkpt>
      <trkpt lat="43.89298" lon="3.62294">
        <ele>249.12</ele>
        <time>2015-11-22T14:00:38Z</time>
      </trkpt>
      <trkpt lat="43.89291" lon="3.62317">
        <ele>247.68</ele>
        <time>2015-11-22T14:00:50Z</time>
      </trkpt>
      <trkpt lat="43.89291" lon="3.62319">
        <ele>247.68</ele>
        <time>2015-11-22T14:00:51Z</time>
      </trkpt>
      <trkpt lat="43.89288" lon="3.62326">
        <ele>247.2</ele>
        <time>2015-11-22T14:00:55Z</time>
      </trkpt>
      <trkpt lat="43.89287" lon="3.62336">
        <ele>246.72</ele>
        <time>2015-11-22T14:01:01Z</time>
      </trkpt>
      <trkpt lat="43.89287" lon="3.62346">
        <ele>246.72</ele>
        <time>2015-11-22T14:01:06Z</time>
      </trkpt>
      <trkpt lat="43.89287" lon="3.62359">
        <ele>246.23</ele>
        <time>2015-11-22T14:01:12Z</time>
      </trkpt>
      <trkpt lat="43.8928" lon="3.62383">
        <ele>244.79</ele>
        <time>2015-11-22T14:01:27Z</time>
      </trkpt>
      <trkpt lat="43.8928" lon="3.62385">
        <ele>244.79</ele>
        <time>2015-11-22T14:01:28Z</time>
      </trkpt>
      <trkpt lat="43.89274" lon="3.62406">
        <ele>243.35</ele>
        <time>2015-11-22T14:01:40Z</time>
      </trkpt>
      <trkpt lat="43.89264" lon="3.62419">
        <ele>242.39</ele>
        <time>2015-11-22T14:01:49Z</time>
      </trkpt>
      <trkpt lat="43.89259" lon="3.62424">
        <ele>241.91</ele>
        <time>2015-11-22T14:01:54Z</time>
      </trkpt>
      <trkpt lat="43.89257" lon="3.62428">
        <ele>241.91</ele>
        <time>2015-11-22T14:01:57Z</time>
      </trkpt>
      <trkpt lat="43.89249" lon="3.62435">
        <ele>241.91</ele>
        <time>2015-11-22T14:02:04Z</time>
      </trkpt>
      <trkpt lat="43.89238" lon="3.62443">
        <ele>241.43</ele>
        <time>2015-11-22T14:02:17Z</time>
      </trkpt>
      <trkpt lat="43.89238" lon="3.62443">
        <ele>239.99</ele>
        <time>2015-11-22T14:02:26Z</time>
      </trkpt>
      <trkpt lat="43.8924" lon="3.62446">
        <ele>239.51</ele>
        <time>2015-11-22T14:02:42Z</time>
      </trkpt>
      <trkpt lat="43.89243" lon="3.6245">
        <ele>238.06</ele>
        <time>2015-11-22T14:02:46Z</time>
      </trkpt>
      <trkpt lat="43.8925" lon="3.62461">
        <ele>236.62</ele>
        <time>2015-11-22T14:02:57Z</time>
      </trkpt>
      <trkpt lat="43.89252" lon="3.62465">
        <ele>235.66</ele>
        <time>2015-11-22T14:03:01Z</time>
      </trkpt>
      <trkpt lat="43.89256" lon="3.62471">
        <ele>235.18</ele>
        <time>2015-11-22T14:03:06Z</time>
      </trkpt>
      <trkpt lat="43.89255" lon="3.62485">
        <ele>231.81</ele>
        <time>2015-11-22T14:03:18Z</time>
      </trkpt>
      <trkpt lat="43.89255" lon="3.625">
        <ele>228.45</ele>
        <time>2015-11-22T14:03:30Z</time>
      </trkpt>
      <trkpt lat="43.89252" lon="3.62508">
        <ele>227.49</ele>
        <time>2015-11-22T14:03:37Z</time>
      </trkpt>
      <trkpt lat="43.89248" lon="3.6252">
        <ele>224.12</ele>
        <time>2015-11-22T14:03:49Z</time>
      </trkpt>
      <trkpt lat="43.89248" lon="3.6253">
        <ele>220.76</ele>
        <time>2015-11-22T14:04:00Z</time>
      </trkpt>
      <trkpt lat="43.8925" lon="3.62541">
        <ele>217.88</ele>
        <time>2015-11-22T14:04:11Z</time>
      </trkpt>
      <trkpt lat="43.89248" lon="3.62551">
        <ele>215.47</ele>
        <time>2015-11-22T14:04:21Z</time>
      </trkpt>
      <trkpt lat="43.89241" lon="3.6256">
        <ele>211.63</ele>
        <time>2015-11-22T14:04:33Z</time>
      </trkpt>
      <trkpt lat="43.89237" lon="3.62571">
        <ele>208.74</ele>
        <time>2015-11-22T14:04:47Z</time>
      </trkpt>
      <trkpt lat="43.89229" lon="3.62578">
        <ele>205.38</ele>
        <time>2015-11-22T14:04:59Z</time>
      </trkpt>
      <trkpt lat="43.89232" lon="3.62586">
        <ele>202.98</ele>
        <time>2015-11-22T14:05:12Z</time>
      </trkpt>
      <trkpt lat="43.89239" lon="3.62595">
        <ele>200.57</ele>
        <time>2015-11-22T14:05:25Z</time>
      </trkpt>
      <trkpt lat="43.89239" lon="3.62597">
        <ele>200.09</ele>
        <time>2015-11-22T14:05:44Z</time>
      </trkpt>
      <trkpt lat="43.89233" lon="3.62611">
        <ele>197.21</ele>
        <time>2015-11-22T14:05:59Z</time>
      </trkpt>
      <trkpt lat="43.89232" lon="3.62624">
        <ele>194.8</ele>
        <time>2015-11-22T14:06:13Z</time>
      </trkpt>
      <trkpt lat="43.89233" lon="3.62636">
        <ele>192.4</ele>
        <time>2015-11-22T14:06:24Z</time>
      </trkpt>
      <trkpt lat="43.89238" lon="3.62645">
        <ele>190</ele>
        <time>2015-11-22T14:06:36Z</time>
      </trkpt>
      <trkpt lat="43.89244" lon="3.62653">
        <ele>187.11</ele>
        <time>2015-11-22T14:06:47Z</time>
      </trkpt>
      <trkpt lat="43.89243" lon="3.62659">
        <ele>186.15</ele>
        <time>2015-11-22T14:07:01Z</time>
      </trkpt>
      <trkpt lat="43.89242" lon="3.62659">
        <ele>186.63</ele>
        <time>2015-11-22T14:07:10Z</time>
      </trkpt>
      <trkpt lat="43.89236" lon="3.62664">
        <ele>186.15</ele>
        <time>2015-11-22T14:07:17Z</time>
      </trkpt>
      <trkpt lat="43.8923" lon="3.62668">
        <ele>186.15</ele>
        <time>2015-11-22T14:07:22Z</time>
      </trkpt>
      <trkpt lat="43.89227" lon="3.6267">
        <ele>186.15</ele>
        <time>2015-11-22T14:07:25Z</time>
      </trkpt>
      <trkpt lat="43.89224" lon="3.62678">
        <ele>186.15</ele>
        <time>2015-11-22T14:07:31Z</time>
      </trkpt>
      <trkpt lat="43.89222" lon="3.62684">
        <ele>186.15</ele>
        <time>2015-11-22T14:07:35Z</time>
      </trkpt>
      <trkpt lat="43.89218" lon="3.62688">
        <ele>186.63</ele>
        <time>2015-11-22T14:07:48Z</time>
      </trkpt>
      <trkpt lat="43.89218" lon="3.62687">
        <ele>187.11</ele>
        <time>2015-11-22T14:08:11Z</time>
      </trkpt>
      <trkpt lat="43.89219" lon="3.62686">
        <ele>186.63</ele>
        <time>2015-11-22T14:08:37Z</time>
      </trkpt>
      <trkpt lat="43.89219" lon="3.62688">
        <ele>186.15</ele>
        <time>2015-11-22T14:09:01Z</time>
      </trkpt>
      <trkpt lat="43.89219" lon="3.62688">
        <ele>186.63</ele>
        <time>2015-11-22T14:09:27Z</time>
      </trkpt>
      <trkpt lat="43.89218" lon="3.62688">
        <ele>186.15</ele>
        <time>2015-11-22T14:09:52Z</time>
      </trkpt>
      <trkpt lat="43.89218" lon="3.62687">
        <ele>186.15</ele>
        <time>2015-11-22T14:10:16Z</time>
      </trkpt>
      <trkpt lat="43.89221" lon="3.62687">
        <ele>185.67</ele>
        <time>2015-11-22T14:10:33Z</time>
      </trkpt>
      <trkpt lat="43.8922" lon="3.62688">
        <ele>185.67</ele>
        <time>2015-11-22T14:10:34Z</time>
      </trkpt>
      <trkpt lat="43.89212" lon="3.62692">
        <ele>186.15</ele>
        <time>2015-11-22T14:10:46Z</time>
      </trkpt>
      <trkpt lat="43.89204" lon="3.62686">
        <ele>186.15</ele>
        <time>2015-11-22T14:10:54Z</time>
      </trkpt>
      <trkpt lat="43.89193" lon="3.62679">
        <ele>186.63</ele>
        <time>2015-11-22T14:11:04Z</time>
      </trkpt>
      <trkpt lat="43.89191" lon="3.62677">
        <ele>186.63</ele>
        <time>2015-11-22T14:11:06Z</time>
      </trkpt>
      <trkpt lat="43.89182" lon="3.62671">
        <ele>186.63</ele>
        <time>2015-11-22T14:11:14Z</time>
      </trkpt>
      <trkpt lat="43.8918" lon="3.62667">
        <ele>187.11</ele>
        <time>2015-11-22T14:11:17Z</time>
      </trkpt>
      <trkpt lat="43.89176" lon="3.62665">
        <ele>187.11</ele>
        <time>2015-11-22T14:11:20Z</time>
      </trkpt>
      <trkpt lat="43.89159" lon="3.62651">
        <ele>187.11</ele>
        <time>2015-11-22T14:11:35Z</time>
      </trkpt>
      <trkpt lat="43.89143" lon="3.62639">
        <ele>187.11</ele>
        <time>2015-11-22T14:11:49Z</time>
      </trkpt>
      <trkpt lat="43.8913" lon="3.62633">
        <ele>187.59</ele>
        <time>2015-11-22T14:12:02Z</time>
      </trkpt>
      <trkpt lat="43.89129" lon="3.62629">
        <ele>187.59</ele>
        <time>2015-11-22T14:12:07Z</time>
      </trkpt>
      <trkpt lat="43.89126" lon="3.62627">
        <ele>187.59</ele>
        <time>2015-11-22T14:12:09Z</time>
      </trkpt>
      <trkpt lat="43.89108" lon="3.62622">
        <ele>187.59</ele>
        <time>2015-11-22T14:12:20Z</time>
      </trkpt>
      <trkpt lat="43.89102" lon="3.62619">
        <ele>187.59</ele>
        <time>2015-11-22T14:12:25Z</time>
      </trkpt>
      <trkpt lat="43.89095" lon="3.62613">
        <ele>187.59</ele>
        <time>2015-11-22T14:12:33Z</time>
      </trkpt>
      <trkpt lat="43.8909" lon="3.62612">
        <ele>188.08</ele>
        <time>2015-11-22T14:12:35Z</time>
      </trkpt>
      <trkpt lat="43.89072" lon="3.62603">
        <ele>189.04</ele>
        <time>2015-11-22T14:12:48Z</time>
      </trkpt>
      <trkpt lat="43.89069" lon="3.626">
        <ele>189.52</ele>
        <time>2015-11-22T14:12:51Z</time>
      </trkpt>
      <trkpt lat="43.89064" lon="3.62592">
        <ele>190</ele>
        <time>2015-11-22T14:12:57Z</time>
      </trkpt>
      <trkpt lat="43.89059" lon="3.62587">
        <ele>190.48</ele>
        <time>2015-11-22T14:13:02Z</time>
      </trkpt>
      <trkpt lat="43.89056" lon="3.62577">
        <ele>190.96</ele>
        <time>2015-11-22T14:13:08Z</time>
      </trkpt>
      <trkpt lat="43.89056" lon="3.62572">
        <ele>190.96</ele>
        <time>2015-11-22T14:13:10Z</time>
      </trkpt>
      <trkpt lat="43.89054" lon="3.62563">
        <ele>191.44</ele>
        <time>2015-11-22T14:13:15Z</time>
      </trkpt>
      <trkpt lat="43.89051" lon="3.62552">
        <ele>191.92</ele>
        <time>2015-11-22T14:13:20Z</time>
      </trkpt>
      <trkpt lat="43.89049" lon="3.62547">
        <ele>192.4</ele>
        <time>2015-11-22T14:13:24Z</time>
      </trkpt>
      <trkpt lat="43.89047" lon="3.62536">
        <ele>193.36</ele>
        <time>2015-11-22T14:13:31Z</time>
      </trkpt>
      <trkpt lat="43.89044" lon="3.62531">
        <ele>193.84</ele>
        <time>2015-11-22T14:13:35Z</time>
      </trkpt>
      <trkpt lat="43.89032" lon="3.62518">
        <ele>195.77</ele>
        <time>2015-11-22T14:13:50Z</time>
      </trkpt>
      <trkpt lat="43.89031" lon="3.62518">
        <ele>195.77</ele>
        <time>2015-11-22T14:13:51Z</time>
      </trkpt>
      <trkpt lat="43.89028" lon="3.62517">
        <ele>195.77</ele>
        <time>2015-11-22T14:13:53Z</time>
      </trkpt>
      <trkpt lat="43.8902" lon="3.62519">
        <ele>196.25</ele>
        <time>2015-11-22T14:14:06Z</time>
      </trkpt>
      <trkpt lat="43.8902" lon="3.62517">
        <ele>196.25</ele>
        <time>2015-11-22T14:14:19Z</time>
      </trkpt>
      <trkpt lat="43.8902" lon="3.62517">
        <ele>196.25</ele>
        <time>2015-11-22T14:14:36Z</time>
      </trkpt>
      <trkpt lat="43.8902" lon="3.62518">
        <ele>195.77</ele>
        <time>2015-11-22T14:14:50Z</time>
      </trkpt>
      <trkpt lat="43.8902" lon="3.62518">
        <ele>195.77</ele>
        <time>2015-11-22T14:15:08Z</time>
      </trkpt>
      <trkpt lat="43.8902" lon="3.62521">
        <ele>196.25</ele>
        <time>2015-11-22T14:15:35Z</time>
      </trkpt>
    </trkseg>
  </trk>
</gpx>